<?xml version='1.0' encoding='UTF-8'?><gpx version="1.1" creator="JPX - https://github.com/jenetics/jpx" xmlns="http://www.topografix.com/GPX/1/1"><trk><trkseg><trkpt lat="43.352712176197016" lon="11.415726477220833"><ele>222.99999999999997</ele><time>2026-04-26T07:43:16Z</time></trkpt><trkpt lat="43.35278619411323" lon="11.415680265181592"><ele>223.0</ele><time>2026-04-26T07:43:18Z</time></trkpt><trkpt lat="43.35283742831188" lon="11.415591570251424"><ele>223.0</ele><time>2026-04-26T07:43:20Z</time></trkpt><trkpt lat="43.35291862243722" lon="11.415599124549727"><ele>223.0</ele><time>2026-04-26T07:43:22.999Z</time></trkpt><trkpt lat="43.35296335076469" lon="11.41571488709206"><ele>222.99999999999997</ele><time>2026-04-26T07:43:31Z</time></trkpt><trkpt lat="43.35289037116994" lon="11.415654565207587"><ele>223.0</ele><time>2026-04-26T07:44:39Z</time></trkpt><trkpt lat="43.35281745017077" lon="11.415674787644766"><ele>222.99999999999997</ele><time>2026-04-26T07:44:47Z</time></trkpt><trkpt lat="43.352770494802215" lon="11.415734971330087"><ele>223.0</ele><time>2026-04-26T07:44:52Z</time></trkpt><trkpt lat="43.35271123690652" lon="11.415784440191695"><ele>223.0</ele><time>2026-04-26T07:44:58Z</time></trkpt><trkpt lat="43.352635967505655" lon="11.415795644253754"><ele>223.0</ele><time>2026-04-26T07:45:03.999Z</time></trkpt><trkpt lat="43.352566703820465" lon="11.415781292694044"><ele>222.99999999999997</ele><time>2026-04-26T07:45:09.999Z</time></trkpt><trkpt lat="43.35257638055611" lon="11.415658926198645"><ele>223.0</ele><time>2026-04-26T07:45:25.999Z</time></trkpt><trkpt lat="43.352676372522104" lon="11.415629395437522"><ele>223.0</ele><time>2026-04-26T07:45:35Z</time></trkpt><trkpt lat="43.352593225000476" lon="11.415606724617563"><ele>223.0</ele><time>2026-04-26T07:46:27Z</time></trkpt><trkpt lat="43.35252666675381" lon="11.415868730760858"><ele>223.0</ele><time>2026-04-26T07:46:29Z</time></trkpt><trkpt lat="43.35261572276276" lon="11.415938090648815"><ele>223.0</ele><time>2026-04-26T07:49:37Z</time></trkpt><trkpt lat="43.35253525892543" lon="11.416021561130835"><ele>223.0</ele><time>2026-04-26T07:49:46Z</time></trkpt><trkpt lat="43.352403617504606" lon="11.415985906507276"><ele>223.0</ele><time>2026-04-26T07:49:58Z</time></trkpt><trkpt lat="43.35260011300036" lon="11.41572919983079"><ele>223.0</ele><time>2026-04-26T07:50:03Z</time></trkpt><trkpt lat="43.35258366197451" lon="11.415643384994967"><ele>223.0</ele><time>2026-04-26T07:50:04Z</time></trkpt><trkpt lat="43.35279470386107" lon="11.415669015793936"><ele>223.0</ele><time>2026-04-26T07:50:23Z</time></trkpt><trkpt lat="43.352852636145435" lon="11.415629905178797"><ele>223.0</ele><time>2026-04-26T07:50:28Z</time></trkpt><trkpt lat="43.35291849657407" lon="11.415629960982855"><ele>223.0</ele><time>2026-04-26T07:50:33Z</time></trkpt><trkpt lat="43.352970707568055" lon="11.415687712102242"><ele>223.0</ele><time>2026-04-26T07:50:39Z</time></trkpt><trkpt lat="43.352868027663234" lon="11.415609588316727"><ele>222.99999999999997</ele><time>2026-04-26T07:52:04Z</time></trkpt><trkpt lat="43.35279613227137" lon="11.415660019294215"><ele>223.0</ele><time>2026-04-26T07:52:07Z</time></trkpt><trkpt lat="43.35276706340843" lon="11.415756925175192"><ele>223.0</ele><time>2026-04-26T07:52:12Z</time></trkpt><trkpt lat="43.35282163748342" lon="11.415815278735403"><ele>223.0</ele><time>2026-04-26T07:52:14Z</time></trkpt><trkpt lat="43.35288479724967" lon="11.415834051766767"><ele>222.99999999999997</ele><time>2026-04-26T07:52:15Z</time></trkpt><trkpt lat="43.35296555425775" lon="11.415851834810288"><ele>223.0</ele><time>2026-04-26T07:52:16Z</time></trkpt><trkpt lat="43.35306184321852" lon="11.415877649496032"><ele>223.0</ele><time>2026-04-26T07:52:17Z</time></trkpt><trkpt lat="43.353150931214095" lon="11.415904159177282"><ele>223.0</ele><time>2026-04-26T07:52:18Z</time></trkpt><trkpt lat="43.35325650514557" lon="11.415938612234518"><ele>223.0</ele><time>2026-04-26T07:52:19Z</time></trkpt><trkpt lat="43.35336684333582" lon="11.415997142986138"><ele>223.0</ele><time>2026-04-26T07:52:20Z</time></trkpt><trkpt lat="43.35349467916743" lon="11.416033698468963"><ele>223.0</ele><time>2026-04-26T07:52:21Z</time></trkpt><trkpt lat="43.35362058943057" lon="11.416044795263481"><ele>223.0</ele><time>2026-04-26T07:52:22Z</time></trkpt><trkpt lat="43.35375305454239" lon="11.416078719656248"><ele>223.0</ele><time>2026-04-26T07:52:23Z</time></trkpt><trkpt lat="43.35389843123563" lon="11.416102667726179"><ele>223.0</ele><time>2026-04-26T07:52:24Z</time></trkpt><trkpt lat="43.35404876452485" lon="11.416117074965408"><ele>223.0</ele><time>2026-04-26T07:52:25Z</time></trkpt><trkpt lat="43.35419478874405" lon="11.416134101344063"><ele>223.5</ele><time>2026-04-26T07:52:26Z</time></trkpt><trkpt lat="43.35433153934971" lon="11.416154744581755"><ele>224.0</ele><time>2026-04-26T07:52:27Z</time></trkpt><trkpt lat="43.35445790329645" lon="11.416167369965715"><ele>224.5</ele><time>2026-04-26T07:52:28Z</time></trkpt><trkpt lat="43.35457168743213" lon="11.416184581506164"><ele>225.0</ele><time>2026-04-26T07:52:29Z</time></trkpt><trkpt lat="43.354675750969115" lon="11.416192793183717"><ele>225.4</ele><time>2026-04-26T07:52:30Z</time></trkpt><trkpt lat="43.35476865051284" lon="11.4162058905324"><ele>225.8</ele><time>2026-04-26T07:52:31Z</time></trkpt><trkpt lat="43.354853003560606" lon="11.416219198165592"><ele>226.2</ele><time>2026-04-26T07:52:32Z</time></trkpt><trkpt lat="43.354932593260855" lon="11.416230384800802"><ele>226.6</ele><time>2026-04-26T07:52:33Z</time></trkpt><trkpt lat="43.355022014854825" lon="11.416239834008039"><ele>227.0</ele><time>2026-04-26T07:52:34Z</time></trkpt><trkpt lat="43.355126420115354" lon="11.41625019144351"><ele>227.0</ele><time>2026-04-26T07:52:35Z</time></trkpt><trkpt lat="43.355239752591494" lon="11.416262365547707"><ele>227.0</ele><time>2026-04-26T07:52:36Z</time></trkpt><trkpt lat="43.355356173960644" lon="11.416267560060344"><ele>227.0</ele><time>2026-04-26T07:52:37Z</time></trkpt><trkpt lat="43.35547676736918" lon="11.416251990752889"><ele>227.0</ele><time>2026-04-26T07:52:38Z</time></trkpt><trkpt lat="43.3555974139205" lon="11.416197572242723"><ele>226.0</ele><time>2026-04-26T07:52:39Z</time></trkpt><trkpt lat="43.35570831719885" lon="11.416109978634406"><ele>225.0</ele><time>2026-04-26T07:52:40Z</time></trkpt><trkpt lat="43.35581887695342" lon="11.416050811335252"><ele>224.0</ele><time>2026-04-26T07:52:41Z</time></trkpt><trkpt lat="43.35591361563492" lon="11.415987418942724"><ele>223.0</ele><time>2026-04-26T07:52:42Z</time></trkpt><trkpt lat="43.35599776746415" lon="11.415938488966878"><ele>222.0</ele><time>2026-04-26T07:52:43Z</time></trkpt><trkpt lat="43.35608333796217" lon="11.415907908401953"><ele>222.0</ele><time>2026-04-26T07:52:44Z</time></trkpt><trkpt lat="43.35617164505118" lon="11.415884986060886"><ele>222.0</ele><time>2026-04-26T07:52:45Z</time></trkpt><trkpt lat="43.35626832893887" lon="11.41586721175369"><ele>222.0</ele><time>2026-04-26T07:52:46Z</time></trkpt><trkpt lat="43.3563698887715" lon="11.41591246020889"><ele>222.0</ele><time>2026-04-26T07:52:47Z</time></trkpt><trkpt lat="43.3564607632812" lon="11.41600438361091"><ele>222.0</ele><time>2026-04-26T07:52:48Z</time></trkpt><trkpt lat="43.356538138362886" lon="11.416138355411325"><ele>221.75</ele><time>2026-04-26T07:52:49Z</time></trkpt><trkpt lat="43.356614864735185" lon="11.416290609692277"><ele>221.5</ele><time>2026-04-26T07:52:50Z</time></trkpt><trkpt lat="43.35670168980348" lon="11.416438085650404"><ele>221.25</ele><time>2026-04-26T07:52:51Z</time></trkpt><trkpt lat="43.35679895920427" lon="11.416588530728214"><ele>221.0</ele><time>2026-04-26T07:52:52Z</time></trkpt><trkpt lat="43.356906948181624" lon="11.416759232874613"><ele>220.66666666666669</ele><time>2026-04-26T07:52:53Z</time></trkpt><trkpt lat="43.35702464647659" lon="11.416933394528677"><ele>220.33333333333331</ele><time>2026-04-26T07:52:54Z</time></trkpt><trkpt lat="43.35714608990347" lon="11.417100785193593"><ele>220.0</ele><time>2026-04-26T07:52:55Z</time></trkpt><trkpt lat="43.357264197687634" lon="11.417277955800799"><ele>220.0</ele><time>2026-04-26T07:52:56Z</time></trkpt><trkpt lat="43.35738380604331" lon="11.41746458702923"><ele>220.0</ele><time>2026-04-26T07:52:57Z</time></trkpt><trkpt lat="43.35750369647732" lon="11.417648848650852"><ele>220.0</ele><time>2026-04-26T07:52:58Z</time></trkpt><trkpt lat="43.357626859162075" lon="11.41784029102562"><ele>219.66666666666666</ele><time>2026-04-26T07:52:59Z</time></trkpt><trkpt lat="43.35775498664123" lon="11.4180370811184"><ele>219.33333333333331</ele><time>2026-04-26T07:53:00Z</time></trkpt><trkpt lat="43.35788220545488" lon="11.418229452636341"><ele>219.0</ele><time>2026-04-26T07:53:01Z</time></trkpt><trkpt lat="43.35800801854137" lon="11.418421554882377"><ele>219.66666666666669</ele><time>2026-04-26T07:53:02Z</time></trkpt><trkpt lat="43.358134901068695" lon="11.418615659499029"><ele>220.33333333333334</ele><time>2026-04-26T07:53:03Z</time></trkpt><trkpt lat="43.35825753679783" lon="11.418810266193146"><ele>221.0</ele><time>2026-04-26T07:53:04Z</time></trkpt><trkpt lat="43.35837588624615" lon="11.418993004857532"><ele>221.33333333333334</ele><time>2026-04-26T07:53:05Z</time></trkpt><trkpt lat="43.358480842557256" lon="11.41915748231358"><ele>221.66666666666669</ele><time>2026-04-26T07:53:06Z</time></trkpt><trkpt lat="43.35859035596997" lon="11.419324713353635"><ele>222.0</ele><time>2026-04-26T07:53:07Z</time></trkpt><trkpt lat="43.358689867714276" lon="11.419482988737087"><ele>222.0</ele><time>2026-04-26T07:53:08Z</time></trkpt><trkpt lat="43.3587839232367" lon="11.419625304956181"><ele>222.0</ele><time>2026-04-26T07:53:09Z</time></trkpt><trkpt lat="43.358868580559374" lon="11.419756066364275"><ele>222.0</ele><time>2026-04-26T07:53:10Z</time></trkpt><trkpt lat="43.35894427557462" lon="11.419867617132443"><ele>222.0</ele><time>2026-04-26T07:53:11Z</time></trkpt><trkpt lat="43.35903328439519" lon="11.419946432760772"><ele>223.5</ele><time>2026-04-26T07:53:12Z</time></trkpt><trkpt lat="43.35914954588979" lon="11.419977979646847"><ele>225.0</ele><time>2026-04-26T07:53:13Z</time></trkpt><trkpt lat="43.35926567520283" lon="11.419986540508747"><ele>226.5</ele><time>2026-04-26T07:53:14Z</time></trkpt><trkpt lat="43.35938658363639" lon="11.419945547425575"><ele>228.0</ele><time>2026-04-26T07:53:15Z</time></trkpt><trkpt lat="43.359516468937656" lon="11.4198789587577"><ele>228.0</ele><time>2026-04-26T07:53:16Z</time></trkpt><trkpt lat="43.35966650470983" lon="11.419846268833503"><ele>228.0</ele><time>2026-04-26T07:53:17Z</time></trkpt><trkpt lat="43.35981256616494" lon="11.419768955403"><ele>228.0</ele><time>2026-04-26T07:53:18Z</time></trkpt><trkpt lat="43.35997148784216" lon="11.419720474732216"><ele>228.66666666666669</ele><time>2026-04-26T07:53:19Z</time></trkpt><trkpt lat="43.36013028548042" lon="11.419659767722086"><ele>229.33333333333334</ele><time>2026-04-26T07:53:20Z</time></trkpt><trkpt lat="43.3602908440378" lon="11.419593815587945"><ele>230.0</ele><time>2026-04-26T07:53:21Z</time></trkpt><trkpt lat="43.360455369658254" lon="11.419553273517318"><ele>230.66666666666669</ele><time>2026-04-26T07:53:22Z</time></trkpt><trkpt lat="43.36062233189445" lon="11.419474406831391"><ele>231.33333333333331</ele><time>2026-04-26T07:53:23Z</time></trkpt><trkpt lat="43.36078671677816" lon="11.419418905928726"><ele>232.0</ele><time>2026-04-26T07:53:24Z</time></trkpt><trkpt lat="43.360959455429615" lon="11.41935245230423"><ele>232.0</ele><time>2026-04-26T07:53:25Z</time></trkpt><trkpt lat="43.36113005899275" lon="11.419286481490568"><ele>232.0</ele><time>2026-04-26T07:53:26Z</time></trkpt><trkpt lat="43.361288427942625" lon="11.419231817616772"><ele>232.0</ele><time>2026-04-26T07:53:27Z</time></trkpt><trkpt lat="43.36143423628912" lon="11.419185216489431"><ele>231.75</ele><time>2026-04-26T07:53:28Z</time></trkpt><trkpt lat="43.36157076144234" lon="11.41913187967283"><ele>231.5</ele><time>2026-04-26T07:53:29Z</time></trkpt><trkpt lat="43.36168851668953" lon="11.41904477837911"><ele>231.25</ele><time>2026-04-26T07:53:30Z</time></trkpt><trkpt lat="43.361792010826434" lon="11.418908544256432"><ele>231.0</ele><time>2026-04-26T07:53:31Z</time></trkpt><trkpt lat="43.3618749306611" lon="11.418738268302597"><ele>231.0</ele><time>2026-04-26T07:53:32Z</time></trkpt><trkpt lat="43.361950010111954" lon="11.418567085355608"><ele>231.0</ele><time>2026-04-26T07:53:33Z</time></trkpt><trkpt lat="43.36204296476832" lon="11.418456133360147"><ele>231.0</ele><time>2026-04-26T07:53:34Z</time></trkpt><trkpt lat="43.36213306670878" lon="11.418365110857883"><ele>231.0</ele><time>2026-04-26T07:53:35Z</time></trkpt><trkpt lat="43.36222982938351" lon="11.418299686997118"><ele>232.5</ele><time>2026-04-26T07:53:36Z</time></trkpt><trkpt lat="43.3623451696385" lon="11.418261909196996"><ele>234.0</ele><time>2026-04-26T07:53:37Z</time></trkpt><trkpt lat="43.36246785298068" lon="11.418266622057141"><ele>235.5</ele><time>2026-04-26T07:53:38Z</time></trkpt><trkpt lat="43.36259817821375" lon="11.418314675068343"><ele>237.0</ele><time>2026-04-26T07:53:39Z</time></trkpt><trkpt lat="43.362734496732415" lon="11.418371325160889"><ele>237.0</ele><time>2026-04-26T07:53:40Z</time></trkpt><trkpt lat="43.36289832211868" lon="11.418427505781459"><ele>237.0</ele><time>2026-04-26T07:53:41Z</time></trkpt><trkpt lat="43.36306381623154" lon="11.418467570859193"><ele>237.0</ele><time>2026-04-26T07:53:42Z</time></trkpt><trkpt lat="43.36322679769625" lon="11.41848302014407"><ele>237.75</ele><time>2026-04-26T07:53:42.999Z</time></trkpt><trkpt lat="43.36337368721727" lon="11.418488625564919"><ele>238.5</ele><time>2026-04-26T07:53:43.999Z</time></trkpt><trkpt lat="43.36350590211968" lon="11.418489933126155"><ele>239.25</ele><time>2026-04-26T07:53:44.999Z</time></trkpt><trkpt lat="43.36362103430606" lon="11.418485318276376"><ele>240.0</ele><time>2026-04-26T07:53:45.999Z</time></trkpt><trkpt lat="43.363732257002496" lon="11.418482345438594"><ele>240.0</ele><time>2026-04-26T07:53:46.999Z</time></trkpt><trkpt lat="43.36384349742484" lon="11.418488494267914"><ele>240.0</ele><time>2026-04-26T07:53:47.999Z</time></trkpt><trkpt lat="43.363948274885914" lon="11.418486961886126"><ele>240.0</ele><time>2026-04-26T07:53:48.999Z</time></trkpt><trkpt lat="43.364038998011345" lon="11.41849648187538"><ele>240.0</ele><time>2026-04-26T07:53:49.999Z</time></trkpt><trkpt lat="43.36411153090212" lon="11.41852097773175"><ele>240.0</ele><time>2026-04-26T07:53:50.999Z</time></trkpt><trkpt lat="43.3642143614008" lon="11.418604326408037"><ele>240.57142857142858</ele><time>2026-04-26T07:53:52.999Z</time></trkpt><trkpt lat="43.36427378653136" lon="11.418650507081313"><ele>241.1428571428571</ele><time>2026-04-26T07:53:53.999Z</time></trkpt><trkpt lat="43.364330023300425" lon="11.418696043666642"><ele>241.7142857142857</ele><time>2026-04-26T07:53:54.999Z</time></trkpt><trkpt lat="43.36439356287836" lon="11.418755555175826"><ele>242.28571428571428</ele><time>2026-04-26T07:53:55.999Z</time></trkpt><trkpt lat="43.36446005590516" lon="11.418831568244258"><ele>242.85714285714283</ele><time>2026-04-26T07:53:56.999Z</time></trkpt><trkpt lat="43.364513809721636" lon="11.41890602734405"><ele>243.4285714285714</ele><time>2026-04-26T07:53:57.999Z</time></trkpt><trkpt lat="43.36455890339243" lon="11.418980586572301"><ele>243.99999999999997</ele><time>2026-04-26T07:53:58.999Z</time></trkpt><trkpt lat="43.364618818726164" lon="11.419071655707755"><ele>243.75</ele><time>2026-04-26T07:53:59.999Z</time></trkpt><trkpt lat="43.36468429355422" lon="11.419181853353333"><ele>243.5</ele><time>2026-04-26T07:54:00.999Z</time></trkpt><trkpt lat="43.36476595661126" lon="11.4193103921458"><ele>243.25</ele><time>2026-04-26T07:54:01.999Z</time></trkpt><trkpt lat="43.36485071695123" lon="11.41943902905579"><ele>243.0</ele><time>2026-04-26T07:54:02.999Z</time></trkpt><trkpt lat="43.36493956073859" lon="11.419546880428516"><ele>243.0</ele><time>2026-04-26T07:54:03.999Z</time></trkpt><trkpt lat="43.365054148142356" lon="11.419642059836432"><ele>243.0</ele><time>2026-04-26T07:54:04.999Z</time></trkpt><trkpt lat="43.36518106437643" lon="11.419716077050357"><ele>243.0</ele><time>2026-04-26T07:54:05.999Z</time></trkpt><trkpt lat="43.36532987668885" lon="11.419739862226994"><ele>243.0</ele><time>2026-04-26T07:54:06.999Z</time></trkpt><trkpt lat="43.365493219862465" lon="11.419738580241221"><ele>243.25</ele><time>2026-04-26T07:54:07.999Z</time></trkpt><trkpt lat="43.3656301094983" lon="11.419706308206168"><ele>243.5</ele><time>2026-04-26T07:54:08.999Z</time></trkpt><trkpt lat="43.365755529508796" lon="11.419645374991795"><ele>243.75</ele><time>2026-04-26T07:54:09.999Z</time></trkpt><trkpt lat="43.36586880096944" lon="11.419583093752117"><ele>244.0</ele><time>2026-04-26T07:54:10.999Z</time></trkpt><trkpt lat="43.36597180372456" lon="11.41952107443716"><ele>242.66666666666666</ele><time>2026-04-26T07:54:11.999Z</time></trkpt><trkpt lat="43.366066364907226" lon="11.419463988069074"><ele>241.33333333333331</ele><time>2026-04-26T07:54:12.999Z</time></trkpt><trkpt lat="43.36615413720479" lon="11.419409378565735"><ele>240.0</ele><time>2026-04-26T07:54:13.999Z</time></trkpt><trkpt lat="43.366228760975666" lon="11.41936294958282"><ele>238.66666666666669</ele><time>2026-04-26T07:54:14.999Z</time></trkpt><trkpt lat="43.366281023218065" lon="11.419306867941948"><ele>237.33333333333334</ele><time>2026-04-26T07:54:15.999Z</time></trkpt><trkpt lat="43.36635574192406" lon="11.419271786462634"><ele>236.0</ele><time>2026-04-26T07:54:17.999Z</time></trkpt><trkpt lat="43.36629516722113" lon="11.419321633641283"><ele>236.0</ele><time>2026-04-26T07:54:28.999Z</time></trkpt><trkpt lat="43.366091494803584" lon="11.419395480762983"><ele>236.0</ele><time>2026-04-26T07:54:30.999Z</time></trkpt><trkpt lat="43.36599652957346" lon="11.419451872485087"><ele>236.0</ele><time>2026-04-26T07:54:31.999Z</time></trkpt><trkpt lat="43.365876722021746" lon="11.419521021055788"><ele>236.0</ele><time>2026-04-26T07:54:32.999Z</time></trkpt><trkpt lat="43.36574489680773" lon="11.419596298551989"><ele>238.0</ele><time>2026-04-26T07:54:33.999Z</time></trkpt><trkpt lat="43.365624235023084" lon="11.419652971732686"><ele>240.0</ele><time>2026-04-26T07:54:34.999Z</time></trkpt><trkpt lat="43.365484770712804" lon="11.41969261531318"><ele>242.0</ele><time>2026-04-26T07:54:35.999Z</time></trkpt><trkpt lat="43.36532377002311" lon="11.419702440679183"><ele>244.0</ele><time>2026-04-26T07:54:36.999Z</time></trkpt><trkpt lat="43.3651708865379" lon="11.419670542660889"><ele>243.75</ele><time>2026-04-26T07:54:37.999Z</time></trkpt><trkpt lat="43.36502713985203" lon="11.419601409697949"><ele>243.5</ele><time>2026-04-26T07:54:38.999Z</time></trkpt><trkpt lat="43.36491255841798" lon="11.419486854853758"><ele>243.25</ele><time>2026-04-26T07:54:39.999Z</time></trkpt><trkpt lat="43.36480857762105" lon="11.419339586145817"><ele>243.0</ele><time>2026-04-26T07:54:40.999Z</time></trkpt><trkpt lat="43.364697149733765" lon="11.419163882993184"><ele>243.33333333333331</ele><time>2026-04-26T07:54:41.999Z</time></trkpt><trkpt lat="43.36458943696861" lon="11.418979861465122"><ele>243.66666666666666</ele><time>2026-04-26T07:54:42.999Z</time></trkpt><trkpt lat="43.36448787992281" lon="11.418829457787465"><ele>244.0</ele><time>2026-04-26T07:54:43.999Z</time></trkpt><trkpt lat="43.36438862401211" lon="11.418710720682638"><ele>244.0</ele><time>2026-04-26T07:54:44.999Z</time></trkpt><trkpt lat="43.364284793148165" lon="11.41861699453091"><ele>244.0</ele><time>2026-04-26T07:54:45.999Z</time></trkpt><trkpt lat="43.36418802170174" lon="11.418549639974048"><ele>244.0</ele><time>2026-04-26T07:54:46.999Z</time></trkpt><trkpt lat="43.36409594136569" lon="11.418503527322795"><ele>244.0</ele><time>2026-04-26T07:54:48.999Z</time></trkpt><trkpt lat="43.36400073621508" lon="11.418657560697547"><ele>244.0</ele><time>2026-04-26T07:54:51.999Z</time></trkpt><trkpt lat="43.36398975339856" lon="11.418755592794083"><ele>243.99999999999997</ele><time>2026-04-26T07:54:52.999Z</time></trkpt><trkpt lat="43.36398643191196" lon="11.41887472447632"><ele>243.99999999999997</ele><time>2026-04-26T07:54:53.999Z</time></trkpt><trkpt lat="43.363991646937045" lon="11.419027523758029"><ele>244.0</ele><time>2026-04-26T07:54:54.999Z</time></trkpt><trkpt lat="43.36399451659307" lon="11.419216875580183"><ele>244.0</ele><time>2026-04-26T07:54:55.999Z</time></trkpt><trkpt lat="43.364006982560085" lon="11.419394908971856"><ele>246.0</ele><time>2026-04-26T07:54:56.999Z</time></trkpt><trkpt lat="43.36402486911296" lon="11.419586856986136"><ele>248.0</ele><time>2026-04-26T07:54:57.999Z</time></trkpt><trkpt lat="43.36404668082203" lon="11.419801795145816"><ele>250.0</ele><time>2026-04-26T07:54:58.999Z</time></trkpt><trkpt lat="43.36406861097295" lon="11.420020112968846"><ele>251.0</ele><time>2026-04-26T07:54:59.999Z</time></trkpt><trkpt lat="43.364083144908555" lon="11.420211493292435"><ele>252.0</ele><time>2026-04-26T07:55:00.999Z</time></trkpt><trkpt lat="43.364100675399634" lon="11.42038278107759"><ele>253.0</ele><time>2026-04-26T07:55:01.999Z</time></trkpt><trkpt lat="43.36413107071488" lon="11.420563497635285"><ele>254.0</ele><time>2026-04-26T07:55:02.999Z</time></trkpt><trkpt lat="43.364182466565076" lon="11.420756742850088"><ele>254.66666666666669</ele><time>2026-04-26T07:55:03.999Z</time></trkpt><trkpt lat="43.3642551857357" lon="11.4209404822365"><ele>255.33333333333331</ele><time>2026-04-26T07:55:04.999Z</time></trkpt><trkpt lat="43.36431674284851" lon="11.421138927466332"><ele>256.0</ele><time>2026-04-26T07:55:05.999Z</time></trkpt><trkpt lat="43.36437104452095" lon="11.421340696849265"><ele>256.3333333333333</ele><time>2026-04-26T07:55:06.999Z</time></trkpt><trkpt lat="43.36440566708767" lon="11.42155739147788"><ele>256.6666666666667</ele><time>2026-04-26T07:55:07.999Z</time></trkpt><trkpt lat="43.36442774265484" lon="11.421786873535362"><ele>257.0</ele><time>2026-04-26T07:55:08.999Z</time></trkpt><trkpt lat="43.36443088378155" lon="11.422005467279646"><ele>259.33333333333337</ele><time>2026-04-26T07:55:09.999Z</time></trkpt><trkpt lat="43.36443547989366" lon="11.422234837677804"><ele>261.6666666666667</ele><time>2026-04-26T07:55:10.999Z</time></trkpt><trkpt lat="43.36444505124778" lon="11.422464423110684"><ele>264.0</ele><time>2026-04-26T07:55:11.999Z</time></trkpt><trkpt lat="43.364459568284396" lon="11.42269375205635"><ele>264.0</ele><time>2026-04-26T07:55:12.999Z</time></trkpt><trkpt lat="43.3644745029509" lon="11.422927190291116"><ele>264.0</ele><time>2026-04-26T07:55:13.999Z</time></trkpt><trkpt lat="43.36448409684076" lon="11.423149391922294"><ele>264.0</ele><time>2026-04-26T07:55:14.999Z</time></trkpt><trkpt lat="43.364496089293674" lon="11.423370116580061"><ele>265.75</ele><time>2026-04-26T07:55:15.999Z</time></trkpt><trkpt lat="43.36450588099703" lon="11.4235772259799"><ele>267.5</ele><time>2026-04-26T07:55:16.999Z</time></trkpt><trkpt lat="43.36452437989927" lon="11.423786570464479"><ele>269.25</ele><time>2026-04-26T07:55:17.999Z</time></trkpt><trkpt lat="43.36454677018756" lon="11.42397480960683"><ele>271.0</ele><time>2026-04-26T07:55:18.999Z</time></trkpt><trkpt lat="43.364588379393766" lon="11.424145901471261"><ele>272.75</ele><time>2026-04-26T07:55:19.999Z</time></trkpt><trkpt lat="43.364633225939215" lon="11.424307938510317"><ele>274.5</ele><time>2026-04-26T07:55:20.999Z</time></trkpt><trkpt lat="43.3646895699306" lon="11.424479834964055"><ele>276.25</ele><time>2026-04-26T07:55:21.999Z</time></trkpt><trkpt lat="43.3647611697104" lon="11.424639769143438"><ele>278.0</ele><time>2026-04-26T07:55:22.999Z</time></trkpt><trkpt lat="43.364850494842486" lon="11.424805088729068"><ele>279.0</ele><time>2026-04-26T07:55:23.999Z</time></trkpt><trkpt lat="43.36495231862994" lon="11.424982372078581"><ele>280.0</ele><time>2026-04-26T07:55:24.999Z</time></trkpt><trkpt lat="43.36506539656888" lon="11.42514416859074"><ele>281.0</ele><time>2026-04-26T07:55:25.999Z</time></trkpt><trkpt lat="43.365169665866055" lon="11.42533468950162"><ele>281.33333333333337</ele><time>2026-04-26T07:55:26.999Z</time></trkpt><trkpt lat="43.36528550062596" lon="11.425496605975976"><ele>281.6666666666667</ele><time>2026-04-26T07:55:27.999Z</time></trkpt><trkpt lat="43.36538763719807" lon="11.425665191013882"><ele>282.0</ele><time>2026-04-26T07:55:28.999Z</time></trkpt><trkpt lat="43.36547597182271" lon="11.425807543361966"><ele>283.0</ele><time>2026-04-26T07:55:29.999Z</time></trkpt><trkpt lat="43.365554531423776" lon="11.425936150500794"><ele>284.0</ele><time>2026-04-26T07:55:30.999Z</time></trkpt><trkpt lat="43.36562644301463" lon="11.426050990517018"><ele>285.0</ele><time>2026-04-26T07:55:31.999Z</time></trkpt><trkpt lat="43.365678577571124" lon="11.426161664033618"><ele>286.0</ele><time>2026-04-26T07:55:32.999Z</time></trkpt><trkpt lat="43.36573633095629" lon="11.426244958885798"><ele>287.0</ele><time>2026-04-26T07:55:33.999Z</time></trkpt><trkpt lat="43.36579513064072" lon="11.426316815955664"><ele>287.0</ele><time>2026-04-26T07:55:34.999Z</time></trkpt><trkpt lat="43.365870433142916" lon="11.426378186759715"><ele>287.0</ele><time>2026-04-26T07:55:35.999Z</time></trkpt><trkpt lat="43.36596746720298" lon="11.426420284305363"><ele>287.0</ele><time>2026-04-26T07:55:36.999Z</time></trkpt><trkpt lat="43.36608323643892" lon="11.426436505529233"><ele>287.0</ele><time>2026-04-26T07:55:37.999Z</time></trkpt><trkpt lat="43.36621818868244" lon="11.426411470437273"><ele>287.0</ele><time>2026-04-26T07:55:38.999Z</time></trkpt><trkpt lat="43.3663621699699" lon="11.426375041949694"><ele>287.6666666666667</ele><time>2026-04-26T07:55:39.999Z</time></trkpt><trkpt lat="43.366517452419096" lon="11.426351256503967"><ele>288.3333333333333</ele><time>2026-04-26T07:55:40.999Z</time></trkpt><trkpt lat="43.36667167182608" lon="11.42640952865871"><ele>289.0</ele><time>2026-04-26T07:55:41.999Z</time></trkpt><trkpt lat="43.36682997995274" lon="11.42647178462798"><ele>289.0</ele><time>2026-04-26T07:55:42.999Z</time></trkpt><trkpt lat="43.36699568511853" lon="11.426517690514354"><ele>289.0</ele><time>2026-04-26T07:55:43.999Z</time></trkpt><trkpt lat="43.36715106332729" lon="11.426591176984399"><ele>289.0</ele><time>2026-04-26T07:55:44.999Z</time></trkpt><trkpt lat="43.36731095782119" lon="11.426661297430785"><ele>287.75</ele><time>2026-04-26T07:55:45.999Z</time></trkpt><trkpt lat="43.367454294312516" lon="11.426716950621845"><ele>286.5</ele><time>2026-04-26T07:55:46.999Z</time></trkpt><trkpt lat="43.36759463664589" lon="11.426772310789682"><ele>285.25</ele><time>2026-04-26T07:55:47.999Z</time></trkpt><trkpt lat="43.36772501876013" lon="11.42685727957793"><ele>284.0</ele><time>2026-04-26T07:55:48.999Z</time></trkpt><trkpt lat="43.367832617375264" lon="11.426976241691419"><ele>284.0</ele><time>2026-04-26T07:55:49.999Z</time></trkpt><trkpt lat="43.367917731366894" lon="11.42713072312131"><ele>284.0</ele><time>2026-04-26T07:55:50.999Z</time></trkpt><trkpt lat="43.36796266241353" lon="11.427337635347468"><ele>284.0</ele><time>2026-04-26T07:55:51.999Z</time></trkpt><trkpt lat="43.36802793663014" lon="11.42752853683215"><ele>284.0</ele><time>2026-04-26T07:55:52.999Z</time></trkpt><trkpt lat="43.36807752997122" lon="11.427742615490873"><ele>284.0</ele><time>2026-04-26T07:55:53.999Z</time></trkpt><trkpt lat="43.36814100904225" lon="11.427932095726232"><ele>284.0</ele><time>2026-04-26T07:55:54.999Z</time></trkpt><trkpt lat="43.36823625777654" lon="11.42809480180556"><ele>284.0</ele><time>2026-04-26T07:55:55.999Z</time></trkpt><trkpt lat="43.36835664586814" lon="11.428228515446063"><ele>284.0</ele><time>2026-04-26T07:55:56.999Z</time></trkpt><trkpt lat="43.36849121113471" lon="11.428340652103975"><ele>284.0</ele><time>2026-04-26T07:55:57.999Z</time></trkpt><trkpt lat="43.36863326111597" lon="11.428425025878171"><ele>284.0</ele><time>2026-04-26T07:55:58.999Z</time></trkpt><trkpt lat="43.36878373969432" lon="11.428485983806217"><ele>284.0</ele><time>2026-04-26T07:55:59.999Z</time></trkpt><trkpt lat="43.36894355795087" lon="11.428513705826044"><ele>284.0</ele><time>2026-04-26T07:56:00.999Z</time></trkpt><trkpt lat="43.36910606547272" lon="11.428508289678048"><ele>283.33333333333337</ele><time>2026-04-26T07:56:01.999Z</time></trkpt><trkpt lat="43.36927786110602" lon="11.428505192464685"><ele>282.6666666666667</ele><time>2026-04-26T07:56:02.998Z</time></trkpt><trkpt lat="43.36945533737147" lon="11.428514932493975"><ele>282.0</ele><time>2026-04-26T07:56:03.998Z</time></trkpt><trkpt lat="43.369637791868826" lon="11.428532060802091"><ele>283.6666666666667</ele><time>2026-04-26T07:56:04.998Z</time></trkpt><trkpt lat="43.3698276083422" lon="11.428553281370473"><ele>285.33333333333337</ele><time>2026-04-26T07:56:05.998Z</time></trkpt><trkpt lat="43.37001519861952" lon="11.42857342681708"><ele>287.0</ele><time>2026-04-26T07:56:06.998Z</time></trkpt><trkpt lat="43.37020039291425" lon="11.428598478932242"><ele>287.0</ele><time>2026-04-26T07:56:07.998Z</time></trkpt><trkpt lat="43.37037405121259" lon="11.428617807124304"><ele>287.0</ele><time>2026-04-26T07:56:08.998Z</time></trkpt><trkpt lat="43.3705323242181" lon="11.428637729667445"><ele>287.0</ele><time>2026-04-26T07:56:09.998Z</time></trkpt><trkpt lat="43.37068677434242" lon="11.428662039316034"><ele>289.33333333333337</ele><time>2026-04-26T07:56:10.998Z</time></trkpt><trkpt lat="43.37084863161948" lon="11.42869085845375"><ele>291.6666666666667</ele><time>2026-04-26T07:56:11.998Z</time></trkpt><trkpt lat="43.37100534858032" lon="11.428723566118197"><ele>294.0</ele><time>2026-04-26T07:56:12.999Z</time></trkpt><trkpt lat="43.37116348488197" lon="11.428764600998354"><ele>293.6666666666667</ele><time>2026-04-26T07:56:13.999Z</time></trkpt><trkpt lat="43.37132208029299" lon="11.42881252026643"><ele>293.33333333333337</ele><time>2026-04-26T07:56:14.999Z</time></trkpt><trkpt lat="43.37147506279393" lon="11.428876584968611"><ele>293.0</ele><time>2026-04-26T07:56:15.999Z</time></trkpt><trkpt lat="43.37162952170398" lon="11.42895808550793"><ele>293.0</ele><time>2026-04-26T07:56:16.999Z</time></trkpt><trkpt lat="43.3717896317238" lon="11.429056481819817"><ele>293.0</ele><time>2026-04-26T07:56:17.999Z</time></trkpt><trkpt lat="43.3719677390855" lon="11.42915439110152"><ele>293.0</ele><time>2026-04-26T07:56:18.999Z</time></trkpt><trkpt lat="43.37214897531474" lon="11.429252803279999"><ele>294.33333333333337</ele><time>2026-04-26T07:56:19.999Z</time></trkpt><trkpt lat="43.37233185113427" lon="11.429360384962235"><ele>295.6666666666667</ele><time>2026-04-26T07:56:20.999Z</time></trkpt><trkpt lat="43.37250475476486" lon="11.42945646989586"><ele>297.0</ele><time>2026-04-26T07:56:21.999Z</time></trkpt><trkpt lat="43.37266159424206" lon="11.429540767858077"><ele>297.0</ele><time>2026-04-26T07:56:22.999Z</time></trkpt><trkpt lat="43.372816726646576" lon="11.429625018093937"><ele>297.0</ele><time>2026-04-26T07:56:23.999Z</time></trkpt><trkpt lat="43.3729696553683" lon="11.429717582000313"><ele>297.0</ele><time>2026-04-26T07:56:24.999Z</time></trkpt><trkpt lat="43.3731269335788" lon="11.429810954252945"><ele>299.3333333333333</ele><time>2026-04-26T07:56:25.999Z</time></trkpt><trkpt lat="43.373281118502995" lon="11.429904872633838"><ele>301.66666666666663</ele><time>2026-04-26T07:56:26.999Z</time></trkpt><trkpt lat="43.37343527082416" lon="11.429991033650152"><ele>304.0</ele><time>2026-04-26T07:56:27.999Z</time></trkpt><trkpt lat="43.373593289767435" lon="11.430073938000467"><ele>304.0</ele><time>2026-04-26T07:56:28.999Z</time></trkpt><trkpt lat="43.37376295626154" lon="11.430149456984152"><ele>304.0</ele><time>2026-04-26T07:56:29.999Z</time></trkpt><trkpt lat="43.37393311624526" lon="11.430223733849909"><ele>304.0</ele><time>2026-04-26T07:56:30.999Z</time></trkpt><trkpt lat="43.3741050386551" lon="11.43028869975196"><ele>304.3333333333333</ele><time>2026-04-26T07:56:31.999Z</time></trkpt><trkpt lat="43.37427445827648" lon="11.430342022313113"><ele>304.6666666666667</ele><time>2026-04-26T07:56:32.999Z</time></trkpt><trkpt lat="43.3744515539776" lon="11.430392937908643"><ele>305.0</ele><time>2026-04-26T07:56:33.999Z</time></trkpt><trkpt lat="43.37461876440234" lon="11.430445472249943"><ele>304.6666666666667</ele><time>2026-04-26T07:56:34.999Z</time></trkpt><trkpt lat="43.37478199695902" lon="11.430503339421561"><ele>304.3333333333333</ele><time>2026-04-26T07:56:35.999Z</time></trkpt><trkpt lat="43.374941179687674" lon="11.43057617744914"><ele>304.0</ele><time>2026-04-26T07:56:36.999Z</time></trkpt><trkpt lat="43.375100552900285" lon="11.430666908071343"><ele>304.0</ele><time>2026-04-26T07:56:37.999Z</time></trkpt><trkpt lat="43.37526074704069" lon="11.43077981951913"><ele>304.0</ele><time>2026-04-26T07:56:38.999Z</time></trkpt><trkpt lat="43.37541100116608" lon="11.430900830159812"><ele>304.0</ele><time>2026-04-26T07:56:39.999Z</time></trkpt><trkpt lat="43.37555008613297" lon="11.431017717019058"><ele>306.25</ele><time>2026-04-26T07:56:40.999Z</time></trkpt><trkpt lat="43.37568263934292" lon="11.431111976457123"><ele>308.5</ele><time>2026-04-26T07:56:41.999Z</time></trkpt><trkpt lat="43.37580931742832" lon="11.43118601942277"><ele>310.75</ele><time>2026-04-26T07:56:42.999Z</time></trkpt><trkpt lat="43.375938373340276" lon="11.431233208611904"><ele>313.0</ele><time>2026-04-26T07:56:43.999Z</time></trkpt><trkpt lat="43.37607906775347" lon="11.431269012830088"><ele>313.0</ele><time>2026-04-26T07:56:44.999Z</time></trkpt><trkpt lat="43.376211338442175" lon="11.431280621045364"><ele>313.0</ele><time>2026-04-26T07:56:45.999Z</time></trkpt><trkpt lat="43.37635708684366" lon="11.431294747876294"><ele>313.0</ele><time>2026-04-26T07:56:46.999Z</time></trkpt><trkpt lat="43.37650812741902" lon="11.431308995170701"><ele>313.0</ele><time>2026-04-26T07:56:47.999Z</time></trkpt><trkpt lat="43.37666841168393" lon="11.431331683306873"><ele>314.0</ele><time>2026-04-26T07:56:48.999Z</time></trkpt><trkpt lat="43.376834773314904" lon="11.431348502113925"><ele>315.0</ele><time>2026-04-26T07:56:49.999Z</time></trkpt><trkpt lat="43.377004713864714" lon="11.431381751637185"><ele>316.0</ele><time>2026-04-26T07:56:50.999Z</time></trkpt><trkpt lat="43.377152395990024" lon="11.431399117030717"><ele>316.75</ele><time>2026-04-26T07:56:51.999Z</time></trkpt><trkpt lat="43.37729754301095" lon="11.431434255694791"><ele>317.5</ele><time>2026-04-26T07:56:52.999Z</time></trkpt><trkpt lat="43.37743326754913" lon="11.4314797592794"><ele>318.25</ele><time>2026-04-26T07:56:53.999Z</time></trkpt><trkpt lat="43.37757680143854" lon="11.43153893557917"><ele>319.0</ele><time>2026-04-26T07:56:54.999Z</time></trkpt><trkpt lat="43.3777213420234" lon="11.431613030158797"><ele>319.0</ele><time>2026-04-26T07:56:55.999Z</time></trkpt><trkpt lat="43.37786938206182" lon="11.431694313554011"><ele>319.0</ele><time>2026-04-26T07:56:56.999Z</time></trkpt><trkpt lat="43.37802734590609" lon="11.431780233578682"><ele>319.0</ele><time>2026-04-26T07:56:57.999Z</time></trkpt><trkpt lat="43.37819263136704" lon="11.431865692620114"><ele>318.3333333333333</ele><time>2026-04-26T07:56:58.999Z</time></trkpt><trkpt lat="43.37836413240511" lon="11.431952269590123"><ele>317.6666666666667</ele><time>2026-04-26T07:56:59.999Z</time></trkpt><trkpt lat="43.378533869354385" lon="11.432040100061393"><ele>317.0</ele><time>2026-04-26T07:57:00.999Z</time></trkpt><trkpt lat="43.37868805215492" lon="11.43212261389237"><ele>317.0</ele><time>2026-04-26T07:57:02Z</time></trkpt><trkpt lat="43.3788324087671" lon="11.432196276044118"><ele>317.0</ele><time>2026-04-26T07:57:03Z</time></trkpt><trkpt lat="43.37897377520217" lon="11.432265058311751"><ele>317.0</ele><time>2026-04-26T07:57:04Z</time></trkpt><trkpt lat="43.37911622044731" lon="11.432326530068421"><ele>317.25</ele><time>2026-04-26T07:57:05Z</time></trkpt><trkpt lat="43.37924921055296" lon="11.432383093667436"><ele>317.5</ele><time>2026-04-26T07:57:06Z</time></trkpt><trkpt lat="43.379370030789026" lon="11.432439893533608"><ele>317.75</ele><time>2026-04-26T07:57:07Z</time></trkpt><trkpt lat="43.379493665205715" lon="11.43249719499637"><ele>318.0</ele><time>2026-04-26T07:57:08Z</time></trkpt><trkpt lat="43.37962196824128" lon="11.432552221847896"><ele>318.75</ele><time>2026-04-26T07:57:09Z</time></trkpt><trkpt lat="43.37975764992013" lon="11.432603337716875"><ele>319.5</ele><time>2026-04-26T07:57:10Z</time></trkpt><trkpt lat="43.37989751435391" lon="11.43263340436199"><ele>320.25</ele><time>2026-04-26T07:57:11Z</time></trkpt><trkpt lat="43.380025699472924" lon="11.43264013732358"><ele>321.0</ele><time>2026-04-26T07:57:12Z</time></trkpt><trkpt lat="43.380146306103576" lon="11.432644090340373"><ele>321.0</ele><time>2026-04-26T07:57:13Z</time></trkpt><trkpt lat="43.38025427837683" lon="11.432686187749713"><ele>321.0</ele><time>2026-04-26T07:57:14Z</time></trkpt><trkpt lat="43.380359244962534" lon="11.432694155824988"><ele>321.0</ele><time>2026-04-26T07:57:15Z</time></trkpt><trkpt lat="43.380458693340955" lon="11.432734405994038"><ele>321.0</ele><time>2026-04-26T07:57:16Z</time></trkpt><trkpt lat="43.38055967846753" lon="11.432788924548188"><ele>321.0</ele><time>2026-04-26T07:57:17Z</time></trkpt><trkpt lat="43.380650394919826" lon="11.432876713616709"><ele>320.0</ele><time>2026-04-26T07:57:18Z</time></trkpt><trkpt lat="43.38070168185723" lon="11.433010887743427"><ele>319.0</ele><time>2026-04-26T07:57:19Z</time></trkpt><trkpt lat="43.38076965890841" lon="11.433137689544079"><ele>318.0</ele><time>2026-04-26T07:57:20Z</time></trkpt><trkpt lat="43.380827226799305" lon="11.433282092639608"><ele>317.0</ele><time>2026-04-26T07:57:21Z</time></trkpt><trkpt lat="43.380913043706755" lon="11.433411072595598"><ele>317.0</ele><time>2026-04-26T07:57:22Z</time></trkpt><trkpt lat="43.381019802492425" lon="11.433526900029701"><ele>317.0</ele><time>2026-04-26T07:57:23Z</time></trkpt><trkpt lat="43.3811372653569" lon="11.43362683742274"><ele>317.0</ele><time>2026-04-26T07:57:24Z</time></trkpt><trkpt lat="43.38125940059619" lon="11.433707146565167"><ele>317.0</ele><time>2026-04-26T07:57:25Z</time></trkpt><trkpt lat="43.381379112175445" lon="11.433772407585488"><ele>318.6</ele><time>2026-04-26T07:57:26Z</time></trkpt><trkpt lat="43.381490133310656" lon="11.4338379963602"><ele>320.2</ele><time>2026-04-26T07:57:27Z</time></trkpt><trkpt lat="43.38159161271246" lon="11.433887436222763"><ele>321.8</ele><time>2026-04-26T07:57:28Z</time></trkpt><trkpt lat="43.38167795796951" lon="11.433937520603077"><ele>323.4</ele><time>2026-04-26T07:57:29Z</time></trkpt><trkpt lat="43.381770932994996" lon="11.433998107259935"><ele>325.0</ele><time>2026-04-26T07:57:30Z</time></trkpt><trkpt lat="43.38188618042922" lon="11.433993567312607"><ele>325.0</ele><time>2026-04-26T07:57:31Z</time></trkpt><trkpt lat="43.38201373704459" lon="11.434029411918585"><ele>325.0</ele><time>2026-04-26T07:57:32Z</time></trkpt><trkpt lat="43.382145818893235" lon="11.434043149289531"><ele>325.0</ele><time>2026-04-26T07:57:33Z</time></trkpt><trkpt lat="43.38227171047031" lon="11.434062915969198"><ele>325.0</ele><time>2026-04-26T07:57:34Z</time></trkpt><trkpt lat="43.3823829738375" lon="11.434070233331767"><ele>325.5</ele><time>2026-04-26T07:57:35Z</time></trkpt><trkpt lat="43.38248411847329" lon="11.434115548583675"><ele>326.0</ele><time>2026-04-26T07:57:36Z</time></trkpt><trkpt lat="43.382588009471164" lon="11.434126744375865"><ele>326.5</ele><time>2026-04-26T07:57:37Z</time></trkpt><trkpt lat="43.382706215347746" lon="11.434178117600412"><ele>327.0</ele><time>2026-04-26T07:57:38Z</time></trkpt><trkpt lat="43.38283027759231" lon="11.43425185582684"><ele>327.0</ele><time>2026-04-26T07:57:39Z</time></trkpt><trkpt lat="43.38294414866638" lon="11.434348540315414"><ele>327.0</ele><time>2026-04-26T07:57:40Z</time></trkpt><trkpt lat="43.38304922250305" lon="11.43445638848399"><ele>327.0</ele><time>2026-04-26T07:57:41Z</time></trkpt><trkpt lat="43.383158208729775" lon="11.434569812893303"><ele>327.0</ele><time>2026-04-26T07:57:42Z</time></trkpt><trkpt lat="43.383275658169175" lon="11.43468088530002"><ele>326.0</ele><time>2026-04-26T07:57:43Z</time></trkpt><trkpt lat="43.38340781344038" lon="11.434783697016352"><ele>325.0</ele><time>2026-04-26T07:57:44Z</time></trkpt><trkpt lat="43.38355012774012" lon="11.434873906273774"><ele>324.0</ele><time>2026-04-26T07:57:45Z</time></trkpt><trkpt lat="43.38370161307105" lon="11.434945259673606"><ele>324.3333333333333</ele><time>2026-04-26T07:57:46Z</time></trkpt><trkpt lat="43.38385369307309" lon="11.434992753281282"><ele>324.66666666666663</ele><time>2026-04-26T07:57:47Z</time></trkpt><trkpt lat="43.38400889055843" lon="11.435023403003868"><ele>325.0</ele><time>2026-04-26T07:57:48Z</time></trkpt><trkpt lat="43.38417102214592" lon="11.435053217194689"><ele>325.0</ele><time>2026-04-26T07:57:49Z</time></trkpt><trkpt lat="43.3843370070221" lon="11.435094739320277"><ele>325.0</ele><time>2026-04-26T07:57:50Z</time></trkpt><trkpt lat="43.384505094561234" lon="11.43513850131448"><ele>325.0</ele><time>2026-04-26T07:57:51Z</time></trkpt><trkpt lat="43.384676412541786" lon="11.435176003133327"><ele>326.3333333333333</ele><time>2026-04-26T07:57:52Z</time></trkpt><trkpt lat="43.38483973407246" lon="11.435212427090283"><ele>327.6666666666667</ele><time>2026-04-26T07:57:53Z</time></trkpt><trkpt lat="43.384983510489434" lon="11.435275759417129"><ele>329.0</ele><time>2026-04-26T07:57:54Z</time></trkpt><trkpt lat="43.3851144007743" lon="11.43539694377129"><ele>329.6666666666667</ele><time>2026-04-26T07:57:55Z</time></trkpt><trkpt lat="43.3852580796617" lon="11.435487227799953"><ele>330.3333333333333</ele><time>2026-04-26T07:57:56Z</time></trkpt><trkpt lat="43.385387090133044" lon="11.43560478449272"><ele>331.0</ele><time>2026-04-26T07:57:57Z</time></trkpt><trkpt lat="43.38551473278481" lon="11.43571298252257"><ele>332.25</ele><time>2026-04-26T07:57:58Z</time></trkpt><trkpt lat="43.38563167102667" lon="11.435805915984142"><ele>333.5</ele><time>2026-04-26T07:57:59Z</time></trkpt><trkpt lat="43.38575264368003" lon="11.435901226461205"><ele>334.75</ele><time>2026-04-26T07:58:00Z</time></trkpt><trkpt lat="43.38586997817685" lon="11.436015822592463"><ele>336.0</ele><time>2026-04-26T07:58:01Z</time></trkpt><trkpt lat="43.38597176139709" lon="11.436159097109865"><ele>337.0</ele><time>2026-04-26T07:58:02Z</time></trkpt><trkpt lat="43.38607292161426" lon="11.436322356945576"><ele>338.0</ele><time>2026-04-26T07:58:03Z</time></trkpt><trkpt lat="43.38618497460013" lon="11.436465647019414"><ele>339.0</ele><time>2026-04-26T07:58:04Z</time></trkpt><trkpt lat="43.38630696087661" lon="11.436589600333459"><ele>338.25</ele><time>2026-04-26T07:58:05Z</time></trkpt><trkpt lat="43.386417089969626" lon="11.43670970039274"><ele>337.5</ele><time>2026-04-26T07:58:06Z</time></trkpt><trkpt lat="43.386527831922436" lon="11.436829246241622"><ele>336.75</ele><time>2026-04-26T07:58:07Z</time></trkpt><trkpt lat="43.38663312832817" lon="11.436949433180025"><ele>336.0</ele><time>2026-04-26T07:58:08Z</time></trkpt><trkpt lat="43.38671874052067" lon="11.437073751289933"><ele>338.0</ele><time>2026-04-26T07:58:08.999Z</time></trkpt><trkpt lat="43.38678364147745" lon="11.437223040786817"><ele>340.0</ele><time>2026-04-26T07:58:09.999Z</time></trkpt><trkpt lat="43.38683934247409" lon="11.437406349256749"><ele>342.0</ele><time>2026-04-26T07:58:10.999Z</time></trkpt><trkpt lat="43.386892696726896" lon="11.437609025091339"><ele>344.0</ele><time>2026-04-26T07:58:11.999Z</time></trkpt><trkpt lat="43.386941099743815" lon="11.43780849377879"><ele>343.75</ele><time>2026-04-26T07:58:12.999Z</time></trkpt><trkpt lat="43.38698419531352" lon="11.438002996261154"><ele>343.5</ele><time>2026-04-26T07:58:13.999Z</time></trkpt><trkpt lat="43.3870231803048" lon="11.438187378711845"><ele>343.25</ele><time>2026-04-26T07:58:14.999Z</time></trkpt><trkpt lat="43.387069416213336" lon="11.43835742627901"><ele>343.0</ele><time>2026-04-26T07:58:15.999Z</time></trkpt><trkpt lat="43.38712908772902" lon="11.438529474296123"><ele>342.66666666666663</ele><time>2026-04-26T07:58:16.999Z</time></trkpt><trkpt lat="43.387202650820505" lon="11.438700879096409"><ele>342.3333333333333</ele><time>2026-04-26T07:58:17.999Z</time></trkpt><trkpt lat="43.38729874030773" lon="11.438860367454685"><ele>342.0</ele><time>2026-04-26T07:58:18.999Z</time></trkpt><trkpt lat="43.387407110211214" lon="11.439015502663091"><ele>342.0</ele><time>2026-04-26T07:58:19.999Z</time></trkpt><trkpt lat="43.38750946532018" lon="11.439188531923062"><ele>342.0</ele><time>2026-04-26T07:58:20.999Z</time></trkpt><trkpt lat="43.38761693468457" lon="11.439367059774213"><ele>342.0</ele><time>2026-04-26T07:58:21.999Z</time></trkpt><trkpt lat="43.38773395093418" lon="11.439539394931634"><ele>343.0</ele><time>2026-04-26T07:58:22.999Z</time></trkpt><trkpt lat="43.3878346396562" lon="11.439734222528863"><ele>344.0</ele><time>2026-04-26T07:58:23.999Z</time></trkpt><trkpt lat="43.38793010983522" lon="11.439929142022606"><ele>345.0</ele><time>2026-04-26T07:58:24.999Z</time></trkpt><trkpt lat="43.388026522958135" lon="11.440097553672844"><ele>345.0</ele><time>2026-04-26T07:58:25.999Z</time></trkpt><trkpt lat="43.3881383835154" lon="11.440258421177267"><ele>345.0</ele><time>2026-04-26T07:58:26.999Z</time></trkpt><trkpt lat="43.38824456841127" lon="11.440398587302058"><ele>345.0</ele><time>2026-04-26T07:58:27.999Z</time></trkpt><trkpt lat="43.38834696408705" lon="11.440537808579627"><ele>347.25</ele><time>2026-04-26T07:58:28.999Z</time></trkpt><trkpt lat="43.38845631064198" lon="11.44067954918026"><ele>349.5</ele><time>2026-04-26T07:58:29.999Z</time></trkpt><trkpt lat="43.38857312207049" lon="11.4408067369625"><ele>351.75</ele><time>2026-04-26T07:58:30.999Z</time></trkpt><trkpt lat="43.388691082270995" lon="11.440920909222864"><ele>354.0</ele><time>2026-04-26T07:58:31.999Z</time></trkpt><trkpt lat="43.38878936287185" lon="11.441072638346181"><ele>353.5</ele><time>2026-04-26T07:58:33Z</time></trkpt><trkpt lat="43.38888932130729" lon="11.441211034868605"><ele>353.0</ele><time>2026-04-26T07:58:34Z</time></trkpt><trkpt lat="43.38899880931002" lon="11.441342260169082"><ele>352.5</ele><time>2026-04-26T07:58:35Z</time></trkpt><trkpt lat="43.38909784001709" lon="11.441498310717195"><ele>352.0</ele><time>2026-04-26T07:58:36Z</time></trkpt><trkpt lat="43.38919695194622" lon="11.441646646676325"><ele>353.66666666666663</ele><time>2026-04-26T07:58:37Z</time></trkpt><trkpt lat="43.38929930081606" lon="11.441805953439419"><ele>355.3333333333333</ele><time>2026-04-26T07:58:38Z</time></trkpt><trkpt lat="43.38939809931759" lon="11.441968156107015"><ele>357.0</ele><time>2026-04-26T07:58:39Z</time></trkpt><trkpt lat="43.389489266299975" lon="11.442116894988015"><ele>357.0</ele><time>2026-04-26T07:58:40Z</time></trkpt><trkpt lat="43.38956939172725" lon="11.44225464774683"><ele>357.0</ele><time>2026-04-26T07:58:41Z</time></trkpt><trkpt lat="43.38963316696806" lon="11.442387015743686"><ele>357.0</ele><time>2026-04-26T07:58:42Z</time></trkpt><trkpt lat="43.389685251681385" lon="11.442525449242254"><ele>357.0</ele><time>2026-04-26T07:58:43Z</time></trkpt><trkpt lat="43.38973241687046" lon="11.442660683834239"><ele>358.6</ele><time>2026-04-26T07:58:44Z</time></trkpt><trkpt lat="43.389786187862" lon="11.442770698468609"><ele>360.20000000000005</ele><time>2026-04-26T07:58:45Z</time></trkpt><trkpt lat="43.38986587368651" lon="11.442865325037042"><ele>361.8</ele><time>2026-04-26T07:58:46Z</time></trkpt><trkpt lat="43.38997273699459" lon="11.442922775452974"><ele>363.4</ele><time>2026-04-26T07:58:47Z</time></trkpt><trkpt lat="43.390103827880615" lon="11.442939899411337"><ele>365.0</ele><time>2026-04-26T07:58:48Z</time></trkpt><trkpt lat="43.39023430462076" lon="11.442939286494138"><ele>365.0</ele><time>2026-04-26T07:58:49Z</time></trkpt><trkpt lat="43.39035295753195" lon="11.44295287880441"><ele>365.0</ele><time>2026-04-26T07:58:50Z</time></trkpt><trkpt lat="43.390467484222285" lon="11.442967322100456"><ele>365.0</ele><time>2026-04-26T07:58:51Z</time></trkpt><trkpt lat="43.39058892953731" lon="11.442980234131515"><ele>365.0</ele><time>2026-04-26T07:58:52Z</time></trkpt><trkpt lat="43.39072356806206" lon="11.442967944906265"><ele>365.75</ele><time>2026-04-26T07:58:53Z</time></trkpt><trkpt lat="43.39085992841499" lon="11.442934736813102"><ele>366.5</ele><time>2026-04-26T07:58:54Z</time></trkpt><trkpt lat="43.39100858659184" lon="11.442908578185547"><ele>367.25</ele><time>2026-04-26T07:58:55Z</time></trkpt><trkpt lat="43.39116068739556" lon="11.442874490958518"><ele>368.0</ele><time>2026-04-26T07:58:56Z</time></trkpt><trkpt lat="43.391299674477864" lon="11.442864778978244"><ele>367.5</ele><time>2026-04-26T07:58:57Z</time></trkpt><trkpt lat="43.391427486090265" lon="11.442865979279588"><ele>367.0</ele><time>2026-04-26T07:58:58Z</time></trkpt><trkpt lat="43.39153847152383" lon="11.442868730564653"><ele>366.5</ele><time>2026-04-26T07:58:59Z</time></trkpt><trkpt lat="43.39164967945718" lon="11.442857626332223"><ele>366.0</ele><time>2026-04-26T07:59:00Z</time></trkpt><trkpt lat="43.391759282300086" lon="11.442830822200266"><ele>366.0</ele><time>2026-04-26T07:59:01Z</time></trkpt><trkpt lat="43.39188017028713" lon="11.44276800840477"><ele>366.0</ele><time>2026-04-26T07:59:02Z</time></trkpt><trkpt lat="43.39199473035463" lon="11.442679162233711"><ele>366.0</ele><time>2026-04-26T07:59:03Z</time></trkpt><trkpt lat="43.392118867172215" lon="11.442581968554393"><ele>366.0</ele><time>2026-04-26T07:59:04Z</time></trkpt><trkpt lat="43.3922626654483" lon="11.442519962306529"><ele>366.75</ele><time>2026-04-26T07:59:05Z</time></trkpt><trkpt lat="43.39238853662477" lon="11.442428620777964"><ele>367.5</ele><time>2026-04-26T07:59:06Z</time></trkpt><trkpt lat="43.39250723433265" lon="11.442380022248994"><ele>368.25</ele><time>2026-04-26T07:59:07Z</time></trkpt><trkpt lat="43.39263400011042" lon="11.44234388736206"><ele>369.0</ele><time>2026-04-26T07:59:08Z</time></trkpt><trkpt lat="43.39277344159141" lon="11.442325482646867"><ele>369.0</ele><time>2026-04-26T07:59:09Z</time></trkpt><trkpt lat="43.39290891215436" lon="11.44231727893317"><ele>369.0</ele><time>2026-04-26T07:59:10Z</time></trkpt><trkpt lat="43.39303632122232" lon="11.442330005936688"><ele>369.0</ele><time>2026-04-26T07:59:11Z</time></trkpt><trkpt lat="43.39316753434971" lon="11.442371099338219"><ele>369.0</ele><time>2026-04-26T07:59:12Z</time></trkpt><trkpt lat="43.39329964002066" lon="11.442434694558834"><ele>368.6666666666667</ele><time>2026-04-26T07:59:13Z</time></trkpt><trkpt lat="43.393443380048744" lon="11.442516162023834"><ele>368.33333333333337</ele><time>2026-04-26T07:59:14Z</time></trkpt><trkpt lat="43.39358804191849" lon="11.442586162817895"><ele>368.0</ele><time>2026-04-26T07:59:15Z</time></trkpt><trkpt lat="43.39373104849763" lon="11.442623993083048"><ele>368.0</ele><time>2026-04-26T07:59:16Z</time></trkpt><trkpt lat="43.393877414367935" lon="11.442644093847465"><ele>368.0</ele><time>2026-04-26T07:59:17Z</time></trkpt><trkpt lat="43.394035470449765" lon="11.442661511329755"><ele>368.0</ele><time>2026-04-26T07:59:18Z</time></trkpt><trkpt lat="43.39418634469623" lon="11.44268111211181"><ele>368.0</ele><time>2026-04-26T07:59:19Z</time></trkpt><trkpt lat="43.39431479920145" lon="11.442698028509504"><ele>368.0</ele><time>2026-04-26T07:59:20Z</time></trkpt><trkpt lat="43.394434204958216" lon="11.442714529492976"><ele>368.0</ele><time>2026-04-26T07:59:21Z</time></trkpt><trkpt lat="43.394550855604" lon="11.44272574017623"><ele>368.0</ele><time>2026-04-26T07:59:22Z</time></trkpt><trkpt lat="43.394690680637105" lon="11.44272657602711"><ele>368.0</ele><time>2026-04-26T07:59:23Z</time></trkpt><trkpt lat="43.39483760236754" lon="11.442707405184652"><ele>368.0</ele><time>2026-04-26T07:59:24Z</time></trkpt><trkpt lat="43.39498632039443" lon="11.442699063589608"><ele>368.0</ele><time>2026-04-26T07:59:25Z</time></trkpt><trkpt lat="43.39512788312265" lon="11.442692852660393"><ele>368.0</ele><time>2026-04-26T07:59:26Z</time></trkpt><trkpt lat="43.39526127704733" lon="11.442689211030075"><ele>368.0</ele><time>2026-04-26T07:59:27Z</time></trkpt><trkpt lat="43.395394208931336" lon="11.442702371785321"><ele>368.0</ele><time>2026-04-26T07:59:28Z</time></trkpt><trkpt lat="43.395530850445425" lon="11.442739178324842"><ele>368.0</ele><time>2026-04-26T07:59:29Z</time></trkpt><trkpt lat="43.395671175308095" lon="11.44279275914523"><ele>368.0</ele><time>2026-04-26T07:59:30Z</time></trkpt><trkpt lat="43.395816535518556" lon="11.442858225480808"><ele>367.6666666666667</ele><time>2026-04-26T07:59:31Z</time></trkpt><trkpt lat="43.39597633270553" lon="11.442927032781357"><ele>367.3333333333333</ele><time>2026-04-26T07:59:32Z</time></trkpt><trkpt lat="43.39614162549027" lon="11.442996189897787"><ele>367.0</ele><time>2026-04-26T07:59:33Z</time></trkpt><trkpt lat="43.396308605283885" lon="11.443061716210378"><ele>368.3333333333333</ele><time>2026-04-26T07:59:34Z</time></trkpt><trkpt lat="43.39646851799435" lon="11.443122337321777"><ele>369.6666666666667</ele><time>2026-04-26T07:59:35Z</time></trkpt><trkpt lat="43.396618106388146" lon="11.443181410572777"><ele>371.0</ele><time>2026-04-26T07:59:36Z</time></trkpt><trkpt lat="43.396763026460825" lon="11.443239434045276"><ele>371.0</ele><time>2026-04-26T07:59:37Z</time></trkpt><trkpt lat="43.39691573806097" lon="11.443306067765267"><ele>371.0</ele><time>2026-04-26T07:59:38Z</time></trkpt><trkpt lat="43.39707157041727" lon="11.44336364000272"><ele>371.0</ele><time>2026-04-26T07:59:39Z</time></trkpt><trkpt lat="43.397229829001276" lon="11.443425101905586"><ele>371.5</ele><time>2026-04-26T07:59:40Z</time></trkpt><trkpt lat="43.3973803554821" lon="11.44348142089257"><ele>372.0</ele><time>2026-04-26T07:59:41Z</time></trkpt><trkpt lat="43.39750735444843" lon="11.44352958661156"><ele>372.5</ele><time>2026-04-26T07:59:42Z</time></trkpt><trkpt lat="43.397623516641744" lon="11.44357076736862"><ele>373.0</ele><time>2026-04-26T07:59:43Z</time></trkpt><trkpt lat="43.39772963634196" lon="11.443612742209034"><ele>373.0</ele><time>2026-04-26T07:59:44Z</time></trkpt><trkpt lat="43.39782819143929" lon="11.443650497187416"><ele>373.0</ele><time>2026-04-26T07:59:45Z</time></trkpt><trkpt lat="43.39792978735831" lon="11.443673433539646"><ele>373.0</ele><time>2026-04-26T07:59:46Z</time></trkpt><trkpt lat="43.39805080428879" lon="11.443658850637012"><ele>373.0</ele><time>2026-04-26T07:59:47Z</time></trkpt><trkpt lat="43.398190125745195" lon="11.44362114052418"><ele>373.75</ele><time>2026-04-26T07:59:48Z</time></trkpt><trkpt lat="43.398331578466454" lon="11.443582445780384"><ele>374.5</ele><time>2026-04-26T07:59:49Z</time></trkpt><trkpt lat="43.398460016574084" lon="11.443551230332496"><ele>375.25</ele><time>2026-04-26T07:59:50Z</time></trkpt><trkpt lat="43.39857719140547" lon="11.443546664796143"><ele>376.0</ele><time>2026-04-26T07:59:51Z</time></trkpt><trkpt lat="43.39867120179047" lon="11.443513373312987"><ele>376.0</ele><time>2026-04-26T07:59:52Z</time></trkpt><trkpt lat="43.398773226248366" lon="11.443484900526594"><ele>376.0</ele><time>2026-04-26T07:59:53Z</time></trkpt><trkpt lat="43.398862620707945" lon="11.443492846743426"><ele>376.0</ele><time>2026-04-26T07:59:54Z</time></trkpt><trkpt lat="43.39895718398455" lon="11.443467599531882"><ele>376.0</ele><time>2026-04-26T07:59:55Z</time></trkpt><trkpt lat="43.39905024202647" lon="11.443468517800806"><ele>376.0</ele><time>2026-04-26T07:59:56Z</time></trkpt><trkpt lat="43.39915175876544" lon="11.443499492633256"><ele>376.0</ele><time>2026-04-26T07:59:57Z</time></trkpt><trkpt lat="43.39926214447299" lon="11.443544879044625"><ele>376.0</ele><time>2026-04-26T07:59:58Z</time></trkpt><trkpt lat="43.39937730333041" lon="11.443598027442075"><ele>376.0</ele><time>2026-04-26T07:59:59Z</time></trkpt><trkpt lat="43.39948846978062" lon="11.44365006240116"><ele>376.0</ele><time>2026-04-26T08:00:00Z</time></trkpt><trkpt lat="43.39959605471949" lon="11.443693689914014"><ele>376.25</ele><time>2026-04-26T08:00:01Z</time></trkpt><trkpt lat="43.399701449815204" lon="11.443739905842648"><ele>376.5</ele><time>2026-04-26T08:00:02Z</time></trkpt><trkpt lat="43.399794093044065" lon="11.44383973517325"><ele>376.75</ele><time>2026-04-26T08:00:03Z</time></trkpt><trkpt lat="43.39990237604319" lon="11.443943154838356"><ele>377.0</ele><time>2026-04-26T08:00:04Z</time></trkpt><trkpt lat="43.4000002516646" lon="11.44409439875523"><ele>377.0</ele><time>2026-04-26T08:00:05Z</time></trkpt><trkpt lat="43.40010941838271" lon="11.444254414461295"><ele>377.0</ele><time>2026-04-26T08:00:06Z</time></trkpt><trkpt lat="43.400212916490126" lon="11.44438991592656"><ele>377.0</ele><time>2026-04-26T08:00:07Z</time></trkpt><trkpt lat="43.40031304413816" lon="11.4445266190646"><ele>377.0</ele><time>2026-04-26T08:00:08Z</time></trkpt><trkpt lat="43.40041786826615" lon="11.44466561173801"><ele>378.25</ele><time>2026-04-26T08:00:09Z</time></trkpt><trkpt lat="43.400527913180774" lon="11.444808289409282"><ele>379.5</ele><time>2026-04-26T08:00:10Z</time></trkpt><trkpt lat="43.40063669465694" lon="11.444950207993985"><ele>380.75</ele><time>2026-04-26T08:00:11Z</time></trkpt><trkpt lat="43.40074170371828" lon="11.445092899157975"><ele>382.0</ele><time>2026-04-26T08:00:12Z</time></trkpt><trkpt lat="43.400847216260814" lon="11.445236103314846"><ele>382.0</ele><time>2026-04-26T08:00:13Z</time></trkpt><trkpt lat="43.40094178694707" lon="11.445363302059734"><ele>382.0</ele><time>2026-04-26T08:00:14Z</time></trkpt><trkpt lat="43.40103288890402" lon="11.44550766759976"><ele>382.0</ele><time>2026-04-26T08:00:15Z</time></trkpt><trkpt lat="43.40112125225373" lon="11.445655837835266"><ele>382.0</ele><time>2026-04-26T08:00:16Z</time></trkpt><trkpt lat="43.4012128653169" lon="11.445814328140472"><ele>382.3333333333333</ele><time>2026-04-26T08:00:17Z</time></trkpt><trkpt lat="43.40131338636733" lon="11.445972074459112"><ele>382.6666666666667</ele><time>2026-04-26T08:00:18Z</time></trkpt><trkpt lat="43.40141692366359" lon="11.446126694082967"><ele>383.0</ele><time>2026-04-26T08:00:19Z</time></trkpt><trkpt lat="43.40152224603704" lon="11.446267578087458"><ele>384.25</ele><time>2026-04-26T08:00:20Z</time></trkpt><trkpt lat="43.401620024407904" lon="11.446393011500952"><ele>385.5</ele><time>2026-04-26T08:00:21Z</time></trkpt><trkpt lat="43.40170661376066" lon="11.44649950099002"><ele>386.75</ele><time>2026-04-26T08:00:22Z</time></trkpt><trkpt lat="43.40178653736029" lon="11.446596020738564"><ele>388.0</ele><time>2026-04-26T08:00:23Z</time></trkpt><trkpt lat="43.40186728537809" lon="11.446680377186585"><ele>388.00000000000006</ele><time>2026-04-26T08:00:24Z</time></trkpt><trkpt lat="43.401939594101606" lon="11.4467538482575"><ele>388.0</ele><time>2026-04-26T08:00:25Z</time></trkpt><trkpt lat="43.40200580187566" lon="11.446816864185205"><ele>388.0</ele><time>2026-04-26T08:00:26Z</time></trkpt><trkpt lat="43.402080005243995" lon="11.446877425884562"><ele>388.0</ele><time>2026-04-26T08:00:27Z</time></trkpt><trkpt lat="43.402152952883775" lon="11.446933892226543"><ele>388.00000000000006</ele><time>2026-04-26T08:00:28Z</time></trkpt><trkpt lat="43.402226095193875" lon="11.44697805882933"><ele>388.0</ele><time>2026-04-26T08:00:29Z</time></trkpt><trkpt lat="43.402315050626086" lon="11.447040080764866"><ele>388.75</ele><time>2026-04-26T08:00:30Z</time></trkpt><trkpt lat="43.40243243033757" lon="11.44710716850507"><ele>389.5</ele><time>2026-04-26T08:00:31Z</time></trkpt><trkpt lat="43.402563400282006" lon="11.447182370599593"><ele>390.25</ele><time>2026-04-26T08:00:32Z</time></trkpt><trkpt lat="43.402681895298635" lon="11.447254189460836"><ele>391.0</ele><time>2026-04-26T08:00:33Z</time></trkpt><trkpt lat="43.40280658219025" lon="11.447324344331381"><ele>391.0</ele><time>2026-04-26T08:00:34Z</time></trkpt><trkpt lat="43.402934883852495" lon="11.447397927504584"><ele>391.0</ele><time>2026-04-26T08:00:35Z</time></trkpt><trkpt lat="43.403066747089575" lon="11.447465705633896"><ele>391.0</ele><time>2026-04-26T08:00:36Z</time></trkpt><trkpt lat="43.40319330044166" lon="11.44753959125059"><ele>391.0</ele><time>2026-04-26T08:00:37Z</time></trkpt><trkpt lat="43.40331536803548" lon="11.447624341834372"><ele>393.0</ele><time>2026-04-26T08:00:38Z</time></trkpt><trkpt lat="43.40344607151206" lon="11.447691647500447"><ele>395.0</ele><time>2026-04-26T08:00:39Z</time></trkpt><trkpt lat="43.40356873280395" lon="11.447748778766297"><ele>397.0</ele><time>2026-04-26T08:00:40Z</time></trkpt><trkpt lat="43.40369967994058" lon="11.447798798010536"><ele>399.0</ele><time>2026-04-26T08:00:41Z</time></trkpt><trkpt lat="43.403834646184144" lon="11.447851180391051"><ele>398.75</ele><time>2026-04-26T08:00:42Z</time></trkpt><trkpt lat="43.40397148012694" lon="11.447921407932277"><ele>398.5</ele><time>2026-04-26T08:00:43Z</time></trkpt><trkpt lat="43.40410661283488" lon="11.448005312318184"><ele>398.25</ele><time>2026-04-26T08:00:44Z</time></trkpt><trkpt lat="43.404230982508246" lon="11.448091668557227"><ele>398.0</ele><time>2026-04-26T08:00:45Z</time></trkpt><trkpt lat="43.4043476365976" lon="11.448183627547873"><ele>398.0</ele><time>2026-04-26T08:00:46Z</time></trkpt><trkpt lat="43.40446947953888" lon="11.448279281996056"><ele>398.0</ele><time>2026-04-26T08:00:47Z</time></trkpt><trkpt lat="43.40458540422103" lon="11.448370190712975"><ele>398.0</ele><time>2026-04-26T08:00:48Z</time></trkpt><trkpt lat="43.40468523697264" lon="11.448444496740729"><ele>398.0</ele><time>2026-04-26T08:00:49Z</time></trkpt><trkpt lat="43.40476870747192" lon="11.448510313806707"><ele>398.2</ele><time>2026-04-26T08:00:50Z</time></trkpt><trkpt lat="43.40482612478774" lon="11.448565722534402"><ele>398.4</ele><time>2026-04-26T08:00:51Z</time></trkpt><trkpt lat="43.40489458772783" lon="11.448632209752093"><ele>398.59999999999997</ele><time>2026-04-26T08:00:53Z</time></trkpt><trkpt lat="43.40494650319177" lon="11.44871237242094"><ele>398.79999999999995</ele><time>2026-04-26T08:00:56Z</time></trkpt><trkpt lat="43.405034748579524" lon="11.448773402130552"><ele>399.0</ele><time>2026-04-26T08:01:01Z</time></trkpt><trkpt lat="43.40509446980211" lon="11.448975147197558"><ele>399.4</ele><time>2026-04-26T08:01:03Z</time></trkpt><trkpt lat="43.40514766667938" lon="11.44907172134939"><ele>399.79999999999995</ele><time>2026-04-26T08:01:04Z</time></trkpt><trkpt lat="43.40520400142169" lon="11.449170768766914"><ele>400.20000000000005</ele><time>2026-04-26T08:01:05Z</time></trkpt><trkpt lat="43.405263473725896" lon="11.449264570841722"><ele>400.6</ele><time>2026-04-26T08:01:06Z</time></trkpt><trkpt lat="43.40531999928711" lon="11.449360191975162"><ele>401.0</ele><time>2026-04-26T08:01:07Z</time></trkpt><trkpt lat="43.405389419904566" lon="11.44946621425606"><ele>401.0</ele><time>2026-04-26T08:01:08Z</time></trkpt><trkpt lat="43.405454683992104" lon="11.449573756586101"><ele>401.0</ele><time>2026-04-26T08:01:09Z</time></trkpt><trkpt lat="43.405520800567174" lon="11.449684042639989"><ele>401.0</ele><time>2026-04-26T08:01:10Z</time></trkpt><trkpt lat="43.40558656445896" lon="11.449799762443451"><ele>401.0</ele><time>2026-04-26T08:01:11Z</time></trkpt><trkpt lat="43.40564794402924" lon="11.449924393694697"><ele>401.0</ele><time>2026-04-26T08:01:12Z</time></trkpt><trkpt lat="43.40569493896044" lon="11.450034205037978"><ele>402.4</ele><time>2026-04-26T08:01:13Z</time></trkpt><trkpt lat="43.405739693190625" lon="11.450144234952857"><ele>403.8</ele><time>2026-04-26T08:01:14Z</time></trkpt><trkpt lat="43.40578234329293" lon="11.450260651872409"><ele>405.2</ele><time>2026-04-26T08:01:15Z</time></trkpt><trkpt lat="43.40582520680692" lon="11.450378842270185"><ele>406.59999999999997</ele><time>2026-04-26T08:01:16Z</time></trkpt><trkpt lat="43.4058600078765" lon="11.450504278452149"><ele>408.0</ele><time>2026-04-26T08:01:17Z</time></trkpt><trkpt lat="43.40588725739374" lon="11.450637893403519"><ele>408.59999999999997</ele><time>2026-04-26T08:01:18Z</time></trkpt><trkpt lat="43.4059200473498" lon="11.450774147888456"><ele>409.2</ele><time>2026-04-26T08:01:19Z</time></trkpt><trkpt lat="43.40596361673844" lon="11.45090522022949"><ele>409.8</ele><time>2026-04-26T08:01:20Z</time></trkpt><trkpt lat="43.40601103287559" lon="11.451030988185117"><ele>410.4</ele><time>2026-04-26T08:01:21Z</time></trkpt><trkpt lat="43.40607294176047" lon="11.451153060862058"><ele>411.0</ele><time>2026-04-26T08:01:22Z</time></trkpt><trkpt lat="43.4061367204553" lon="11.451266755390773"><ele>411.0</ele><time>2026-04-26T08:01:23Z</time></trkpt><trkpt lat="43.40620494575839" lon="11.45137431063885"><ele>411.0</ele><time>2026-04-26T08:01:24Z</time></trkpt><trkpt lat="43.40626906538414" lon="11.451484469684962"><ele>411.0</ele><time>2026-04-26T08:01:25Z</time></trkpt><trkpt lat="43.40632744903512" lon="11.451609473837271"><ele>411.0</ele><time>2026-04-26T08:01:26Z</time></trkpt><trkpt lat="43.406384705974844" lon="11.451739994754353"><ele>411.0</ele><time>2026-04-26T08:01:27Z</time></trkpt><trkpt lat="43.40644028680362" lon="11.45186962025491"><ele>410.6</ele><time>2026-04-26T08:01:28Z</time></trkpt><trkpt lat="43.40647993938215" lon="11.452004208958236"><ele>410.20000000000005</ele><time>2026-04-26T08:01:29Z</time></trkpt><trkpt lat="43.406487305143564" lon="11.452144294189576"><ele>409.79999999999995</ele><time>2026-04-26T08:01:30Z</time></trkpt><trkpt lat="43.40649322770224" lon="11.452283507662788"><ele>409.4</ele><time>2026-04-26T08:01:31Z</time></trkpt><trkpt lat="43.406492431209834" lon="11.45245289104148"><ele>409.0</ele><time>2026-04-26T08:01:32Z</time></trkpt><trkpt lat="43.40649193922631" lon="11.452607864071323"><ele>409.00000000000006</ele><time>2026-04-26T08:01:33Z</time></trkpt><trkpt lat="43.40647682695749" lon="11.452746844162036"><ele>409.0</ele><time>2026-04-26T08:01:34Z</time></trkpt><trkpt lat="43.40645759635947" lon="11.45285942770141"><ele>409.0</ele><time>2026-04-26T08:01:35Z</time></trkpt><trkpt lat="43.40643209905109" lon="11.452973653761989"><ele>409.0</ele><time>2026-04-26T08:01:36Z</time></trkpt><trkpt lat="43.40641468532257" lon="11.453088034872264"><ele>409.00000000000006</ele><time>2026-04-26T08:01:37Z</time></trkpt><trkpt lat="43.406421749303156" lon="11.453209706255262"><ele>409.0</ele><time>2026-04-26T08:01:38Z</time></trkpt><trkpt lat="43.406445255189816" lon="11.453351649670141"><ele>409.6</ele><time>2026-04-26T08:01:39Z</time></trkpt><trkpt lat="43.406481140730506" lon="11.453505465762875"><ele>410.2</ele><time>2026-04-26T08:01:40Z</time></trkpt><trkpt lat="43.40652082322929" lon="11.45361615403476"><ele>410.8</ele><time>2026-04-26T08:01:41Z</time></trkpt><trkpt lat="43.40655001951869" lon="11.453727942355286"><ele>411.40000000000003</ele><time>2026-04-26T08:01:42Z</time></trkpt><trkpt lat="43.4065493859456" lon="11.453865041642343"><ele>412.0</ele><time>2026-04-26T08:01:43Z</time></trkpt><trkpt lat="43.40653284820672" lon="11.454021266166205"><ele>412.0</ele><time>2026-04-26T08:01:44Z</time></trkpt><trkpt lat="43.4064808978006" lon="11.45415831794005"><ele>412.0</ele><time>2026-04-26T08:01:45Z</time></trkpt><trkpt lat="43.40644447027741" lon="11.454286766433546"><ele>412.0</ele><time>2026-04-26T08:01:46Z</time></trkpt><trkpt lat="43.40640302934082" lon="11.45438829058661"><ele>412.0</ele><time>2026-04-26T08:01:47Z</time></trkpt><trkpt lat="43.40634615276183" lon="11.454481367314264"><ele>412.0</ele><time>2026-04-26T08:01:48Z</time></trkpt><trkpt lat="43.406279852341704" lon="11.45458651557211"><ele>414.0</ele><time>2026-04-26T08:01:49Z</time></trkpt><trkpt lat="43.406230564681486" lon="11.454695704693837"><ele>416.0</ele><time>2026-04-26T08:01:50Z</time></trkpt><trkpt lat="43.40618269481512" lon="11.45480667552121"><ele>418.0</ele><time>2026-04-26T08:01:51Z</time></trkpt><trkpt lat="43.40615198570067" lon="11.45493911610402"><ele>420.0</ele><time>2026-04-26T08:01:52Z</time></trkpt><trkpt lat="43.40613060776271" lon="11.455079215791786"><ele>422.0</ele><time>2026-04-26T08:01:53Z</time></trkpt><trkpt lat="43.40609969202943" lon="11.455231032432714"><ele>422.0</ele><time>2026-04-26T08:01:54Z</time></trkpt><trkpt lat="43.40606190679422" lon="11.455379407964095"><ele>422.0</ele><time>2026-04-26T08:01:55Z</time></trkpt><trkpt lat="43.40603443172793" lon="11.455529907534428"><ele>422.0</ele><time>2026-04-26T08:01:56Z</time></trkpt><trkpt lat="43.40602222289289" lon="11.455656663423401"><ele>422.0</ele><time>2026-04-26T08:01:57Z</time></trkpt><trkpt lat="43.40600776108438" lon="11.455785243648172"><ele>422.0</ele><time>2026-04-26T08:01:58Z</time></trkpt><trkpt lat="43.405962168248415" lon="11.45589956301181"><ele>422.8</ele><time>2026-04-26T08:01:59Z</time></trkpt><trkpt lat="43.405912475435855" lon="11.456010571579874"><ele>423.6</ele><time>2026-04-26T08:02:00Z</time></trkpt><trkpt lat="43.405858335649334" lon="11.456139015900906"><ele>424.40000000000003</ele><time>2026-04-26T08:02:01.001Z</time></trkpt><trkpt lat="43.405783966272494" lon="11.456239047603246"><ele>425.20000000000005</ele><time>2026-04-26T08:02:02.001Z</time></trkpt><trkpt lat="43.405695616811705" lon="11.456295686701344"><ele>426.0</ele><time>2026-04-26T08:02:03.001Z</time></trkpt><trkpt lat="43.40562184792457" lon="11.45634912613456"><ele>426.20000000000005</ele><time>2026-04-26T08:02:04.001Z</time></trkpt><trkpt lat="43.405552753637984" lon="11.456408131508796"><ele>426.40000000000003</ele><time>2026-04-26T08:02:05.001Z</time></trkpt><trkpt lat="43.40547913959761" lon="11.456382762288708"><ele>426.6</ele><time>2026-04-26T08:02:06.001Z</time></trkpt><trkpt lat="43.405391773851065" lon="11.456367022058078"><ele>426.8</ele><time>2026-04-26T08:02:07.001Z</time></trkpt><trkpt lat="43.40528849148835" lon="11.45637771649219"><ele>427.0</ele><time>2026-04-26T08:02:08.001Z</time></trkpt><trkpt lat="43.40517867642594" lon="11.456363027532738"><ele>428.8</ele><time>2026-04-26T08:02:09.001Z</time></trkpt><trkpt lat="43.40506855296803" lon="11.456326766408605"><ele>430.6</ele><time>2026-04-26T08:02:10.001Z</time></trkpt><trkpt lat="43.40497710048204" lon="11.456315833467393"><ele>432.40000000000003</ele><time>2026-04-26T08:02:11.001Z</time></trkpt><trkpt lat="43.40490592396574" lon="11.456331770505143"><ele>434.20000000000005</ele><time>2026-04-26T08:02:12.001Z</time></trkpt><trkpt lat="43.404799162006306" lon="11.456378657264437"><ele>436.0</ele><time>2026-04-26T08:02:14.001Z</time></trkpt><trkpt lat="43.40475021432332" lon="11.456497105384747"><ele>436.00000000000006</ele><time>2026-04-26T08:02:16.001Z</time></trkpt><trkpt lat="43.40478322662014" lon="11.456602739895022"><ele>436.0</ele><time>2026-04-26T08:02:17.001Z</time></trkpt><trkpt lat="43.40481259887795" lon="11.456700139686598"><ele>436.0</ele><time>2026-04-26T08:02:18.001Z</time></trkpt><trkpt lat="43.404855474009544" lon="11.456801888642914"><ele>436.0</ele><time>2026-04-26T08:02:19.001Z</time></trkpt><trkpt lat="43.40489504573013" lon="11.456916549727241"><ele>436.00000000000006</ele><time>2026-04-26T08:02:20.001Z</time></trkpt><trkpt lat="43.404931321431654" lon="11.45704627604176"><ele>436.0</ele><time>2026-04-26T08:02:21Z</time></trkpt><trkpt lat="43.404957315738514" lon="11.45718610160359"><ele>437.4</ele><time>2026-04-26T08:02:22Z</time></trkpt><trkpt lat="43.40497278757141" lon="11.45733400848463"><ele>438.8</ele><time>2026-04-26T08:02:23Z</time></trkpt><trkpt lat="43.40498297134739" lon="11.457481247780951"><ele>440.19999999999993</ele><time>2026-04-26T08:02:24Z</time></trkpt><trkpt lat="43.40499397009926" lon="11.4576234737045"><ele>441.59999999999997</ele><time>2026-04-26T08:02:25Z</time></trkpt><trkpt lat="43.405005179415035" lon="11.457746655496631"><ele>443.0</ele><time>2026-04-26T08:02:26Z</time></trkpt><trkpt lat="43.40500885226322" lon="11.45784205449854"><ele>443.0</ele><time>2026-04-26T08:02:27Z</time></trkpt><trkpt lat="43.40500221650677" lon="11.45794341334205"><ele>443.0</ele><time>2026-04-26T08:02:28Z</time></trkpt><trkpt lat="43.404972726766175" lon="11.45803103113992"><ele>443.0</ele><time>2026-04-26T08:02:29Z</time></trkpt><trkpt lat="43.40493188211587" lon="11.458108085212716"><ele>443.0</ele><time>2026-04-26T08:02:30Z</time></trkpt><trkpt lat="43.404882434993496" lon="11.458172903098555"><ele>443.0</ele><time>2026-04-26T08:02:31Z</time></trkpt><trkpt lat="43.40483272109481" lon="11.45825108511568"><ele>443.0</ele><time>2026-04-26T08:02:32Z</time></trkpt><trkpt lat="43.40479899075189" lon="11.458342663166468"><ele>443.0</ele><time>2026-04-26T08:02:33Z</time></trkpt><trkpt lat="43.40478125511464" lon="11.458444183657349"><ele>444.3333333333333</ele><time>2026-04-26T08:02:34Z</time></trkpt><trkpt lat="43.40476643343716" lon="11.458548828511352"><ele>445.66666666666663</ele><time>2026-04-26T08:02:35Z</time></trkpt><trkpt lat="43.404735712921244" lon="11.458654523974856"><ele>447.0</ele><time>2026-04-26T08:02:36Z</time></trkpt><trkpt lat="43.40470081566338" lon="11.458750816110252"><ele>448.33333333333337</ele><time>2026-04-26T08:02:37Z</time></trkpt><trkpt lat="43.40462975993557" lon="11.45882807942907"><ele>449.6666666666667</ele><time>2026-04-26T08:02:38Z</time></trkpt><trkpt lat="43.40457015981555" lon="11.458930554971076"><ele>451.0</ele><time>2026-04-26T08:02:39Z</time></trkpt><trkpt lat="43.404490702571934" lon="11.459022570092081"><ele>451.8</ele><time>2026-04-26T08:02:40Z</time></trkpt><trkpt lat="43.40441135455996" lon="11.459126047845771"><ele>452.6</ele><time>2026-04-26T08:02:41Z</time></trkpt><trkpt lat="43.40434088955327" lon="11.459227600480753"><ele>453.4</ele><time>2026-04-26T08:02:42Z</time></trkpt><trkpt lat="43.404285511528" lon="11.459326432120191"><ele>454.2</ele><time>2026-04-26T08:02:43Z</time></trkpt><trkpt lat="43.40423923161752" lon="11.459423461300208"><ele>455.0</ele><time>2026-04-26T08:02:44Z</time></trkpt><trkpt lat="43.40419961285918" lon="11.459520296967193"><ele>455.16666666666663</ele><time>2026-04-26T08:02:45Z</time></trkpt><trkpt lat="43.40416313994771" lon="11.459620296638425"><ele>455.3333333333333</ele><time>2026-04-26T08:02:46Z</time></trkpt><trkpt lat="43.40413377581515" lon="11.459739959808472"><ele>455.5</ele><time>2026-04-26T08:02:47Z</time></trkpt><trkpt lat="43.40411763524979" lon="11.459863765527944"><ele>455.66666666666663</ele><time>2026-04-26T08:02:48Z</time></trkpt><trkpt lat="43.40409613594539" lon="11.459980505446712"><ele>455.8333333333333</ele><time>2026-04-26T08:02:49Z</time></trkpt><trkpt lat="43.404079053959826" lon="11.460089671802562"><ele>456.0</ele><time>2026-04-26T08:02:50Z</time></trkpt><trkpt lat="43.40406434389433" lon="11.460198338135882"><ele>456.0</ele><time>2026-04-26T08:02:51Z</time></trkpt><trkpt lat="43.40405590655318" lon="11.460294047948144"><ele>455.99999999999994</ele><time>2026-04-26T08:02:52Z</time></trkpt><trkpt lat="43.40404919417736" lon="11.460391626362775"><ele>456.0</ele><time>2026-04-26T08:02:53Z</time></trkpt><trkpt lat="43.40404693585856" lon="11.46049803063791"><ele>456.0</ele><time>2026-04-26T08:02:54Z</time></trkpt><trkpt lat="43.4040585029078" lon="11.460594123700426"><ele>455.99999999999994</ele><time>2026-04-26T08:02:55Z</time></trkpt><trkpt lat="43.40408430058455" lon="11.460687775513607"><ele>456.0</ele><time>2026-04-26T08:02:56Z</time></trkpt><trkpt lat="43.40412616620483" lon="11.460784735946506"><ele>456.0</ele><time>2026-04-26T08:02:57Z</time></trkpt><trkpt lat="43.40417500825319" lon="11.46089825593765"><ele>456.0</ele><time>2026-04-26T08:02:58Z</time></trkpt><trkpt lat="43.40423212315226" lon="11.461014377213937"><ele>456.0</ele><time>2026-04-26T08:02:59Z</time></trkpt><trkpt lat="43.40429076215786" lon="11.461138764294423"><ele>456.0</ele><time>2026-04-26T08:03:00Z</time></trkpt><trkpt lat="43.40434687559828" lon="11.461262234219573"><ele>456.0</ele><time>2026-04-26T08:03:01Z</time></trkpt><trkpt lat="43.40440691018926" lon="11.461389763458365"><ele>456.0</ele><time>2026-04-26T08:03:02Z</time></trkpt><trkpt lat="43.40446431216409" lon="11.461511521188017"><ele>456.0</ele><time>2026-04-26T08:03:03Z</time></trkpt><trkpt lat="43.40451093936447" lon="11.461615764729775"><ele>456.0</ele><time>2026-04-26T08:03:04Z</time></trkpt><trkpt lat="43.404547023198226" lon="11.461723484943453"><ele>456.0</ele><time>2026-04-26T08:03:05Z</time></trkpt><trkpt lat="43.40457093630664" lon="11.461854470517592"><ele>456.0</ele><time>2026-04-26T08:03:06Z</time></trkpt><trkpt lat="43.404590929755365" lon="11.46199145070736"><ele>456.0</ele><time>2026-04-26T08:03:07Z</time></trkpt><trkpt lat="43.40461242506102" lon="11.46212666896811"><ele>455.0</ele><time>2026-04-26T08:03:08Z</time></trkpt><trkpt lat="43.40463170804792" lon="11.462256887823115"><ele>454.0</ele><time>2026-04-26T08:03:09Z</time></trkpt><trkpt lat="43.404655072427104" lon="11.462380808266664"><ele>453.0</ele><time>2026-04-26T08:03:10Z</time></trkpt><trkpt lat="43.40466777934325" lon="11.462499692007178"><ele>452.0</ele><time>2026-04-26T08:03:11Z</time></trkpt><trkpt lat="43.40468894804718" lon="11.462625120918712"><ele>451.0</ele><time>2026-04-26T08:03:12Z</time></trkpt><trkpt lat="43.404716519657924" lon="11.462750204504118"><ele>450.6</ele><time>2026-04-26T08:03:13Z</time></trkpt><trkpt lat="43.40474874801355" lon="11.462861516886404"><ele>450.20000000000005</ele><time>2026-04-26T08:03:14Z</time></trkpt><trkpt lat="43.40479577809868" lon="11.462967006084279"><ele>449.79999999999995</ele><time>2026-04-26T08:03:15Z</time></trkpt><trkpt lat="43.40485631881733" lon="11.463076914397904"><ele>449.4</ele><time>2026-04-26T08:03:16Z</time></trkpt><trkpt lat="43.404926658461" lon="11.463189801209714"><ele>449.0</ele><time>2026-04-26T08:03:17Z</time></trkpt><trkpt lat="43.40499819449133" lon="11.46330338375855"><ele>450.0</ele><time>2026-04-26T08:03:18Z</time></trkpt><trkpt lat="43.40507975510601" lon="11.46342432007023"><ele>451.0</ele><time>2026-04-26T08:03:19Z</time></trkpt><trkpt lat="43.40516758463098" lon="11.463541782579634"><ele>452.0</ele><time>2026-04-26T08:03:20Z</time></trkpt><trkpt lat="43.40525765078785" lon="11.46365786520025"><ele>453.0</ele><time>2026-04-26T08:03:21Z</time></trkpt><trkpt lat="43.40535260962744" lon="11.463765900778697"><ele>452.59999999999997</ele><time>2026-04-26T08:03:22Z</time></trkpt><trkpt lat="43.405450987001025" lon="11.463870550840875"><ele>452.19999999999993</ele><time>2026-04-26T08:03:23Z</time></trkpt><trkpt lat="43.40555913344209" lon="11.463956570907106"><ele>451.8</ele><time>2026-04-26T08:03:24Z</time></trkpt><trkpt lat="43.405644516767346" lon="11.46403125777525"><ele>451.4</ele><time>2026-04-26T08:03:25Z</time></trkpt><trkpt lat="43.4057176653627" lon="11.464101443362576"><ele>451.0</ele><time>2026-04-26T08:03:26Z</time></trkpt><trkpt lat="43.40580402034846" lon="11.464187489741963"><ele>455.25</ele><time>2026-04-26T08:03:27Z</time></trkpt><trkpt lat="43.40590386530909" lon="11.464264875269144"><ele>459.5</ele><time>2026-04-26T08:03:28Z</time></trkpt><trkpt lat="43.406005534275366" lon="11.464327966079932"><ele>463.75</ele><time>2026-04-26T08:03:29Z</time></trkpt><trkpt lat="43.4061065845363" lon="11.464386432071832"><ele>468.0</ele><time>2026-04-26T08:03:30Z</time></trkpt><trkpt lat="43.40622038705987" lon="11.464438524522517"><ele>468.0</ele><time>2026-04-26T08:03:31Z</time></trkpt><trkpt lat="43.406325279744905" lon="11.464474859510407"><ele>467.99999999999994</ele><time>2026-04-26T08:03:32Z</time></trkpt><trkpt lat="43.406434628906055" lon="11.464506933865291"><ele>467.99999999999994</ele><time>2026-04-26T08:03:33Z</time></trkpt><trkpt lat="43.40653756587304" lon="11.464535392661482"><ele>468.0</ele><time>2026-04-26T08:03:34Z</time></trkpt><trkpt lat="43.40663484713553" lon="11.464561591781743"><ele>468.0</ele><time>2026-04-26T08:03:35Z</time></trkpt><trkpt lat="43.40673540703488" lon="11.464602332840094"><ele>470.0</ele><time>2026-04-26T08:03:36Z</time></trkpt><trkpt lat="43.40683364968994" lon="11.4646390463372"><ele>471.99999999999994</ele><time>2026-04-26T08:03:37Z</time></trkpt><trkpt lat="43.406938176011934" lon="11.46466812982063"><ele>473.99999999999994</ele><time>2026-04-26T08:03:38Z</time></trkpt><trkpt lat="43.40705588738806" lon="11.464685588460696"><ele>476.0</ele><time>2026-04-26T08:03:39Z</time></trkpt><trkpt lat="43.40717514237667" lon="11.46467551750233"><ele>478.0</ele><time>2026-04-26T08:03:40Z</time></trkpt><trkpt lat="43.40730119441357" lon="11.464651121710745"><ele>478.25</ele><time>2026-04-26T08:03:41Z</time></trkpt><trkpt lat="43.407433858124975" lon="11.464628031638902"><ele>478.5</ele><time>2026-04-26T08:03:42Z</time></trkpt><trkpt lat="43.40757401965919" lon="11.464610704586034"><ele>478.75</ele><time>2026-04-26T08:03:43Z</time></trkpt><trkpt lat="43.407697874622315" lon="11.464591780936434"><ele>479.0</ele><time>2026-04-26T08:03:44Z</time></trkpt><trkpt lat="43.40781260772404" lon="11.464574381061833"><ele>479.0</ele><time>2026-04-26T08:03:45Z</time></trkpt><trkpt lat="43.407924294392195" lon="11.46456950182828"><ele>479.0</ele><time>2026-04-26T08:03:46Z</time></trkpt><trkpt lat="43.408038146555775" lon="11.464556658254146"><ele>479.0</ele><time>2026-04-26T08:03:47Z</time></trkpt><trkpt lat="43.40815383438197" lon="11.464561479540233"><ele>479.0</ele><time>2026-04-26T08:03:48Z</time></trkpt><trkpt lat="43.40826644322425" lon="11.464552797873553"><ele>481.0</ele><time>2026-04-26T08:03:49.001Z</time></trkpt><trkpt lat="43.40837599184919" lon="11.464554838611365"><ele>483.0</ele><time>2026-04-26T08:03:50.001Z</time></trkpt><trkpt lat="43.40848331600533" lon="11.464566135393527"><ele>485.0</ele><time>2026-04-26T08:03:51.001Z</time></trkpt><trkpt lat="43.40859480812797" lon="11.464586926772451"><ele>487.0</ele><time>2026-04-26T08:03:52.001Z</time></trkpt><trkpt lat="43.408712335445465" lon="11.464591822420113"><ele>489.0</ele><time>2026-04-26T08:03:53.001Z</time></trkpt><trkpt lat="43.408827247972305" lon="11.464583277110854"><ele>490.0</ele><time>2026-04-26T08:03:54.001Z</time></trkpt><trkpt lat="43.4089400341068" lon="11.464566629767415"><ele>491.0</ele><time>2026-04-26T08:03:55.001Z</time></trkpt><trkpt lat="43.40905359543482" lon="11.464556564560844"><ele>492.0</ele><time>2026-04-26T08:03:56.001Z</time></trkpt><trkpt lat="43.409169263523175" lon="11.464543159050715"><ele>493.0</ele><time>2026-04-26T08:03:57.001Z</time></trkpt><trkpt lat="43.40927867156713" lon="11.464529434377775"><ele>493.0</ele><time>2026-04-26T08:03:58.001Z</time></trkpt><trkpt lat="43.40939313998562" lon="11.464518075177441"><ele>492.99999999999994</ele><time>2026-04-26T08:03:59.001Z</time></trkpt><trkpt lat="43.40949621855779" lon="11.464508377753702"><ele>492.99999999999994</ele><time>2026-04-26T08:04:00.001Z</time></trkpt><trkpt lat="43.4095872082615" lon="11.464501826891215"><ele>493.0</ele><time>2026-04-26T08:04:01.001Z</time></trkpt><trkpt lat="43.40966642409628" lon="11.464503693377168"><ele>493.0</ele><time>2026-04-26T08:04:02.001Z</time></trkpt><trkpt lat="43.40973566965522" lon="11.464505051040982"><ele>492.83333333333337</ele><time>2026-04-26T08:04:03.001Z</time></trkpt><trkpt lat="43.409801791469334" lon="11.46449888624181"><ele>492.6666666666667</ele><time>2026-04-26T08:04:04.001Z</time></trkpt><trkpt lat="43.40990857141758" lon="11.464498525453168"><ele>492.5</ele><time>2026-04-26T08:04:06.001Z</time></trkpt><trkpt lat="43.40997684723696" lon="11.464504450521025"><ele>492.33333333333337</ele><time>2026-04-26T08:06:22.001Z</time></trkpt><trkpt lat="43.410066701597955" lon="11.464491323399045"><ele>492.1666666666667</ele><time>2026-04-26T08:06:24.001Z</time></trkpt><trkpt lat="43.41013870157763" lon="11.464494699819477"><ele>492.0</ele><time>2026-04-26T08:06:25.001Z</time></trkpt><trkpt lat="43.410218131069065" lon="11.464501198027422"><ele>492.0</ele><time>2026-04-26T08:06:26.001Z</time></trkpt><trkpt lat="43.41030474668849" lon="11.464496060555247"><ele>492.0</ele><time>2026-04-26T08:06:27.001Z</time></trkpt><trkpt lat="43.410376646047226" lon="11.464492819479535"><ele>492.0</ele><time>2026-04-26T08:06:28.001Z</time></trkpt><trkpt lat="43.41045260384435" lon="11.464492312006723"><ele>492.0</ele><time>2026-04-26T08:06:29.001Z</time></trkpt><trkpt lat="43.41053803767644" lon="11.464485400570439"><ele>492.0</ele><time>2026-04-26T08:06:30.001Z</time></trkpt><trkpt lat="43.41063005215144" lon="11.464482231424991"><ele>492.0</ele><time>2026-04-26T08:06:31.001Z</time></trkpt><trkpt lat="43.4107188635417" lon="11.464476446134318"><ele>492.40000000000003</ele><time>2026-04-26T08:06:32.001Z</time></trkpt><trkpt lat="43.41080283437521" lon="11.464469938978045"><ele>492.80000000000007</ele><time>2026-04-26T08:06:33Z</time></trkpt><trkpt lat="43.41088130570419" lon="11.46445341251732"><ele>493.2</ele><time>2026-04-26T08:06:34Z</time></trkpt><trkpt lat="43.41094565531749" lon="11.464449011586206"><ele>493.6</ele><time>2026-04-26T08:06:35Z</time></trkpt><trkpt lat="43.411055585149086" lon="11.464480460709146"><ele>494.0</ele><time>2026-04-26T08:06:37Z</time></trkpt><trkpt lat="43.41115386811339" lon="11.464592393890467"><ele>494.3333333333333</ele><time>2026-04-26T08:06:39Z</time></trkpt><trkpt lat="43.41123499096171" lon="11.464649579953338"><ele>494.66666666666663</ele><time>2026-04-26T08:06:40Z</time></trkpt><trkpt lat="43.41130651403661" lon="11.46470843134409"><ele>495.0</ele><time>2026-04-26T08:06:41Z</time></trkpt><trkpt lat="43.41138915455925" lon="11.46476107428534"><ele>495.33333333333337</ele><time>2026-04-26T08:06:42Z</time></trkpt><trkpt lat="43.41145135636842" lon="11.464781013906247"><ele>495.6666666666667</ele><time>2026-04-26T08:06:43Z</time></trkpt><trkpt lat="43.4115267595838" lon="11.464825411053805"><ele>496.0</ele><time>2026-04-26T08:06:44Z</time></trkpt><trkpt lat="43.41160646353704" lon="11.464838066582873"><ele>497.1666666666667</ele><time>2026-04-26T08:06:45Z</time></trkpt><trkpt lat="43.4116821724066" lon="11.464847832839995"><ele>498.33333333333337</ele><time>2026-04-26T08:06:46Z</time></trkpt><trkpt lat="43.41174122968333" lon="11.464812191544564"><ele>499.5</ele><time>2026-04-26T08:06:47Z</time></trkpt><trkpt lat="43.411821582893914" lon="11.46480058246388"><ele>500.66666666666663</ele><time>2026-04-26T08:06:48Z</time></trkpt><trkpt lat="43.41189979872806" lon="11.464761820413662"><ele>501.8333333333333</ele><time>2026-04-26T08:06:49Z</time></trkpt><trkpt lat="43.411989754775995" lon="11.464705978644536"><ele>503.0</ele><time>2026-04-26T08:06:50Z</time></trkpt><trkpt lat="43.41207141793423" lon="11.464651363480293"><ele>505.2</ele><time>2026-04-26T08:06:51Z</time></trkpt><trkpt lat="43.412163191626576" lon="11.464589778090966"><ele>507.4</ele><time>2026-04-26T08:06:52Z</time></trkpt><trkpt lat="43.412254897399485" lon="11.464526635722997"><ele>509.59999999999997</ele><time>2026-04-26T08:06:53Z</time></trkpt><trkpt lat="43.4123185706696" lon="11.464462227715572"><ele>511.79999999999995</ele><time>2026-04-26T08:06:54Z</time></trkpt><trkpt lat="43.41239690711217" lon="11.46442381488963"><ele>514.0</ele><time>2026-04-26T08:06:55Z</time></trkpt><trkpt lat="43.41247682722867" lon="11.464383868311495"><ele>514.0</ele><time>2026-04-26T08:06:56Z</time></trkpt><trkpt lat="43.41255696339689" lon="11.464365651036086"><ele>514.0</ele><time>2026-04-26T08:06:57Z</time></trkpt><trkpt lat="43.412635150204544" lon="11.464367557349235"><ele>514.0</ele><time>2026-04-26T08:06:58Z</time></trkpt><trkpt lat="43.412712084267085" lon="11.46437447088575"><ele>514.0</ele><time>2026-04-26T08:06:59Z</time></trkpt><trkpt lat="43.41280110055871" lon="11.46440341811743"><ele>514.0</ele><time>2026-04-26T08:07:00Z</time></trkpt><trkpt lat="43.41288108045978" lon="11.46441652957679"><ele>514.0</ele><time>2026-04-26T08:07:01Z</time></trkpt><trkpt lat="43.413011815677606" lon="11.464416445623169"><ele>514.6</ele><time>2026-04-26T08:07:03Z</time></trkpt><trkpt lat="43.4130984110618" lon="11.464392398452759"><ele>515.2</ele><time>2026-04-26T08:07:05Z</time></trkpt><trkpt lat="43.41314917438945" lon="11.46450312753041"><ele>515.8000000000001</ele><time>2026-04-26T08:07:17Z</time></trkpt><trkpt lat="43.413222085948796" lon="11.46453566764535"><ele>516.4</ele><time>2026-04-26T08:07:19Z</time></trkpt><trkpt lat="43.413279733754614" lon="11.464610808644924"><ele>517.0</ele><time>2026-04-26T08:07:20Z</time></trkpt><trkpt lat="43.41339333394104" lon="11.464646831950835"><ele>517.0</ele><time>2026-04-26T08:07:22Z</time></trkpt><trkpt lat="43.41345817872104" lon="11.46464875831952"><ele>517.0</ele><time>2026-04-26T08:07:23Z</time></trkpt><trkpt lat="43.41354490027018" lon="11.464673898706772"><ele>517.0</ele><time>2026-04-26T08:07:24Z</time></trkpt><trkpt lat="43.41361447556021" lon="11.46466732603196"><ele>517.0</ele><time>2026-04-26T08:07:25Z</time></trkpt><trkpt lat="43.413747722074476" lon="11.464636346759148"><ele>517.0</ele><time>2026-04-26T08:07:27Z</time></trkpt><trkpt lat="43.413858184041544" lon="11.46459293261307"><ele>518.1666666666667</ele><time>2026-04-26T08:07:29Z</time></trkpt><trkpt lat="43.413921031818916" lon="11.464557965489355"><ele>519.3333333333334</ele><time>2026-04-26T08:07:30Z</time></trkpt><trkpt lat="43.41398174482592" lon="11.464522439400676"><ele>520.5</ele><time>2026-04-26T08:07:31Z</time></trkpt><trkpt lat="43.41405711239493" lon="11.464467162133571"><ele>521.6666666666666</ele><time>2026-04-26T08:07:32Z</time></trkpt><trkpt lat="43.4141565291455" lon="11.464387080197012"><ele>522.8333333333333</ele><time>2026-04-26T08:07:34Z</time></trkpt><trkpt lat="43.414231548671786" lon="11.464319515983973"><ele>524.0</ele><time>2026-04-26T08:07:36Z</time></trkpt><trkpt lat="43.4142945243167" lon="11.46426170341269"><ele>524.0</ele><time>2026-04-26T08:07:37Z</time></trkpt><trkpt lat="43.41434947634842" lon="11.464210303597591"><ele>524.0</ele><time>2026-04-26T08:07:38Z</time></trkpt><trkpt lat="43.41441388866369" lon="11.46413779114284"><ele>524.0</ele><time>2026-04-26T08:07:39Z</time></trkpt><trkpt lat="43.41449849813007" lon="11.464015676902813"><ele>524.0</ele><time>2026-04-26T08:07:41Z</time></trkpt><trkpt lat="43.41453939951673" lon="11.46392110932193"><ele>524.0</ele><time>2026-04-26T08:07:42Z</time></trkpt><trkpt lat="43.41456985997178" lon="11.463831251183764"><ele>524.0</ele><time>2026-04-26T08:07:43Z</time></trkpt><trkpt lat="43.41459733305653" lon="11.463707881736596"><ele>524.6666666666666</ele><time>2026-04-26T08:07:44Z</time></trkpt><trkpt lat="43.41460788584145" lon="11.463611383590857"><ele>525.3333333333333</ele><time>2026-04-26T08:07:45Z</time></trkpt><trkpt lat="43.414615260196655" lon="11.463492538712206"><ele>526.0</ele><time>2026-04-26T08:07:46Z</time></trkpt><trkpt lat="43.414606067694116" lon="11.46336091823507"><ele>526.6666666666666</ele><time>2026-04-26T08:07:47Z</time></trkpt><trkpt lat="43.41459917887695" lon="11.463274605465031"><ele>527.3333333333334</ele><time>2026-04-26T08:07:48Z</time></trkpt><trkpt lat="43.414590503083495" lon="11.463168406379623"><ele>528.0</ele><time>2026-04-26T08:07:49Z</time></trkpt><trkpt lat="43.41459032053723" lon="11.463005635669505"><ele>523.5</ele><time>2026-04-26T08:07:51Z</time></trkpt><trkpt lat="43.414615628498424" lon="11.46282569189058"><ele>519.0</ele><time>2026-04-26T08:07:53.001Z</time></trkpt><trkpt lat="43.414633803886" lon="11.462742168539545"><ele>514.5</ele><time>2026-04-26T08:07:54.001Z</time></trkpt><trkpt lat="43.41468180643305" lon="11.46258930999192"><ele>510.0</ele><time>2026-04-26T08:07:56.001Z</time></trkpt><trkpt lat="43.41474835387831" lon="11.462392958141226"><ele>508.0</ele><time>2026-04-26T08:07:58.001Z</time></trkpt><trkpt lat="43.414745523364964" lon="11.462305139924055"><ele>506.0</ele><time>2026-04-26T08:07:59.001Z</time></trkpt><trkpt lat="43.41480098762287" lon="11.462162052082222"><ele>504.0</ele><time>2026-04-26T08:08:01.001Z</time></trkpt><trkpt lat="43.41487832827577" lon="11.462042009083234"><ele>502.0</ele><time>2026-04-26T08:08:03.001Z</time></trkpt><trkpt lat="43.41491728674631" lon="11.461962574577358"><ele>500.0</ele><time>2026-04-26T08:08:04.001Z</time></trkpt><trkpt lat="43.41494834244492" lon="11.46186436406832"><ele>498.0</ele><time>2026-04-26T08:08:05.001Z</time></trkpt><trkpt lat="43.41497596562942" lon="11.461743843425694"><ele>496.6666666666667</ele><time>2026-04-26T08:08:06.001Z</time></trkpt><trkpt lat="43.41499868003048" lon="11.46163731781791"><ele>495.33333333333337</ele><time>2026-04-26T08:08:07.001Z</time></trkpt><trkpt lat="43.415012568960854" lon="11.461549972414073"><ele>494.0</ele><time>2026-04-26T08:08:08.001Z</time></trkpt><trkpt lat="43.41504126408759" lon="11.461431236119761"><ele>492.6666666666667</ele><time>2026-04-26T08:08:10.001Z</time></trkpt><trkpt lat="43.41509473924529" lon="11.461381445801557"><ele>491.33333333333337</ele><time>2026-04-26T08:08:12.001Z</time></trkpt><trkpt lat="43.41515566640119" lon="11.461465994837104"><ele>490.0</ele><time>2026-04-26T08:08:14.001Z</time></trkpt><trkpt lat="43.41518648618921" lon="11.461620781437839"><ele>490.0</ele><time>2026-04-26T08:08:16.001Z</time></trkpt><trkpt lat="43.4152279856517" lon="11.461713110822261"><ele>490.0</ele><time>2026-04-26T08:08:18.001Z</time></trkpt><trkpt lat="43.415274637069636" lon="11.461781480136791"><ele>490.0</ele><time>2026-04-26T08:08:20.001Z</time></trkpt><trkpt lat="43.41534279057149" lon="11.461767227480806"><ele>490.0</ele><time>2026-04-26T08:08:23.001Z</time></trkpt><trkpt lat="43.415416872751784" lon="11.46156933901254"><ele>490.0</ele><time>2026-04-26T08:08:25.001Z</time></trkpt><trkpt lat="43.41543013378423" lon="11.461444009843373"><ele>490.0</ele><time>2026-04-26T08:08:26.001Z</time></trkpt><trkpt lat="43.41544720334022" lon="11.461348706067843"><ele>490.0</ele><time>2026-04-26T08:08:27.001Z</time></trkpt><trkpt lat="43.41549029793048" lon="11.461225845503579"><ele>490.0</ele><time>2026-04-26T08:08:29.001Z</time></trkpt><trkpt lat="43.41548983569186" lon="11.461012415241292"><ele>490.0</ele><time>2026-04-26T08:08:32.001Z</time></trkpt><trkpt lat="43.41545900079463" lon="11.46093019655269"><ele>490.0</ele><time>2026-04-26T08:08:33.001Z</time></trkpt><trkpt lat="43.415400039655175" lon="11.460836207776044"><ele>488.0</ele><time>2026-04-26T08:08:35.001Z</time></trkpt><trkpt lat="43.41531291888076" lon="11.460746252172893"><ele>486.0</ele><time>2026-04-26T08:08:37.001Z</time></trkpt><trkpt lat="43.41528495131089" lon="11.460660164304151"><ele>484.0</ele><time>2026-04-26T08:08:41Z</time></trkpt><trkpt lat="43.415387304056026" lon="11.460642981423643"><ele>482.0</ele><time>2026-04-26T08:08:43Z</time></trkpt><trkpt lat="43.4154593455077" lon="11.460719312435895"><ele>480.0</ele><time>2026-04-26T08:08:44Z</time></trkpt><trkpt lat="43.41555505957771" lon="11.460798767329083"><ele>479.57142857142856</ele><time>2026-04-26T08:08:46Z</time></trkpt><trkpt lat="43.41559507752995" lon="11.460869772512904"><ele>479.1428571428571</ele><time>2026-04-26T08:08:47Z</time></trkpt><trkpt lat="43.415607656808604" lon="11.460962315476335"><ele>478.71428571428567</ele><time>2026-04-26T08:08:48Z</time></trkpt><trkpt lat="43.41563929185831" lon="11.461085657742553"><ele>478.2857142857143</ele><time>2026-04-26T08:08:49Z</time></trkpt><trkpt lat="43.41565877492647" lon="11.461175676371516"><ele>477.8571428571428</ele><time>2026-04-26T08:08:50Z</time></trkpt><trkpt lat="43.41568572837636" lon="11.461273812123473"><ele>477.4285714285714</ele><time>2026-04-26T08:08:51Z</time></trkpt><trkpt lat="43.41572136893246" lon="11.461347824195393"><ele>477.0</ele><time>2026-04-26T08:08:52Z</time></trkpt><trkpt lat="43.41581904707542" lon="11.46144492271041"><ele>477.0</ele><time>2026-04-26T08:08:54Z</time></trkpt><trkpt lat="43.415914492678525" lon="11.461444265055558"><ele>477.00000000000006</ele><time>2026-04-26T08:08:56Z</time></trkpt><trkpt lat="43.41599759474842" lon="11.461428595975919"><ele>477.00000000000006</ele><time>2026-04-26T08:08:58Z</time></trkpt><trkpt lat="43.416100356602406" lon="11.461351085494073"><ele>477.0</ele><time>2026-04-26T08:09:00Z</time></trkpt><trkpt lat="43.416155431548674" lon="11.461269193311095"><ele>477.0</ele><time>2026-04-26T08:09:02Z</time></trkpt><trkpt lat="43.41617179217179" lon="11.461149696019971"><ele>475.8</ele><time>2026-04-26T08:09:04Z</time></trkpt><trkpt lat="43.416134719229476" lon="11.461027059108446"><ele>474.6</ele><time>2026-04-26T08:09:06Z</time></trkpt><trkpt lat="43.41607641437107" lon="11.460933680012394"><ele>473.40000000000003</ele><time>2026-04-26T08:09:08Z</time></trkpt><trkpt lat="43.41600998183504" lon="11.460785357349597"><ele>472.20000000000005</ele><time>2026-04-26T08:09:10Z</time></trkpt><trkpt lat="43.415972403118005" lon="11.460666005173842"><ele>471.0</ele><time>2026-04-26T08:09:11Z</time></trkpt><trkpt lat="43.4159573005064" lon="11.460531890813089"><ele>468.6666666666667</ele><time>2026-04-26T08:09:12Z</time></trkpt><trkpt lat="43.415958697120814" lon="11.460393709155385"><ele>466.33333333333337</ele><time>2026-04-26T08:09:13Z</time></trkpt><trkpt lat="43.415949767540056" lon="11.46026455729862"><ele>464.0</ele><time>2026-04-26T08:09:14Z</time></trkpt><trkpt lat="43.415935949627894" lon="11.46014961914315"><ele>461.6666666666667</ele><time>2026-04-26T08:09:15Z</time></trkpt><trkpt lat="43.41592568831502" lon="11.46003764458335"><ele>459.33333333333337</ele><time>2026-04-26T08:09:16Z</time></trkpt><trkpt lat="43.41592350434835" lon="11.45993513066363"><ele>457.0</ele><time>2026-04-26T08:09:17Z</time></trkpt><trkpt lat="43.41591222251911" lon="11.459844187814719"><ele>457.00000000000006</ele><time>2026-04-26T08:09:18Z</time></trkpt><trkpt lat="43.415909089893766" lon="11.459754096014318"><ele>457.0</ele><time>2026-04-26T08:09:19Z</time></trkpt><trkpt lat="43.41590521340404" lon="11.459636450949683"><ele>457.0</ele><time>2026-04-26T08:09:21Z</time></trkpt><trkpt lat="43.41590214652641" lon="11.45954364629676"><ele>457.0</ele><time>2026-04-26T08:09:23Z</time></trkpt><trkpt lat="43.41590273352576" lon="11.459426131157496"><ele>457.00000000000006</ele><time>2026-04-26T08:09:27Z</time></trkpt><trkpt lat="43.415899647953175" lon="11.459316148740417"><ele>457.0</ele><time>2026-04-26T08:09:30Z</time></trkpt><trkpt lat="43.415832451652456" lon="11.459309001950169"><ele>455.6</ele><time>2026-04-26T08:09:34Z</time></trkpt><trkpt lat="43.415898971770176" lon="11.459312592777309"><ele>454.20000000000005</ele><time>2026-04-26T08:11:23Z</time></trkpt><trkpt lat="43.415855789178124" lon="11.459021936216239"><ele>452.8</ele><time>2026-04-26T08:11:27Z</time></trkpt><trkpt lat="43.41586531457865" lon="11.458909477880946"><ele>451.4</ele><time>2026-04-26T08:11:28Z</time></trkpt><trkpt lat="43.41587616171762" lon="11.45879679960327"><ele>450.0</ele><time>2026-04-26T08:11:29Z</time></trkpt><trkpt lat="43.41589201625174" lon="11.458694125719491"><ele>449.2</ele><time>2026-04-26T08:11:30Z</time></trkpt><trkpt lat="43.41595561388192" lon="11.458548306738377"><ele>448.4</ele><time>2026-04-26T08:11:32Z</time></trkpt><trkpt lat="43.41600710536756" lon="11.458483789580404"><ele>447.6</ele><time>2026-04-26T08:11:33Z</time></trkpt><trkpt lat="43.41605482984272" lon="11.458407808411122"><ele>446.8</ele><time>2026-04-26T08:11:34Z</time></trkpt><trkpt lat="43.41610604166372" lon="11.458308063315174"><ele>446.0</ele><time>2026-04-26T08:11:35Z</time></trkpt><trkpt lat="43.41618794191716" lon="11.458216257445441"><ele>446.0</ele><time>2026-04-26T08:11:36Z</time></trkpt><trkpt lat="43.416287551228415" lon="11.45812168447825"><ele>446.0</ele><time>2026-04-26T08:11:37Z</time></trkpt><trkpt lat="43.41639747835971" lon="11.45804078100695"><ele>446.0</ele><time>2026-04-26T08:11:38Z</time></trkpt><trkpt lat="43.41650823254229" lon="11.457993323650213"><ele>446.0</ele><time>2026-04-26T08:11:39Z</time></trkpt><trkpt lat="43.41662097646647" lon="11.457980769997947"><ele>444.75</ele><time>2026-04-26T08:11:40Z</time></trkpt><trkpt lat="43.416741092443495" lon="11.45799264656227"><ele>443.5</ele><time>2026-04-26T08:11:41Z</time></trkpt><trkpt lat="43.41687465407671" lon="11.45801239146439"><ele>442.25</ele><time>2026-04-26T08:11:42Z</time></trkpt><trkpt lat="43.41700307795521" lon="11.458027238179133"><ele>441.0</ele><time>2026-04-26T08:11:43Z</time></trkpt><trkpt lat="43.417129101428955" lon="11.458039314253279"><ele>440.5</ele><time>2026-04-26T08:11:44Z</time></trkpt><trkpt lat="43.41726826400627" lon="11.458080579144648"><ele>440.0</ele><time>2026-04-26T08:11:45Z</time></trkpt><trkpt lat="43.41739690881985" lon="11.458165195242302"><ele>439.5</ele><time>2026-04-26T08:11:46Z</time></trkpt><trkpt lat="43.41750606071906" lon="11.458259789504023"><ele>439.0</ele><time>2026-04-26T08:11:47Z</time></trkpt><trkpt lat="43.41761304094644" lon="11.4583376083208"><ele>439.0</ele><time>2026-04-26T08:11:48Z</time></trkpt><trkpt lat="43.4177181609714" lon="11.458396685374506"><ele>439.0</ele><time>2026-04-26T08:11:49Z</time></trkpt><trkpt lat="43.41782936758445" lon="11.458428141979692"><ele>439.0</ele><time>2026-04-26T08:11:50Z</time></trkpt><trkpt lat="43.41795356153802" lon="11.458443684868426"><ele>439.0</ele><time>2026-04-26T08:11:51Z</time></trkpt><trkpt lat="43.4180906726653" lon="11.458382340824594"><ele>437.0</ele><time>2026-04-26T08:11:52Z</time></trkpt><trkpt lat="43.41821936045479" lon="11.458264292163557"><ele>435.0</ele><time>2026-04-26T08:11:53Z</time></trkpt><trkpt lat="43.41835623208114" lon="11.458159171149461"><ele>433.0</ele><time>2026-04-26T08:11:54Z</time></trkpt><trkpt lat="43.41849903866491" lon="11.45807398251715"><ele>433.0</ele><time>2026-04-26T08:11:55Z</time></trkpt><trkpt lat="43.41861257370014" lon="11.457960252412255"><ele>433.0</ele><time>2026-04-26T08:11:56Z</time></trkpt><trkpt lat="43.418721046029866" lon="11.457878222503801"><ele>433.0</ele><time>2026-04-26T08:11:57Z</time></trkpt><trkpt lat="43.41881702741988" lon="11.457798191893861"><ele>433.0</ele><time>2026-04-26T08:11:58Z</time></trkpt><trkpt lat="43.41889552276102" lon="11.45771763843119"><ele>433.0</ele><time>2026-04-26T08:11:59Z</time></trkpt><trkpt lat="43.41897096937423" lon="11.457624967267886"><ele>432.99999999999994</ele><time>2026-04-26T08:12:00Z</time></trkpt><trkpt lat="43.41900997905988" lon="11.457459210861895"><ele>432.99999999999994</ele><time>2026-04-26T08:12:01Z</time></trkpt><trkpt lat="43.41902536431607" lon="11.457302756845941"><ele>433.0</ele><time>2026-04-26T08:12:02Z</time></trkpt><trkpt lat="43.41902838685836" lon="11.457177174819048"><ele>433.0</ele><time>2026-04-26T08:12:03Z</time></trkpt><trkpt lat="43.41908673465254" lon="11.457054996641336"><ele>433.75</ele><time>2026-04-26T08:12:04Z</time></trkpt><trkpt lat="43.41918887046297" lon="11.456944273365297"><ele>434.5</ele><time>2026-04-26T08:12:05Z</time></trkpt><trkpt lat="43.41929173488248" lon="11.456881404839123"><ele>435.25</ele><time>2026-04-26T08:12:06Z</time></trkpt><trkpt lat="43.41942109036772" lon="11.456857876279336"><ele>436.0</ele><time>2026-04-26T08:12:07Z</time></trkpt><trkpt lat="43.41954047351675" lon="11.456834896762386"><ele>436.0</ele><time>2026-04-26T08:12:08Z</time></trkpt><trkpt lat="43.41964987600115" lon="11.456759239797341"><ele>436.0</ele><time>2026-04-26T08:12:09Z</time></trkpt><trkpt lat="43.41976210483779" lon="11.456625500677118"><ele>436.0</ele><time>2026-04-26T08:12:10Z</time></trkpt><trkpt lat="43.41989198848063" lon="11.456466950692214"><ele>436.0</ele><time>2026-04-26T08:12:11Z</time></trkpt><trkpt lat="43.42001590257272" lon="11.456286697450246"><ele>433.33333333333337</ele><time>2026-04-26T08:12:12Z</time></trkpt><trkpt lat="43.42013662817106" lon="11.45610768015642"><ele>430.66666666666663</ele><time>2026-04-26T08:12:13Z</time></trkpt><trkpt lat="43.4202486015299" lon="11.455941641771851"><ele>428.0</ele><time>2026-04-26T08:12:14Z</time></trkpt><trkpt lat="43.42036752333756" lon="11.455767317656916"><ele>426.0</ele><time>2026-04-26T08:12:15Z</time></trkpt><trkpt lat="43.42048537586094" lon="11.455601941996088"><ele>424.0</ele><time>2026-04-26T08:12:16Z</time></trkpt><trkpt lat="43.42059005421981" lon="11.455455453649325"><ele>422.0</ele><time>2026-04-26T08:12:17Z</time></trkpt><trkpt lat="43.42069103559495" lon="11.455317674332969"><ele>422.0</ele><time>2026-04-26T08:12:18Z</time></trkpt><trkpt lat="43.42078412393303" lon="11.45516277190047"><ele>422.0</ele><time>2026-04-26T08:12:19Z</time></trkpt><trkpt lat="43.42087271608838" lon="11.455006683143646"><ele>422.0</ele><time>2026-04-26T08:12:20Z</time></trkpt><trkpt lat="43.42094533138607" lon="11.454840356510001"><ele>422.0</ele><time>2026-04-26T08:12:21Z</time></trkpt><trkpt lat="43.42104899606096" lon="11.45471356033078"><ele>424.0</ele><time>2026-04-26T08:12:22Z</time></trkpt><trkpt lat="43.42116899940144" lon="11.45459239542115"><ele>426.0</ele><time>2026-04-26T08:12:23Z</time></trkpt><trkpt lat="43.421318882456816" lon="11.454494443136959"><ele>428.0</ele><time>2026-04-26T08:12:24Z</time></trkpt><trkpt lat="43.421461913986406" lon="11.454367306908573"><ele>424.25</ele><time>2026-04-26T08:12:25Z</time></trkpt><trkpt lat="43.421587248985674" lon="11.454253854298248"><ele>420.5</ele><time>2026-04-26T08:12:26Z</time></trkpt><trkpt lat="43.42169327174813" lon="11.454140787043047"><ele>416.75</ele><time>2026-04-26T08:12:27Z</time></trkpt><trkpt lat="43.42177181043685" lon="11.454033209216934"><ele>413.0</ele><time>2026-04-26T08:12:28Z</time></trkpt><trkpt lat="43.421834248137" lon="11.45390035872816"><ele>413.5</ele><time>2026-04-26T08:12:29Z</time></trkpt><trkpt lat="43.42186646004567" lon="11.453733753766734"><ele>414.0</ele><time>2026-04-26T08:12:30Z</time></trkpt><trkpt lat="43.42186472050472" lon="11.453550745422046"><ele>414.5</ele><time>2026-04-26T08:12:31Z</time></trkpt><trkpt lat="43.42180072015739" lon="11.45336320450256"><ele>415.0</ele><time>2026-04-26T08:12:32Z</time></trkpt><trkpt lat="43.42171088095688" lon="11.45318803552459"><ele>415.0</ele><time>2026-04-26T08:12:33Z</time></trkpt><trkpt lat="43.42160988457091" lon="11.453050562616008"><ele>415.0</ele><time>2026-04-26T08:12:34Z</time></trkpt><trkpt lat="43.42155783336694" lon="11.452905630416574"><ele>415.0</ele><time>2026-04-26T08:12:35Z</time></trkpt><trkpt lat="43.421568481504885" lon="11.452731777195904"><ele>415.0</ele><time>2026-04-26T08:12:36Z</time></trkpt><trkpt lat="43.42166295446924" lon="11.452553772706121"><ele>416.0</ele><time>2026-04-26T08:12:37Z</time></trkpt><trkpt lat="43.421716178917045" lon="11.452348691241935"><ele>417.0</ele><time>2026-04-26T08:12:38Z</time></trkpt><trkpt lat="43.421777791689316" lon="11.452186442016183"><ele>418.0</ele><time>2026-04-26T08:12:39Z</time></trkpt><trkpt lat="43.42180733173002" lon="11.452019363567018"><ele>419.0</ele><time>2026-04-26T08:12:40Z</time></trkpt><trkpt lat="43.42179906286404" lon="11.451851988851933"><ele>421.25</ele><time>2026-04-26T08:12:41Z</time></trkpt><trkpt lat="43.42179760319873" lon="11.451690604083653"><ele>423.5</ele><time>2026-04-26T08:12:42Z</time></trkpt><trkpt lat="43.42183101554233" lon="11.451534460527265"><ele>425.75</ele><time>2026-04-26T08:12:43Z</time></trkpt><trkpt lat="43.42190711395721" lon="11.451417382029602"><ele>428.0</ele><time>2026-04-26T08:12:44Z</time></trkpt><trkpt lat="43.422016105776805" lon="11.45137048624832"><ele>417.3333333333333</ele><time>2026-04-26T08:12:45Z</time></trkpt><trkpt lat="43.4221501548427" lon="11.451370674955019"><ele>406.66666666666663</ele><time>2026-04-26T08:12:46Z</time></trkpt><trkpt lat="43.42231262204562" lon="11.451364850861705"><ele>396.0</ele><time>2026-04-26T08:12:47Z</time></trkpt><trkpt lat="43.42246542094943" lon="11.451334690253844"><ele>404.0</ele><time>2026-04-26T08:12:48Z</time></trkpt><trkpt lat="43.4226426671762" lon="11.451257800997194"><ele>412.0</ele><time>2026-04-26T08:12:49Z</time></trkpt><trkpt lat="43.422790781465736" lon="11.451153695372069"><ele>420.0</ele><time>2026-04-26T08:12:50Z</time></trkpt><trkpt lat="43.42292648478484" lon="11.451036337457815"><ele>412.33333333333337</ele><time>2026-04-26T08:12:50.999Z</time></trkpt><trkpt lat="43.42305377331293" lon="11.450924204116015"><ele>404.6666666666667</ele><time>2026-04-26T08:12:51.999Z</time></trkpt><trkpt lat="43.42317753311649" lon="11.450807064257084"><ele>397.0</ele><time>2026-04-26T08:12:52.999Z</time></trkpt><trkpt lat="43.42329691833364" lon="11.450660459350928"><ele>397.0</ele><time>2026-04-26T08:12:53.999Z</time></trkpt><trkpt lat="43.423419429750915" lon="11.450517121099"><ele>397.0</ele><time>2026-04-26T08:12:54.999Z</time></trkpt><trkpt lat="43.42352689032226" lon="11.450357848781179"><ele>397.0</ele><time>2026-04-26T08:12:55.999Z</time></trkpt><trkpt lat="43.42364586991964" lon="11.45020793119244"><ele>395.75</ele><time>2026-04-26T08:12:56.999Z</time></trkpt><trkpt lat="43.42374041983764" lon="11.450071392766441"><ele>394.5</ele><time>2026-04-26T08:12:57.999Z</time></trkpt><trkpt lat="43.4238227982367" lon="11.44991375907238"><ele>393.25</ele><time>2026-04-26T08:12:58.999Z</time></trkpt><trkpt lat="43.42390048068847" lon="11.44977182571898"><ele>392.0</ele><time>2026-04-26T08:12:59.999Z</time></trkpt><trkpt lat="43.42396189242074" lon="11.449612754268914"><ele>392.0</ele><time>2026-04-26T08:13:00.999Z</time></trkpt><trkpt lat="43.424000535140486" lon="11.449422917412901"><ele>392.0</ele><time>2026-04-26T08:13:01.999Z</time></trkpt><trkpt lat="43.42402381135666" lon="11.449236172600704"><ele>392.0</ele><time>2026-04-26T08:13:02.999Z</time></trkpt><trkpt lat="43.42401698453416" lon="11.44904588311753"><ele>392.0</ele><time>2026-04-26T08:13:03.999Z</time></trkpt><trkpt lat="43.423977873611854" lon="11.448856558210764"><ele>392.0</ele><time>2026-04-26T08:13:04.999Z</time></trkpt><trkpt lat="43.423918291750184" lon="11.448692068074411"><ele>392.0</ele><time>2026-04-26T08:13:05.999Z</time></trkpt><trkpt lat="43.423867175250734" lon="11.44854110174399"><ele>392.0</ele><time>2026-04-26T08:13:06.999Z</time></trkpt><trkpt lat="43.423834920760726" lon="11.448400570033838"><ele>392.0</ele><time>2026-04-26T08:13:07.999Z</time></trkpt><trkpt lat="43.42381845730802" lon="11.448253372529328"><ele>392.0</ele><time>2026-04-26T08:13:08.999Z</time></trkpt><trkpt lat="43.423859841146374" lon="11.44809704590312"><ele>392.0</ele><time>2026-04-26T08:13:09.999Z</time></trkpt><trkpt lat="43.42394685284344" lon="11.447939594263277"><ele>392.0</ele><time>2026-04-26T08:13:10.999Z</time></trkpt><trkpt lat="43.424080882991085" lon="11.447802305542869"><ele>392.0</ele><time>2026-04-26T08:13:11.999Z</time></trkpt><trkpt lat="43.42419115105599" lon="11.447672200899238"><ele>392.5</ele><time>2026-04-26T08:13:12.999Z</time></trkpt><trkpt lat="43.42429519185321" lon="11.44755354616673"><ele>393.0</ele><time>2026-04-26T08:13:13.999Z</time></trkpt><trkpt lat="43.42438195232777" lon="11.447397532119897"><ele>393.5</ele><time>2026-04-26T08:13:14.999Z</time></trkpt><trkpt lat="43.42445306981126" lon="11.447204818975969"><ele>394.0</ele><time>2026-04-26T08:13:15.999Z</time></trkpt><trkpt lat="43.4244704519278" lon="11.447006793411905"><ele>393.0</ele><time>2026-04-26T08:13:17Z</time></trkpt><trkpt lat="43.424486799179746" lon="11.446820709933345"><ele>392.0</ele><time>2026-04-26T08:13:18Z</time></trkpt><trkpt lat="43.42449239146738" lon="11.446647084074458"><ele>391.0</ele><time>2026-04-26T08:13:19Z</time></trkpt><trkpt lat="43.4244591799149" lon="11.446485527824194"><ele>390.0</ele><time>2026-04-26T08:13:20Z</time></trkpt><trkpt lat="43.42437869105744" lon="11.446327030429506"><ele>387.5</ele><time>2026-04-26T08:13:21Z</time></trkpt><trkpt lat="43.42428229046661" lon="11.446189763516635"><ele>385.0</ele><time>2026-04-26T08:13:22Z</time></trkpt><trkpt lat="43.424160092621925" lon="11.446135493095811"><ele>382.5</ele><time>2026-04-26T08:13:23Z</time></trkpt><trkpt lat="43.42405369752011" lon="11.44609330496555"><ele>380.0</ele><time>2026-04-26T08:13:24Z</time></trkpt><trkpt lat="43.423951256440475" lon="11.446057239264732"><ele>380.0</ele><time>2026-04-26T08:13:25Z</time></trkpt><trkpt lat="43.42388624378976" lon="11.445942609508949"><ele>380.0</ele><time>2026-04-26T08:13:26Z</time></trkpt><trkpt lat="43.42386315658383" lon="11.445786608719384"><ele>380.0</ele><time>2026-04-26T08:13:27Z</time></trkpt><trkpt lat="43.42389971196652" lon="11.445623721431804"><ele>380.0</ele><time>2026-04-26T08:13:28Z</time></trkpt><trkpt lat="43.42397558412824" lon="11.445449246576562"><ele>380.0</ele><time>2026-04-26T08:13:29Z</time></trkpt><trkpt lat="43.424054545654286" lon="11.445247779626069"><ele>380.0</ele><time>2026-04-26T08:13:30Z</time></trkpt><trkpt lat="43.42413760426194" lon="11.445027176888741"><ele>380.0</ele><time>2026-04-26T08:13:31Z</time></trkpt><trkpt lat="43.42422575038899" lon="11.444818793953486"><ele>381.0</ele><time>2026-04-26T08:13:32Z</time></trkpt><trkpt lat="43.42431883217002" lon="11.44462614912976"><ele>382.0</ele><time>2026-04-26T08:13:33Z</time></trkpt><trkpt lat="43.424413094372454" lon="11.444435718080735"><ele>383.0</ele><time>2026-04-26T08:13:34Z</time></trkpt><trkpt lat="43.42451113773512" lon="11.444270652737966"><ele>383.0</ele><time>2026-04-26T08:13:35Z</time></trkpt><trkpt lat="43.424619803178125" lon="11.44413249512533"><ele>383.0</ele><time>2026-04-26T08:13:36Z</time></trkpt><trkpt lat="43.42472389195598" lon="11.443999486215459"><ele>383.0</ele><time>2026-04-26T08:13:37Z</time></trkpt><trkpt lat="43.4247962382021" lon="11.443849149637412"><ele>383.0</ele><time>2026-04-26T08:13:38Z</time></trkpt><trkpt lat="43.4248406848144" lon="11.443650735038519"><ele>378.0</ele><time>2026-04-26T08:13:39Z</time></trkpt><trkpt lat="43.42485513714357" lon="11.443443979112672"><ele>373.0</ele><time>2026-04-26T08:13:40Z</time></trkpt><trkpt lat="43.42485971804735" lon="11.443220324412026"><ele>368.0</ele><time>2026-04-26T08:13:41Z</time></trkpt><trkpt lat="43.42488646378257" lon="11.443021243042095"><ele>368.33333333333337</ele><time>2026-04-26T08:13:42Z</time></trkpt><trkpt lat="43.424895842507865" lon="11.442825460602778"><ele>368.6666666666667</ele><time>2026-04-26T08:13:43Z</time></trkpt><trkpt lat="43.42494795988003" lon="11.442625702546131"><ele>369.0</ele><time>2026-04-26T08:13:44Z</time></trkpt><trkpt lat="43.42501752441938" lon="11.442418276263288"><ele>369.0</ele><time>2026-04-26T08:13:45Z</time></trkpt><trkpt lat="43.425094266951454" lon="11.442218095640868"><ele>369.0</ele><time>2026-04-26T08:13:46Z</time></trkpt><trkpt lat="43.42518985374347" lon="11.442053472198184"><ele>369.0</ele><time>2026-04-26T08:13:47Z</time></trkpt><trkpt lat="43.42529467057137" lon="11.441911722787676"><ele>370.0</ele><time>2026-04-26T08:13:48Z</time></trkpt><trkpt lat="43.42543819277751" lon="11.441820324264977"><ele>371.0</ele><time>2026-04-26T08:13:49Z</time></trkpt><trkpt lat="43.4255921665253" lon="11.441737388619307"><ele>372.0</ele><time>2026-04-26T08:13:50Z</time></trkpt><trkpt lat="43.4257321749705" lon="11.441651541086127"><ele>370.0</ele><time>2026-04-26T08:13:51Z</time></trkpt><trkpt lat="43.42585880333295" lon="11.441590042334118"><ele>368.0</ele><time>2026-04-26T08:13:52Z</time></trkpt><trkpt lat="43.425981457289964" lon="11.441527726092572"><ele>366.0</ele><time>2026-04-26T08:13:53Z</time></trkpt><trkpt lat="43.42609058963772" lon="11.441430155989805"><ele>364.0</ele><time>2026-04-26T08:13:54Z</time></trkpt><trkpt lat="43.426165320229174" lon="11.441307678605584"><ele>364.66666666666663</ele><time>2026-04-26T08:13:55Z</time></trkpt><trkpt lat="43.42619426460006" lon="11.441112349050504"><ele>365.3333333333333</ele><time>2026-04-26T08:13:56Z</time></trkpt><trkpt lat="43.42618086534792" lon="11.440877699270596"><ele>366.0</ele><time>2026-04-26T08:13:57Z</time></trkpt><trkpt lat="43.426152033815015" lon="11.440636791933441"><ele>364.3333333333333</ele><time>2026-04-26T08:13:58Z</time></trkpt><trkpt lat="43.42613556746895" lon="11.440399006431328"><ele>362.66666666666663</ele><time>2026-04-26T08:13:59Z</time></trkpt><trkpt lat="43.42613489430527" lon="11.440180075955343"><ele>361.0</ele><time>2026-04-26T08:14:00Z</time></trkpt><trkpt lat="43.426124173044286" lon="11.43997876658821"><ele>361.0</ele><time>2026-04-26T08:14:01Z</time></trkpt><trkpt lat="43.42610980473106" lon="11.439789282542002"><ele>361.0</ele><time>2026-04-26T08:14:02Z</time></trkpt><trkpt lat="43.42608839550098" lon="11.439611448634178"><ele>361.0</ele><time>2026-04-26T08:14:03Z</time></trkpt><trkpt lat="43.42604120337168" lon="11.439463076451425"><ele>361.0</ele><time>2026-04-26T08:14:04Z</time></trkpt><trkpt lat="43.42594599176634" lon="11.43933938108681"><ele>359.5</ele><time>2026-04-26T08:14:05Z</time></trkpt><trkpt lat="43.425809272011314" lon="11.439264497563233"><ele>358.0</ele><time>2026-04-26T08:14:06Z</time></trkpt><trkpt lat="43.42566104111294" lon="11.43926565800367"><ele>356.5</ele><time>2026-04-26T08:14:07Z</time></trkpt><trkpt lat="43.42552795611343" lon="11.439300975349127"><ele>355.0</ele><time>2026-04-26T08:14:08Z</time></trkpt><trkpt lat="43.425407878306565" lon="11.439291296102022"><ele>356.5</ele><time>2026-04-26T08:14:09Z</time></trkpt><trkpt lat="43.425323133420726" lon="11.439160312998599"><ele>358.0</ele><time>2026-04-26T08:14:10Z</time></trkpt><trkpt lat="43.42526871306092" lon="11.438974436437672"><ele>359.5</ele><time>2026-04-26T08:14:11Z</time></trkpt><trkpt lat="43.42522642353218" lon="11.438779860305054"><ele>361.0</ele><time>2026-04-26T08:14:12Z</time></trkpt><trkpt lat="43.42517437365161" lon="11.438547434534929"><ele>361.0</ele><time>2026-04-26T08:14:13Z</time></trkpt><trkpt lat="43.42512030429895" lon="11.438333267041113"><ele>361.0</ele><time>2026-04-26T08:14:14Z</time></trkpt><trkpt lat="43.425073369655024" lon="11.438127321691088"><ele>361.0</ele><time>2026-04-26T08:14:15Z</time></trkpt><trkpt lat="43.425024939055234" lon="11.43792456866248"><ele>359.0</ele><time>2026-04-26T08:14:16Z</time></trkpt><trkpt lat="43.424982203881726" lon="11.437710313741457"><ele>357.0</ele><time>2026-04-26T08:14:17Z</time></trkpt><trkpt lat="43.42497017014335" lon="11.437479263811467"><ele>355.0</ele><time>2026-04-26T08:14:18Z</time></trkpt><trkpt lat="43.42494185994937" lon="11.437241658892622"><ele>355.0</ele><time>2026-04-26T08:14:19Z</time></trkpt><trkpt lat="43.424947188277855" lon="11.437008232290992"><ele>355.0</ele><time>2026-04-26T08:14:20Z</time></trkpt><trkpt lat="43.42496494478691" lon="11.43678874090425"><ele>355.0</ele><time>2026-04-26T08:14:21Z</time></trkpt><trkpt lat="43.42499344242659" lon="11.436578470927092"><ele>355.0</ele><time>2026-04-26T08:14:22Z</time></trkpt><trkpt lat="43.42504132094156" lon="11.436379650665721"><ele>355.0</ele><time>2026-04-26T08:14:23Z</time></trkpt><trkpt lat="43.42512622554139" lon="11.436219134434971"><ele>355.0</ele><time>2026-04-26T08:14:24.001Z</time></trkpt><trkpt lat="43.42520766891459" lon="11.436097331380532"><ele>355.0</ele><time>2026-04-26T08:14:25.001Z</time></trkpt><trkpt lat="43.425276471843794" lon="11.435988027667197"><ele>354.4</ele><time>2026-04-26T08:14:26.001Z</time></trkpt><trkpt lat="43.4253310867559" lon="11.435890566148581"><ele>353.8</ele><time>2026-04-26T08:14:27.001Z</time></trkpt><trkpt lat="43.425360875157395" lon="11.43575696451711"><ele>353.20000000000005</ele><time>2026-04-26T08:14:28.001Z</time></trkpt><trkpt lat="43.425333158387446" lon="11.435600449887557"><ele>352.6</ele><time>2026-04-26T08:14:29.001Z</time></trkpt><trkpt lat="43.425241309846946" lon="11.435455418632705"><ele>352.0</ele><time>2026-04-26T08:14:30.001Z</time></trkpt><trkpt lat="43.425108829823166" lon="11.435351790772065"><ele>349.0</ele><time>2026-04-26T08:14:31.001Z</time></trkpt><trkpt lat="43.42496546411988" lon="11.435242274039476"><ele>346.0</ele><time>2026-04-26T08:14:32.001Z</time></trkpt><trkpt lat="43.424819256116066" lon="11.435142418165523"><ele>343.0</ele><time>2026-04-26T08:14:33.001Z</time></trkpt><trkpt lat="43.424686471597376" lon="11.435051730106895"><ele>344.5</ele><time>2026-04-26T08:14:34.001Z</time></trkpt><trkpt lat="43.42456807171338" lon="11.43496469126104"><ele>346.0</ele><time>2026-04-26T08:14:35.001Z</time></trkpt><trkpt lat="43.424483911347245" lon="11.434874094984322"><ele>347.5</ele><time>2026-04-26T08:14:36.001Z</time></trkpt><trkpt lat="43.42441114493234" lon="11.434756438083513"><ele>349.0</ele><time>2026-04-26T08:14:37.001Z</time></trkpt><trkpt lat="43.42437192100903" lon="11.434583683310713"><ele>349.5</ele><time>2026-04-26T08:14:38.001Z</time></trkpt><trkpt lat="43.424365204776" lon="11.43438796440895"><ele>350.0</ele><time>2026-04-26T08:14:39.001Z</time></trkpt><trkpt lat="43.42438257492231" lon="11.434182707552603"><ele>350.5</ele><time>2026-04-26T08:14:40.001Z</time></trkpt><trkpt lat="43.42441245446523" lon="11.433984499538491"><ele>351.0</ele><time>2026-04-26T08:14:41.001Z</time></trkpt><trkpt lat="43.42444518449876" lon="11.433800093702969"><ele>355.3333333333333</ele><time>2026-04-26T08:14:42.001Z</time></trkpt><trkpt lat="43.4245119431671" lon="11.433603419382283"><ele>359.66666666666663</ele><time>2026-04-26T08:14:43.001Z</time></trkpt><trkpt lat="43.42458928927659" lon="11.433393594125082"><ele>364.0</ele><time>2026-04-26T08:14:44.001Z</time></trkpt><trkpt lat="43.42465891216924" lon="11.433199878500494"><ele>358.0</ele><time>2026-04-26T08:14:45.001Z</time></trkpt><trkpt lat="43.42473245094588" lon="11.433006126807761"><ele>352.0</ele><time>2026-04-26T08:14:46.001Z</time></trkpt><trkpt lat="43.424802045503" lon="11.432826349906387"><ele>346.0</ele><time>2026-04-26T08:14:47.001Z</time></trkpt><trkpt lat="43.42486212369955" lon="11.432661923906796"><ele>340.0</ele><time>2026-04-26T08:14:48.001Z</time></trkpt><trkpt lat="43.42491022329743" lon="11.432523804989044"><ele>340.0</ele><time>2026-04-26T08:14:49.001Z</time></trkpt><trkpt lat="43.424964096335096" lon="11.432394003532858"><ele>340.0</ele><time>2026-04-26T08:14:50.001Z</time></trkpt><trkpt lat="43.425030665839024" lon="11.432291422092803"><ele>340.0</ele><time>2026-04-26T08:14:51.001Z</time></trkpt><trkpt lat="43.42511448087337" lon="11.432249306184936"><ele>340.0</ele><time>2026-04-26T08:14:52.001Z</time></trkpt><trkpt lat="43.425193710907735" lon="11.432235387159208"><ele>340.0</ele><time>2026-04-26T08:14:53.001Z</time></trkpt><trkpt lat="43.425282009360444" lon="11.432163234733336"><ele>340.0</ele><time>2026-04-26T08:14:54.001Z</time></trkpt><trkpt lat="43.42534427285442" lon="11.432059783839"><ele>340.0</ele><time>2026-04-26T08:14:55.001Z</time></trkpt><trkpt lat="43.42539884802957" lon="11.431910330759056"><ele>340.0</ele><time>2026-04-26T08:14:56.001Z</time></trkpt><trkpt lat="43.42545861488011" lon="11.431733294770293"><ele>340.0</ele><time>2026-04-26T08:14:57Z</time></trkpt><trkpt lat="43.425521855341565" lon="11.431536918581926"><ele>340.0</ele><time>2026-04-26T08:14:58Z</time></trkpt><trkpt lat="43.425598545330836" lon="11.431321538689465"><ele>340.0</ele><time>2026-04-26T08:14:59Z</time></trkpt><trkpt lat="43.42567560362768" lon="11.431113967405263"><ele>340.0</ele><time>2026-04-26T08:15:00Z</time></trkpt><trkpt lat="43.425751991704445" lon="11.430914505431272"><ele>338.0</ele><time>2026-04-26T08:15:01Z</time></trkpt><trkpt lat="43.42582894145279" lon="11.43070200764739"><ele>336.0</ele><time>2026-04-26T08:15:02Z</time></trkpt><trkpt lat="43.42589298791843" lon="11.430481134012773"><ele>334.0</ele><time>2026-04-26T08:15:03Z</time></trkpt><trkpt lat="43.425929546624786" lon="11.430249812431097"><ele>333.3333333333333</ele><time>2026-04-26T08:15:04Z</time></trkpt><trkpt lat="43.42593646122273" lon="11.429999898574238"><ele>332.6666666666667</ele><time>2026-04-26T08:15:05Z</time></trkpt><trkpt lat="43.42593218793714" lon="11.42972766917536"><ele>332.0</ele><time>2026-04-26T08:15:06Z</time></trkpt><trkpt lat="43.42592629167578" lon="11.429441073791196"><ele>332.0</ele><time>2026-04-26T08:15:07Z</time></trkpt><trkpt lat="43.42592337801575" lon="11.429174263588605"><ele>332.0</ele><time>2026-04-26T08:15:08Z</time></trkpt><trkpt lat="43.425924348225735" lon="11.428901769674724"><ele>332.0</ele><time>2026-04-26T08:15:09Z</time></trkpt><trkpt lat="43.42592818565077" lon="11.428637321021402"><ele>330.6666666666667</ele><time>2026-04-26T08:15:10Z</time></trkpt><trkpt lat="43.42592910958444" lon="11.428387135348387"><ele>329.3333333333333</ele><time>2026-04-26T08:15:11Z</time></trkpt><trkpt lat="43.425926437430874" lon="11.428150301540086"><ele>328.0</ele><time>2026-04-26T08:15:12Z</time></trkpt><trkpt lat="43.42592004953187" lon="11.427928192234306"><ele>327.75</ele><time>2026-04-26T08:15:13Z</time></trkpt><trkpt lat="43.42591768758464" lon="11.427727466610639"><ele>327.5</ele><time>2026-04-26T08:15:14Z</time></trkpt><trkpt lat="43.42593275067376" lon="11.427553192635441"><ele>327.25</ele><time>2026-04-26T08:15:15Z</time></trkpt><trkpt lat="43.425992499870084" lon="11.427392881599667"><ele>327.0</ele><time>2026-04-26T08:15:16Z</time></trkpt><trkpt lat="43.42609687062517" lon="11.42726511897198"><ele>328.3333333333333</ele><time>2026-04-26T08:15:17Z</time></trkpt><trkpt lat="43.42620806753194" lon="11.427115967764921"><ele>329.66666666666663</ele><time>2026-04-26T08:15:18Z</time></trkpt><trkpt lat="43.42630416816484" lon="11.426933507874063"><ele>331.0</ele><time>2026-04-26T08:15:19Z</time></trkpt><trkpt lat="43.426385981418235" lon="11.426718649631832"><ele>330.66666666666663</ele><time>2026-04-26T08:15:20Z</time></trkpt><trkpt lat="43.42645207353907" lon="11.426480793551358"><ele>330.3333333333333</ele><time>2026-04-26T08:15:21Z</time></trkpt><trkpt lat="43.42650679608375" lon="11.42623354273966"><ele>330.0</ele><time>2026-04-26T08:15:22Z</time></trkpt><trkpt lat="43.42654550915982" lon="11.425966516322715"><ele>330.0</ele><time>2026-04-26T08:15:23Z</time></trkpt><trkpt lat="43.42656471024336" lon="11.425720588361902"><ele>330.0</ele><time>2026-04-26T08:15:24Z</time></trkpt><trkpt lat="43.426578567594014" lon="11.42548092925843"><ele>330.0</ele><time>2026-04-26T08:15:25Z</time></trkpt><trkpt lat="43.426574011375465" lon="11.425291490861833"><ele>329.6666666666667</ele><time>2026-04-26T08:15:26Z</time></trkpt><trkpt lat="43.426548559559635" lon="11.425059865467816"><ele>329.33333333333337</ele><time>2026-04-26T08:15:27Z</time></trkpt><trkpt lat="43.42649413415245" lon="11.424823359165819"><ele>329.0</ele><time>2026-04-26T08:15:28Z</time></trkpt><trkpt lat="43.4264283025064" lon="11.42458452375625"><ele>330.33333333333337</ele><time>2026-04-26T08:15:29Z</time></trkpt><trkpt lat="43.426374888981734" lon="11.4243548075764"><ele>331.6666666666667</ele><time>2026-04-26T08:15:30Z</time></trkpt><trkpt lat="43.426330350064084" lon="11.424135668951049"><ele>333.0</ele><time>2026-04-26T08:15:31Z</time></trkpt><trkpt lat="43.42628779093586" lon="11.423938097058716"><ele>328.5</ele><time>2026-04-26T08:15:32Z</time></trkpt><trkpt lat="43.42624344882204" lon="11.42375953121378"><ele>324.0</ele><time>2026-04-26T08:15:33Z</time></trkpt><trkpt lat="43.426198114547915" lon="11.423597851293845"><ele>319.5</ele><time>2026-04-26T08:15:34Z</time></trkpt><trkpt lat="43.42616475727618" lon="11.423461323040726"><ele>315.0</ele><time>2026-04-26T08:15:35Z</time></trkpt><trkpt lat="43.426148868901656" lon="11.423330165128188"><ele>315.0</ele><time>2026-04-26T08:15:36Z</time></trkpt><trkpt lat="43.42618141748031" lon="11.423182285804797"><ele>315.0</ele><time>2026-04-26T08:15:37Z</time></trkpt><trkpt lat="43.42625268039695" lon="11.423042224305155"><ele>315.0</ele><time>2026-04-26T08:15:38Z</time></trkpt><trkpt lat="43.4263785821019" lon="11.422972253440493"><ele>315.0</ele><time>2026-04-26T08:15:39Z</time></trkpt><trkpt lat="43.426531096089434" lon="11.422927984498482"><ele>314.6666666666667</ele><time>2026-04-26T08:15:40Z</time></trkpt><trkpt lat="43.426707550511836" lon="11.422886373960491"><ele>314.33333333333337</ele><time>2026-04-26T08:15:41Z</time></trkpt><trkpt lat="43.42686770388787" lon="11.422830141552812"><ele>314.0</ele><time>2026-04-26T08:15:42Z</time></trkpt><trkpt lat="43.4270285065032" lon="11.422801942447164"><ele>315.0</ele><time>2026-04-26T08:15:43Z</time></trkpt><trkpt lat="43.42719113576516" lon="11.422772368510993"><ele>316.0</ele><time>2026-04-26T08:15:44Z</time></trkpt><trkpt lat="43.427337750818566" lon="11.4227371260675"><ele>317.0</ele><time>2026-04-26T08:15:45Z</time></trkpt><trkpt lat="43.42746177739785" lon="11.422687181222326"><ele>318.0</ele><time>2026-04-26T08:15:46Z</time></trkpt><trkpt lat="43.427564826629435" lon="11.422608363498242"><ele>318.0</ele><time>2026-04-26T08:15:47Z</time></trkpt><trkpt lat="43.42765351759621" lon="11.42246417757702"><ele>318.0</ele><time>2026-04-26T08:15:48Z</time></trkpt><trkpt lat="43.42773344529269" lon="11.422260194169361"><ele>318.0</ele><time>2026-04-26T08:15:49Z</time></trkpt><trkpt lat="43.42779498029079" lon="11.422031346436581"><ele>315.6666666666667</ele><time>2026-04-26T08:15:50Z</time></trkpt><trkpt lat="43.42783556787269" lon="11.42178292941133"><ele>313.33333333333337</ele><time>2026-04-26T08:15:51Z</time></trkpt><trkpt lat="43.4278612077544" lon="11.421533476804363"><ele>311.0</ele><time>2026-04-26T08:15:52Z</time></trkpt><trkpt lat="43.42787369348119" lon="11.421295051576399"><ele>311.0</ele><time>2026-04-26T08:15:53Z</time></trkpt><trkpt lat="43.4278641424454" lon="11.42107057839792"><ele>311.0</ele><time>2026-04-26T08:15:54Z</time></trkpt><trkpt lat="43.42783462241236" lon="11.420865620986197"><ele>311.0</ele><time>2026-04-26T08:15:55.001Z</time></trkpt><trkpt lat="43.427789391989634" lon="11.420666863323627"><ele>311.0</ele><time>2026-04-26T08:15:56.001Z</time></trkpt><trkpt lat="43.42775131515324" lon="11.420485195571862"><ele>311.0</ele><time>2026-04-26T08:15:57.001Z</time></trkpt><trkpt lat="43.42772797331232" lon="11.42034232403773"><ele>311.0</ele><time>2026-04-26T08:15:58.001Z</time></trkpt><trkpt lat="43.42771943928012" lon="11.420210747079102"><ele>311.0</ele><time>2026-04-26T08:15:59.001Z</time></trkpt><trkpt lat="43.42775623247613" lon="11.420060255735821"><ele>311.0</ele><time>2026-04-26T08:16:00.001Z</time></trkpt><trkpt lat="43.42785146404137" lon="11.419911078637007"><ele>311.0</ele><time>2026-04-26T08:16:01.001Z</time></trkpt><trkpt lat="43.42795569308597" lon="11.41975488830782"><ele>311.0</ele><time>2026-04-26T08:16:02.001Z</time></trkpt><trkpt lat="43.42808431204976" lon="11.41959487371397"><ele>311.0</ele><time>2026-04-26T08:16:03.001Z</time></trkpt><trkpt lat="43.42822066920159" lon="11.419449224493599"><ele>311.0</ele><time>2026-04-26T08:16:04.001Z</time></trkpt><trkpt lat="43.428361333615776" lon="11.419331476317339"><ele>311.0</ele><time>2026-04-26T08:16:05.001Z</time></trkpt><trkpt lat="43.428517892177354" lon="11.419247317918543"><ele>311.0</ele><time>2026-04-26T08:16:06.001Z</time></trkpt><trkpt lat="43.42869423050607" lon="11.419187929559232"><ele>311.0</ele><time>2026-04-26T08:16:07.001Z</time></trkpt><trkpt lat="43.42887647328927" lon="11.419146836166716"><ele>311.0</ele><time>2026-04-26T08:16:08.001Z</time></trkpt><trkpt lat="43.429064940990465" lon="11.419098513004046"><ele>310.6666666666667</ele><time>2026-04-26T08:16:09.001Z</time></trkpt><trkpt lat="43.42921994013516" lon="11.41902975758319"><ele>310.3333333333333</ele><time>2026-04-26T08:16:10.001Z</time></trkpt><trkpt lat="43.42937169194225" lon="11.418962151439414"><ele>310.0</ele><time>2026-04-26T08:16:11.001Z</time></trkpt><trkpt lat="43.429525408545416" lon="11.418860237012986"><ele>307.3333333333333</ele><time>2026-04-26T08:16:12.001Z</time></trkpt><trkpt lat="43.42965954150086" lon="11.418756935061273"><ele>304.6666666666667</ele><time>2026-04-26T08:16:13.001Z</time></trkpt><trkpt lat="43.42982078063609" lon="11.418629019456422"><ele>302.0</ele><time>2026-04-26T08:16:14.001Z</time></trkpt><trkpt lat="43.42996910335613" lon="11.418517806221365"><ele>302.0</ele><time>2026-04-26T08:16:15.001Z</time></trkpt><trkpt lat="43.430119222539126" lon="11.418408238778367"><ele>302.0</ele><time>2026-04-26T08:16:16.001Z</time></trkpt><trkpt lat="43.430264238654516" lon="11.418301165389066"><ele>302.0</ele><time>2026-04-26T08:16:17.001Z</time></trkpt><trkpt lat="43.43039271692985" lon="11.418202414515802"><ele>302.25</ele><time>2026-04-26T08:16:18.001Z</time></trkpt><trkpt lat="43.43051479532784" lon="11.41811369460158"><ele>302.5</ele><time>2026-04-26T08:16:19.001Z</time></trkpt><trkpt lat="43.430632180115616" lon="11.418032980802312"><ele>302.75</ele><time>2026-04-26T08:16:20.001Z</time></trkpt><trkpt lat="43.430746056052904" lon="11.417946329131684"><ele>303.0</ele><time>2026-04-26T08:16:21.001Z</time></trkpt><trkpt lat="43.430860156306345" lon="11.417870292300847"><ele>302.6666666666667</ele><time>2026-04-26T08:16:22.001Z</time></trkpt><trkpt lat="43.4309513391286" lon="11.417816181726518"><ele>302.3333333333333</ele><time>2026-04-26T08:16:23.001Z</time></trkpt><trkpt lat="43.43103557828129" lon="11.417755551635134"><ele>302.0</ele><time>2026-04-26T08:16:24.001Z</time></trkpt><trkpt lat="43.43112088106669" lon="11.417705604858163"><ele>301.66666666666663</ele><time>2026-04-26T08:16:25.001Z</time></trkpt><trkpt lat="43.43119521931365" lon="11.417675494536223"><ele>301.3333333333333</ele><time>2026-04-26T08:16:26.001Z</time></trkpt><trkpt lat="43.4312713629203" lon="11.417669903255051"><ele>301.0</ele><time>2026-04-26T08:16:27.001Z</time></trkpt><trkpt lat="43.43142166019588" lon="11.417744896258382"><ele>300.5</ele><time>2026-04-26T08:16:29.001Z</time></trkpt><trkpt lat="43.431485829132825" lon="11.417855101024173"><ele>300.0</ele><time>2026-04-26T08:16:30.001Z</time></trkpt><trkpt lat="43.43158710202167" lon="11.417976883481195"><ele>299.5</ele><time>2026-04-26T08:16:31.001Z</time></trkpt><trkpt lat="43.431680239710396" lon="11.41812213728426"><ele>299.0</ele><time>2026-04-26T08:16:32.001Z</time></trkpt><trkpt lat="43.43178181308349" lon="11.418271159775571"><ele>299.0</ele><time>2026-04-26T08:16:33.001Z</time></trkpt><trkpt lat="43.43190448621378" lon="11.418453206075402"><ele>299.0</ele><time>2026-04-26T08:16:34.001Z</time></trkpt><trkpt lat="43.43202509384635" lon="11.418643730426004"><ele>299.0</ele><time>2026-04-26T08:16:35.001Z</time></trkpt><trkpt lat="43.43215386142284" lon="11.41883842476194"><ele>300.6666666666667</ele><time>2026-04-26T08:16:36.001Z</time></trkpt><trkpt lat="43.43228984498717" lon="11.41903622336543"><ele>302.3333333333333</ele><time>2026-04-26T08:16:37.001Z</time></trkpt><trkpt lat="43.432422187117055" lon="11.419237034738645"><ele>304.0</ele><time>2026-04-26T08:16:38.001Z</time></trkpt><trkpt lat="43.43254573916503" lon="11.41941919971785"><ele>304.0</ele><time>2026-04-26T08:16:39.001Z</time></trkpt><trkpt lat="43.43266049230423" lon="11.419602231532702"><ele>304.0</ele><time>2026-04-26T08:16:40.001Z</time></trkpt><trkpt lat="43.43276896204614" lon="11.419811714072809"><ele>304.0</ele><time>2026-04-26T08:16:41.001Z</time></trkpt><trkpt lat="43.432862778680054" lon="11.420037466486948"><ele>303.66666666666663</ele><time>2026-04-26T08:16:42.001Z</time></trkpt><trkpt lat="43.43297413888523" lon="11.420201902483688"><ele>303.3333333333333</ele><time>2026-04-26T08:16:43.001Z</time></trkpt><trkpt lat="43.43302084737945" lon="11.420427436035121"><ele>303.0</ele><time>2026-04-26T08:16:44.001Z</time></trkpt><trkpt lat="43.43309008580993" lon="11.42058921345436"><ele>303.0</ele><time>2026-04-26T08:16:45.001Z</time></trkpt><trkpt lat="43.43315671809201" lon="11.420726336424286"><ele>303.0</ele><time>2026-04-26T08:16:46.001Z</time></trkpt><trkpt lat="43.43325128978929" lon="11.42084055896948"><ele>303.0</ele><time>2026-04-26T08:16:47.001Z</time></trkpt><trkpt lat="43.43337536441236" lon="11.420903319229433"><ele>303.0</ele><time>2026-04-26T08:16:48.001Z</time></trkpt><trkpt lat="43.433498684461874" lon="11.420882898011161"><ele>303.0</ele><time>2026-04-26T08:16:49.001Z</time></trkpt><trkpt lat="43.433606506042196" lon="11.420797589196656"><ele>303.0</ele><time>2026-04-26T08:16:50.001Z</time></trkpt><trkpt lat="43.43371647590128" lon="11.420656641897644"><ele>303.0</ele><time>2026-04-26T08:16:51.001Z</time></trkpt><trkpt lat="43.43385061424603" lon="11.4205130370629"><ele>303.0</ele><time>2026-04-26T08:16:52.001Z</time></trkpt><trkpt lat="43.4339936606259" lon="11.420344146997227"><ele>307.3333333333333</ele><time>2026-04-26T08:16:53.001Z</time></trkpt><trkpt lat="43.43412548653558" lon="11.420181518192056"><ele>311.66666666666663</ele><time>2026-04-26T08:16:54.001Z</time></trkpt><trkpt lat="43.43427287675168" lon="11.420022113036715"><ele>316.0</ele><time>2026-04-26T08:16:55.001Z</time></trkpt><trkpt lat="43.43440868892557" lon="11.419864910400513"><ele>316.0</ele><time>2026-04-26T08:16:56.001Z</time></trkpt><trkpt lat="43.434532966105095" lon="11.419722160901157"><ele>316.0</ele><time>2026-04-26T08:16:57.001Z</time></trkpt><trkpt lat="43.434654623625825" lon="11.41958646229499"><ele>316.0</ele><time>2026-04-26T08:16:58.001Z</time></trkpt><trkpt lat="43.4347787479886" lon="11.419458550222135"><ele>317.0</ele><time>2026-04-26T08:16:59.001Z</time></trkpt><trkpt lat="43.43490628344875" lon="11.419348728426224"><ele>318.0</ele><time>2026-04-26T08:17:00.001Z</time></trkpt><trkpt lat="43.435045904371314" lon="11.419259855800053"><ele>319.0</ele><time>2026-04-26T08:17:01.001Z</time></trkpt><trkpt lat="43.43517969715973" lon="11.41917030381676"><ele>319.0</ele><time>2026-04-26T08:17:02.001Z</time></trkpt><trkpt lat="43.43530960325831" lon="11.419113648921755"><ele>319.0</ele><time>2026-04-26T08:17:03Z</time></trkpt><trkpt lat="43.43544736265539" lon="11.41910514348718"><ele>319.0</ele><time>2026-04-26T08:17:04Z</time></trkpt><trkpt lat="43.43560721556696" lon="11.41913749059585"><ele>319.0</ele><time>2026-04-26T08:17:05Z</time></trkpt><trkpt lat="43.43577902177624" lon="11.419165971808386"><ele>319.3333333333333</ele><time>2026-04-26T08:17:06Z</time></trkpt><trkpt lat="43.43595745743162" lon="11.419195817716377"><ele>319.6666666666667</ele><time>2026-04-26T08:17:07Z</time></trkpt><trkpt lat="43.43614438639326" lon="11.419225234975842"><ele>320.0</ele><time>2026-04-26T08:17:08Z</time></trkpt><trkpt lat="43.43633611323727" lon="11.419257186894878"><ele>320.0</ele><time>2026-04-26T08:17:08.999Z</time></trkpt><trkpt lat="43.43652008095178" lon="11.419291611824832"><ele>320.0</ele><time>2026-04-26T08:17:09.999Z</time></trkpt><trkpt lat="43.436716566581794" lon="11.419333607779265"><ele>320.0</ele><time>2026-04-26T08:17:11Z</time></trkpt><trkpt lat="43.436918973256525" lon="11.419372735890995"><ele>320.0</ele><time>2026-04-26T08:17:12Z</time></trkpt><trkpt lat="43.437116748604204" lon="11.419411374426153"><ele>320.0</ele><time>2026-04-26T08:17:13Z</time></trkpt><trkpt lat="43.43731743150379" lon="11.419452145671848"><ele>320.0</ele><time>2026-04-26T08:17:14Z</time></trkpt><trkpt lat="43.43752089049834" lon="11.419489195933433"><ele>321.0</ele><time>2026-04-26T08:17:15Z</time></trkpt><trkpt lat="43.43771710808023" lon="11.419520252820657"><ele>322.0</ele><time>2026-04-26T08:17:16Z</time></trkpt><trkpt lat="43.43790961858595" lon="11.41955274021264"><ele>323.0</ele><time>2026-04-26T08:17:17Z</time></trkpt><trkpt lat="43.43810967066451" lon="11.419583983080443"><ele>324.6666666666667</ele><time>2026-04-26T08:17:18Z</time></trkpt><trkpt lat="43.438301897631966" lon="11.419606444598676"><ele>326.3333333333333</ele><time>2026-04-26T08:17:19Z</time></trkpt><trkpt lat="43.43849807360736" lon="11.41962514770651"><ele>328.0</ele><time>2026-04-26T08:17:20Z</time></trkpt><trkpt lat="43.43867595455552" lon="11.41965004165222"><ele>324.66666666666663</ele><time>2026-04-26T08:17:21Z</time></trkpt><trkpt lat="43.438843539486804" lon="11.419680314899843"><ele>321.3333333333333</ele><time>2026-04-26T08:17:22Z</time></trkpt><trkpt lat="43.43900974430925" lon="11.419716424088547"><ele>318.0</ele><time>2026-04-26T08:17:23Z</time></trkpt><trkpt lat="43.43917948942877" lon="11.419782079836326"><ele>318.0</ele><time>2026-04-26T08:17:24Z</time></trkpt><trkpt lat="43.43934114641846" lon="11.419878629646627"><ele>318.0</ele><time>2026-04-26T08:17:25Z</time></trkpt><trkpt lat="43.439500371533704" lon="11.420005204743747"><ele>318.0</ele><time>2026-04-26T08:17:26Z</time></trkpt><trkpt lat="43.43966107900219" lon="11.420143196058044"><ele>317.6666666666667</ele><time>2026-04-26T08:17:27Z</time></trkpt><trkpt lat="43.43982960292511" lon="11.420281414808136"><ele>317.33333333333337</ele><time>2026-04-26T08:17:28Z</time></trkpt><trkpt lat="43.43999825903698" lon="11.420417850196426"><ele>317.0</ele><time>2026-04-26T08:17:29Z</time></trkpt><trkpt lat="43.44015778692614" lon="11.42055639735954"><ele>317.0</ele><time>2026-04-26T08:17:30Z</time></trkpt><trkpt lat="43.44031520851441" lon="11.420699265606316"><ele>317.0</ele><time>2026-04-26T08:17:31Z</time></trkpt><trkpt lat="43.44047177582205" lon="11.420837887515795"><ele>317.0</ele><time>2026-04-26T08:17:32Z</time></trkpt><trkpt lat="43.440624604173635" lon="11.420969299439806"><ele>321.33333333333337</ele><time>2026-04-26T08:17:33Z</time></trkpt><trkpt lat="43.44076875918697" lon="11.421090694848145"><ele>325.6666666666667</ele><time>2026-04-26T08:17:34Z</time></trkpt><trkpt lat="43.44089684690913" lon="11.421195179903597"><ele>330.0</ele><time>2026-04-26T08:17:35Z</time></trkpt><trkpt lat="43.4410225166245" lon="11.421294157790218"><ele>327.6666666666667</ele><time>2026-04-26T08:17:36Z</time></trkpt><trkpt lat="43.44116794048989" lon="11.421368334412847"><ele>325.33333333333337</ele><time>2026-04-26T08:17:37Z</time></trkpt><trkpt lat="43.441340792793156" lon="11.421420759391385"><ele>323.0</ele><time>2026-04-26T08:17:38Z</time></trkpt><trkpt lat="43.44152989305816" lon="11.421452705725507"><ele>323.0</ele><time>2026-04-26T08:17:39Z</time></trkpt><trkpt lat="43.4417385340156" lon="11.421471488292251"><ele>323.0</ele><time>2026-04-26T08:17:40Z</time></trkpt><trkpt lat="43.44194590247481" lon="11.421497389653076"><ele>323.0</ele><time>2026-04-26T08:17:41Z</time></trkpt><trkpt lat="43.44214896381922" lon="11.421533505126263"><ele>324.6666666666667</ele><time>2026-04-26T08:17:42Z</time></trkpt><trkpt lat="43.44234583320869" lon="11.421567533532574"><ele>326.3333333333333</ele><time>2026-04-26T08:17:43Z</time></trkpt><trkpt lat="43.44253445758813" lon="11.421592551044668"><ele>328.0</ele><time>2026-04-26T08:17:44Z</time></trkpt><trkpt lat="43.44271620039258" lon="11.421602158295766"><ele>328.0</ele><time>2026-04-26T08:17:45Z</time></trkpt><trkpt lat="43.442881438625776" lon="11.421599512461713"><ele>328.0</ele><time>2026-04-26T08:17:46Z</time></trkpt><trkpt lat="43.44303525007992" lon="11.421595730954012"><ele>328.0</ele><time>2026-04-26T08:17:47Z</time></trkpt><trkpt lat="43.443171313796896" lon="11.421582999977042"><ele>328.0</ele><time>2026-04-26T08:17:48Z</time></trkpt><trkpt lat="43.44331433540116" lon="11.421533795059952"><ele>328.0</ele><time>2026-04-26T08:17:49Z</time></trkpt><trkpt lat="43.443472414031014" lon="11.421430641176517"><ele>328.0</ele><time>2026-04-26T08:17:50Z</time></trkpt><trkpt lat="43.44363481030287" lon="11.421297586121478"><ele>331.0</ele><time>2026-04-26T08:17:51Z</time></trkpt><trkpt lat="43.443796278390316" lon="11.421170360908814"><ele>334.0</ele><time>2026-04-26T08:17:52Z</time></trkpt><trkpt lat="43.44394216615127" lon="11.421068842799077"><ele>337.0</ele><time>2026-04-26T08:17:53Z</time></trkpt><trkpt lat="43.44407622525952" lon="11.42098235976373"><ele>337.0</ele><time>2026-04-26T08:17:54Z</time></trkpt><trkpt lat="43.44419909603723" lon="11.420877492364047"><ele>337.0</ele><time>2026-04-26T08:17:55Z</time></trkpt><trkpt lat="43.44431985273556" lon="11.420729897801307"><ele>337.0</ele><time>2026-04-26T08:17:56Z</time></trkpt><trkpt lat="43.44442392632933" lon="11.420553208793983"><ele>337.66666666666663</ele><time>2026-04-26T08:17:57Z</time></trkpt><trkpt lat="43.44452060042311" lon="11.420386239527506"><ele>338.3333333333333</ele><time>2026-04-26T08:17:58Z</time></trkpt><trkpt lat="43.44462438948674" lon="11.420257129371885"><ele>339.0</ele><time>2026-04-26T08:17:59Z</time></trkpt><trkpt lat="43.44475875913129" lon="11.420139022675256"><ele>339.0</ele><time>2026-04-26T08:18:00Z</time></trkpt><trkpt lat="43.44491631015343" lon="11.420046158931505"><ele>339.0</ele><time>2026-04-26T08:18:01Z</time></trkpt><trkpt lat="43.445082303118895" lon="11.41996821725431"><ele>339.0</ele><time>2026-04-26T08:18:02Z</time></trkpt><trkpt lat="43.44523131314932" lon="11.419886399547929"><ele>339.0</ele><time>2026-04-26T08:18:03.001Z</time></trkpt><trkpt lat="43.445362561709516" lon="11.419816124774444"><ele>339.0</ele><time>2026-04-26T08:18:04.001Z</time></trkpt><trkpt lat="43.4454691051981" lon="11.419749257481454"><ele>339.0</ele><time>2026-04-26T08:18:05.001Z</time></trkpt><trkpt lat="43.44555983759527" lon="11.419674229780338"><ele>339.0</ele><time>2026-04-26T08:18:06.001Z</time></trkpt><trkpt lat="43.445627932416116" lon="11.419556646706692"><ele>337.3333333333333</ele><time>2026-04-26T08:18:07.001Z</time></trkpt><trkpt lat="43.4456600342878" lon="11.419379195063064"><ele>335.66666666666663</ele><time>2026-04-26T08:18:08.001Z</time></trkpt><trkpt lat="43.4456469807361" lon="11.419153910105436"><ele>334.0</ele><time>2026-04-26T08:18:09.001Z</time></trkpt><trkpt lat="43.44563400034659" lon="11.418913675934116"><ele>336.66666666666663</ele><time>2026-04-26T08:18:10.001Z</time></trkpt><trkpt lat="43.44564584447132" lon="11.418680425396063"><ele>339.3333333333333</ele><time>2026-04-26T08:18:11.001Z</time></trkpt><trkpt lat="43.44567373615782" lon="11.418454329888927"><ele>342.0</ele><time>2026-04-26T08:18:12.001Z</time></trkpt><trkpt lat="43.44571632409094" lon="11.418247880603687"><ele>342.0</ele><time>2026-04-26T08:18:13.001Z</time></trkpt><trkpt lat="43.445771207742524" lon="11.418066166807922"><ele>342.0</ele><time>2026-04-26T08:18:14.001Z</time></trkpt><trkpt lat="43.445827227854274" lon="11.417886985531345"><ele>342.0</ele><time>2026-04-26T08:18:15.001Z</time></trkpt><trkpt lat="43.4459038495513" lon="11.417718480253857"><ele>342.0</ele><time>2026-04-26T08:18:16.001Z</time></trkpt><trkpt lat="43.4459945968328" lon="11.41757273337421"><ele>341.0</ele><time>2026-04-26T08:18:17.001Z</time></trkpt><trkpt lat="43.44611734522234" lon="11.417482551812222"><ele>340.0</ele><time>2026-04-26T08:18:18.001Z</time></trkpt><trkpt lat="43.446450999583426" lon="11.417495982608521"><ele>340.0</ele><time>2026-04-26T08:18:20.001Z</time></trkpt><trkpt lat="43.446634620149986" lon="11.417568499828226"><ele>340.0</ele><time>2026-04-26T08:18:21.001Z</time></trkpt><trkpt lat="43.44681290236674" lon="11.417616334425666"><ele>340.0</ele><time>2026-04-26T08:18:22.001Z</time></trkpt><trkpt lat="43.44699449006391" lon="11.417664899734332"><ele>339.3333333333333</ele><time>2026-04-26T08:18:23.001Z</time></trkpt><trkpt lat="43.447181993916836" lon="11.417710423421283"><ele>338.6666666666667</ele><time>2026-04-26T08:18:24.001Z</time></trkpt><trkpt lat="43.44735358693337" lon="11.417753174707972"><ele>338.0</ele><time>2026-04-26T08:18:25.001Z</time></trkpt><trkpt lat="43.44751558983966" lon="11.417799541485214"><ele>338.0</ele><time>2026-04-26T08:18:26.001Z</time></trkpt><trkpt lat="43.44766835723293" lon="11.417881719770534"><ele>338.0</ele><time>2026-04-26T08:18:27.001Z</time></trkpt><trkpt lat="43.44781129083704" lon="11.418013449433085"><ele>338.0</ele><time>2026-04-26T08:18:28.001Z</time></trkpt><trkpt lat="43.447954668845945" lon="11.418159994257245"><ele>335.6666666666667</ele><time>2026-04-26T08:18:29.001Z</time></trkpt><trkpt lat="43.448091438129886" lon="11.418292453297298"><ele>333.3333333333333</ele><time>2026-04-26T08:18:30.001Z</time></trkpt><trkpt lat="43.44823182056995" lon="11.418409019757423"><ele>331.0</ele><time>2026-04-26T08:18:31.001Z</time></trkpt><trkpt lat="43.448376110613545" lon="11.418497453191328"><ele>331.0</ele><time>2026-04-26T08:18:32.001Z</time></trkpt><trkpt lat="43.44853631833085" lon="11.418542603914695"><ele>331.0</ele><time>2026-04-26T08:18:33.001Z</time></trkpt><trkpt lat="43.448709633560775" lon="11.418548696142992"><ele>331.0</ele><time>2026-04-26T08:18:34.001Z</time></trkpt><trkpt lat="43.44888640395968" lon="11.418557563220519"><ele>331.0</ele><time>2026-04-26T08:18:35.001Z</time></trkpt><trkpt lat="43.44905035073895" lon="11.418575318381869"><ele>331.0</ele><time>2026-04-26T08:18:36.001Z</time></trkpt><trkpt lat="43.449205243636285" lon="11.41860214693368"><ele>331.0</ele><time>2026-04-26T08:18:37.001Z</time></trkpt><trkpt lat="43.44934766320344" lon="11.418639804601215"><ele>331.0</ele><time>2026-04-26T08:18:38.001Z</time></trkpt><trkpt lat="43.44948253269223" lon="11.4186929368076"><ele>331.0</ele><time>2026-04-26T08:18:39.001Z</time></trkpt><trkpt lat="43.449612312266595" lon="11.418755628094294"><ele>331.0</ele><time>2026-04-26T08:18:40.001Z</time></trkpt><trkpt lat="43.4497398346977" lon="11.418810008169276"><ele>331.0</ele><time>2026-04-26T08:18:41.001Z</time></trkpt><trkpt lat="43.4498729611031" lon="11.418866400152773"><ele>329.25</ele><time>2026-04-26T08:18:42.001Z</time></trkpt><trkpt lat="43.45000392554493" lon="11.418931510517947"><ele>327.5</ele><time>2026-04-26T08:18:43.001Z</time></trkpt><trkpt lat="43.450148699275196" lon="11.418978749344998"><ele>325.75</ele><time>2026-04-26T08:18:44.001Z</time></trkpt><trkpt lat="43.45029299418814" lon="11.419000217639814"><ele>324.0</ele><time>2026-04-26T08:18:45.001Z</time></trkpt><trkpt lat="43.450422988391296" lon="11.41900921068027"><ele>324.5</ele><time>2026-04-26T08:18:46.001Z</time></trkpt><trkpt lat="43.45054793985737" lon="11.419039753691688"><ele>325.0</ele><time>2026-04-26T08:18:47.001Z</time></trkpt><trkpt lat="43.450678504541294" lon="11.41908785339362"><ele>325.5</ele><time>2026-04-26T08:18:48.001Z</time></trkpt><trkpt lat="43.450812467916165" lon="11.419124418465158"><ele>326.0</ele><time>2026-04-26T08:18:49.001Z</time></trkpt><trkpt lat="43.450952054431475" lon="11.419165746302282"><ele>326.0</ele><time>2026-04-26T08:18:50.001Z</time></trkpt><trkpt lat="43.451074705902464" lon="11.419224693476231"><ele>326.0</ele><time>2026-04-26T08:18:51.001Z</time></trkpt><trkpt lat="43.4511865737885" lon="11.419310397158698"><ele>326.0</ele><time>2026-04-26T08:18:52.001Z</time></trkpt><trkpt lat="43.451307247357015" lon="11.419418756132396"><ele>326.0</ele><time>2026-04-26T08:18:53.001Z</time></trkpt><trkpt lat="43.45142672787278" lon="11.419548236194666"><ele>327.6666666666667</ele><time>2026-04-26T08:18:54.001Z</time></trkpt><trkpt lat="43.45154923206283" lon="11.419682527323733"><ele>329.3333333333333</ele><time>2026-04-26T08:18:55.001Z</time></trkpt><trkpt lat="43.451668428223655" lon="11.419839367191033"><ele>331.0</ele><time>2026-04-26T08:18:56.001Z</time></trkpt><trkpt lat="43.45178257279067" lon="11.420019979279948"><ele>331.0</ele><time>2026-04-26T08:18:57.001Z</time></trkpt><trkpt lat="43.45190029218849" lon="11.420211071301132"><ele>331.0</ele><time>2026-04-26T08:18:58.001Z</time></trkpt><trkpt lat="43.45201838937467" lon="11.420413310383513"><ele>331.0</ele><time>2026-04-26T08:18:59.001Z</time></trkpt><trkpt lat="43.45214319380086" lon="11.42060897448985"><ele>332.3333333333333</ele><time>2026-04-26T08:19:00.001Z</time></trkpt><trkpt lat="43.45225933232421" lon="11.42079409111593"><ele>333.6666666666667</ele><time>2026-04-26T08:19:01.001Z</time></trkpt><trkpt lat="43.45237120445898" lon="11.420974739935977"><ele>335.0</ele><time>2026-04-26T08:19:02.001Z</time></trkpt><trkpt lat="43.45248691415488" lon="11.421099848568714"><ele>335.0</ele><time>2026-04-26T08:19:03.001Z</time></trkpt><trkpt lat="43.452607802689634" lon="11.421231175039452"><ele>335.0</ele><time>2026-04-26T08:19:04.001Z</time></trkpt><trkpt lat="43.452742929361854" lon="11.421345676401375"><ele>335.0</ele><time>2026-04-26T08:19:05.001Z</time></trkpt><trkpt lat="43.45288316129034" lon="11.421447269454536"><ele>334.0</ele><time>2026-04-26T08:19:06.001Z</time></trkpt><trkpt lat="43.45302008897749" lon="11.421550649338235"><ele>333.0</ele><time>2026-04-26T08:19:07.001Z</time></trkpt><trkpt lat="43.453143720190674" lon="11.421700802767118"><ele>332.0</ele><time>2026-04-26T08:19:08.001Z</time></trkpt><trkpt lat="43.45325538773573" lon="11.421876214438724"><ele>332.0</ele><time>2026-04-26T08:19:09Z</time></trkpt><trkpt lat="43.45336749669311" lon="11.422057228170566"><ele>332.0</ele><time>2026-04-26T08:19:10Z</time></trkpt><trkpt lat="43.4534820186998" lon="11.422231303421519"><ele>332.0</ele><time>2026-04-26T08:19:11Z</time></trkpt><trkpt lat="43.453601159820145" lon="11.422408761860293"><ele>333.0</ele><time>2026-04-26T08:19:12Z</time></trkpt><trkpt lat="43.453714905328006" lon="11.422593596543823"><ele>334.0</ele><time>2026-04-26T08:19:13Z</time></trkpt><trkpt lat="43.4538330647656" lon="11.422779800575963"><ele>335.0</ele><time>2026-04-26T08:19:14Z</time></trkpt><trkpt lat="43.45395518803727" lon="11.422966945217208"><ele>333.6666666666667</ele><time>2026-04-26T08:19:15Z</time></trkpt><trkpt lat="43.45405861297234" lon="11.423147767792566"><ele>332.3333333333333</ele><time>2026-04-26T08:19:16Z</time></trkpt><trkpt lat="43.454180175150306" lon="11.423306657710238"><ele>331.0</ele><time>2026-04-26T08:19:17Z</time></trkpt><trkpt lat="43.45427209557962" lon="11.423467711753682"><ele>331.0</ele><time>2026-04-26T08:19:18Z</time></trkpt><trkpt lat="43.45437205666615" lon="11.423597652680288"><ele>331.0</ele><time>2026-04-26T08:19:19Z</time></trkpt><trkpt lat="43.45447913088617" lon="11.42372899423636"><ele>331.0</ele><time>2026-04-26T08:19:20Z</time></trkpt><trkpt lat="43.45459921851303" lon="11.423849214240024"><ele>331.0</ele><time>2026-04-26T08:19:21Z</time></trkpt><trkpt lat="43.454729604899924" lon="11.42397893627767"><ele>331.66666666666663</ele><time>2026-04-26T08:19:22Z</time></trkpt><trkpt lat="43.454872490962025" lon="11.424123302042581"><ele>332.3333333333333</ele><time>2026-04-26T08:19:23Z</time></trkpt><trkpt lat="43.455023156828666" lon="11.424277317849281"><ele>333.0</ele><time>2026-04-26T08:19:24Z</time></trkpt><trkpt lat="43.45517525506975" lon="11.424435243746839"><ele>333.0</ele><time>2026-04-26T08:19:25Z</time></trkpt><trkpt lat="43.45532995277762" lon="11.424590381935756"><ele>333.0</ele><time>2026-04-26T08:19:26Z</time></trkpt><trkpt lat="43.45548736376482" lon="11.42475304617044"><ele>333.0</ele><time>2026-04-26T08:19:27Z</time></trkpt><trkpt lat="43.45563621492598" lon="11.4249086270599"><ele>334.3333333333333</ele><time>2026-04-26T08:19:28Z</time></trkpt><trkpt lat="43.45576637367657" lon="11.425048757906938"><ele>335.66666666666663</ele><time>2026-04-26T08:19:29Z</time></trkpt><trkpt lat="43.4558862748973" lon="11.425176146407948"><ele>337.0</ele><time>2026-04-26T08:19:30Z</time></trkpt><trkpt lat="43.45599662711943" lon="11.425293957350402"><ele>337.0</ele><time>2026-04-26T08:19:31Z</time></trkpt><trkpt lat="43.45610060461335" lon="11.425398615476524"><ele>337.0</ele><time>2026-04-26T08:19:32Z</time></trkpt><trkpt lat="43.456219675109516" lon="11.425487668440972"><ele>337.0</ele><time>2026-04-26T08:19:33Z</time></trkpt><trkpt lat="43.456362367422166" lon="11.425537848995354"><ele>337.0</ele><time>2026-04-26T08:19:34Z</time></trkpt><trkpt lat="43.45652896366445" lon="11.425550815745556"><ele>338.66666666666663</ele><time>2026-04-26T08:19:35Z</time></trkpt><trkpt lat="43.45672323521337" lon="11.425553675878973"><ele>340.3333333333333</ele><time>2026-04-26T08:19:36Z</time></trkpt><trkpt lat="43.45691040350707" lon="11.425579011218272"><ele>342.0</ele><time>2026-04-26T08:19:37Z</time></trkpt><trkpt lat="43.457098059977156" lon="11.425651537008834"><ele>340.0</ele><time>2026-04-26T08:19:38Z</time></trkpt><trkpt lat="43.45730019125182" lon="11.425721560289805"><ele>338.0</ele><time>2026-04-26T08:19:39Z</time></trkpt><trkpt lat="43.45748966817533" lon="11.42581812855095"><ele>336.0</ele><time>2026-04-26T08:19:40Z</time></trkpt><trkpt lat="43.457678971576094" lon="11.425897495312423"><ele>336.0</ele><time>2026-04-26T08:19:41Z</time></trkpt><trkpt lat="43.4578690458875" lon="11.425978632808947"><ele>336.0</ele><time>2026-04-26T08:19:42Z</time></trkpt><trkpt lat="43.45806058280811" lon="11.426066959275072"><ele>336.0</ele><time>2026-04-26T08:19:43Z</time></trkpt><trkpt lat="43.45825677497265" lon="11.426152867686403"><ele>336.0</ele><time>2026-04-26T08:19:44Z</time></trkpt><trkpt lat="43.45845099130213" lon="11.426239748940036"><ele>336.0</ele><time>2026-04-26T08:19:45Z</time></trkpt><trkpt lat="43.45865142629466" lon="11.426326500651763"><ele>336.0</ele><time>2026-04-26T08:19:46Z</time></trkpt><trkpt lat="43.458848213284824" lon="11.426417450829502"><ele>337.0</ele><time>2026-04-26T08:19:47Z</time></trkpt><trkpt lat="43.45905092345035" lon="11.426508776806871"><ele>338.0</ele><time>2026-04-26T08:19:48Z</time></trkpt><trkpt lat="43.459248578218876" lon="11.426599229355412"><ele>339.0</ele><time>2026-04-26T08:19:49Z</time></trkpt><trkpt lat="43.45944053054248" lon="11.426678939948626"><ele>339.0</ele><time>2026-04-26T08:19:50.001Z</time></trkpt><trkpt lat="43.459616145931676" lon="11.426756087221303"><ele>339.0</ele><time>2026-04-26T08:19:51.001Z</time></trkpt><trkpt lat="43.459783128976774" lon="11.42683299906862"><ele>339.0</ele><time>2026-04-26T08:19:52.001Z</time></trkpt><trkpt lat="43.45995448996062" lon="11.426904257910179"><ele>340.3333333333333</ele><time>2026-04-26T08:19:53.001Z</time></trkpt><trkpt lat="43.46012160000739" lon="11.426977705207918"><ele>341.66666666666663</ele><time>2026-04-26T08:19:54.001Z</time></trkpt><trkpt lat="43.46028912358394" lon="11.427054748574893"><ele>343.0</ele><time>2026-04-26T08:19:55.001Z</time></trkpt><trkpt lat="43.4604562103076" lon="11.427128009264546"><ele>342.0</ele><time>2026-04-26T08:19:56.001Z</time></trkpt><trkpt lat="43.46061967886665" lon="11.42722633913917"><ele>341.0</ele><time>2026-04-26T08:19:57.001Z</time></trkpt><trkpt lat="43.46077429209383" lon="11.427346975667396"><ele>340.0</ele><time>2026-04-26T08:19:58.001Z</time></trkpt><trkpt lat="43.46090896335526" lon="11.427516918810623"><ele>340.0</ele><time>2026-04-26T08:19:59.001Z</time></trkpt><trkpt lat="43.46102917605063" lon="11.427661797742553"><ele>340.0</ele><time>2026-04-26T08:20:00.001Z</time></trkpt><trkpt lat="43.46116807773323" lon="11.42779592320039"><ele>340.0</ele><time>2026-04-26T08:20:01.001Z</time></trkpt><trkpt lat="43.46130044945703" lon="11.42793310439254"><ele>340.66666666666663</ele><time>2026-04-26T08:20:02.001Z</time></trkpt><trkpt lat="43.4614296208532" lon="11.428080219691035"><ele>341.3333333333333</ele><time>2026-04-26T08:20:03.001Z</time></trkpt><trkpt lat="43.46156180008559" lon="11.428224494075284"><ele>342.0</ele><time>2026-04-26T08:20:04.001Z</time></trkpt><trkpt lat="43.46169242889635" lon="11.428368826816778"><ele>342.0</ele><time>2026-04-26T08:20:05.001Z</time></trkpt><trkpt lat="43.46183638043025" lon="11.428524108814868"><ele>342.0</ele><time>2026-04-26T08:20:06.001Z</time></trkpt><trkpt lat="43.461969699046946" lon="11.428678631729051"><ele>342.0</ele><time>2026-04-26T08:20:07.001Z</time></trkpt><trkpt lat="43.46210141661214" lon="11.428846807680888"><ele>343.3333333333333</ele><time>2026-04-26T08:20:08.001Z</time></trkpt><trkpt lat="43.46223366666338" lon="11.429011400369115"><ele>344.66666666666663</ele><time>2026-04-26T08:20:09.001Z</time></trkpt><trkpt lat="43.462365934805725" lon="11.429178817404713"><ele>346.0</ele><time>2026-04-26T08:20:10.001Z</time></trkpt><trkpt lat="43.46250267570544" lon="11.429350248695263"><ele>346.0</ele><time>2026-04-26T08:20:11.001Z</time></trkpt><trkpt lat="43.46262265352146" lon="11.429501740683182"><ele>346.0</ele><time>2026-04-26T08:20:12.001Z</time></trkpt><trkpt lat="43.462741687060706" lon="11.429648554593633"><ele>346.0</ele><time>2026-04-26T08:20:13.001Z</time></trkpt><trkpt lat="43.46285008063752" lon="11.429783481145952"><ele>346.0</ele><time>2026-04-26T08:20:14.001Z</time></trkpt><trkpt lat="43.46292861018193" lon="11.429936272957045"><ele>346.0</ele><time>2026-04-26T08:20:15.001Z</time></trkpt><trkpt lat="43.463004496698" lon="11.430073735968731"><ele>346.0</ele><time>2026-04-26T08:20:16.001Z</time></trkpt><trkpt lat="43.46308080313203" lon="11.430209837587304"><ele>346.0</ele><time>2026-04-26T08:20:17.001Z</time></trkpt><trkpt lat="43.4631552612052" lon="11.430345895666145"><ele>346.25</ele><time>2026-04-26T08:20:18.001Z</time></trkpt><trkpt lat="43.46323826066096" lon="11.430473007718533"><ele>346.5</ele><time>2026-04-26T08:20:19.001Z</time></trkpt><trkpt lat="43.463326919251145" lon="11.43060649337359"><ele>346.75</ele><time>2026-04-26T08:20:20.001Z</time></trkpt><trkpt lat="43.46341540135144" lon="11.430742337735099"><ele>347.0</ele><time>2026-04-26T08:20:21.001Z</time></trkpt><trkpt lat="43.463508916532916" lon="11.430874322644776"><ele>347.0</ele><time>2026-04-26T08:20:22.001Z</time></trkpt><trkpt lat="43.46359903561189" lon="11.431029857509694"><ele>347.0</ele><time>2026-04-26T08:20:23.001Z</time></trkpt><trkpt lat="43.463680907337476" lon="11.431203382924634"><ele>347.0</ele><time>2026-04-26T08:20:24.001Z</time></trkpt><trkpt lat="43.46374105702502" lon="11.431408995378963"><ele>349.6666666666667</ele><time>2026-04-26T08:20:25.001Z</time></trkpt><trkpt lat="43.46382956947233" lon="11.431609407744878"><ele>352.3333333333333</ele><time>2026-04-26T08:20:26.001Z</time></trkpt><trkpt lat="43.46390540988" lon="11.4318019357071"><ele>355.0</ele><time>2026-04-26T08:20:27.001Z</time></trkpt><trkpt lat="43.46397079504581" lon="11.431999150064518"><ele>353.5</ele><time>2026-04-26T08:20:28.001Z</time></trkpt><trkpt lat="43.464029579330955" lon="11.432166423654714"><ele>352.0</ele><time>2026-04-26T08:20:29.001Z</time></trkpt><trkpt lat="43.464077507088426" lon="11.432316165111569"><ele>350.5</ele><time>2026-04-26T08:20:30.001Z</time></trkpt><trkpt lat="43.464127939134045" lon="11.432456567529405"><ele>349.0</ele><time>2026-04-26T08:20:31.001Z</time></trkpt><trkpt lat="43.46418816200431" lon="11.43258820522718"><ele>349.0</ele><time>2026-04-26T08:20:32.001Z</time></trkpt><trkpt lat="43.464266443450114" lon="11.432717514999135"><ele>349.0</ele><time>2026-04-26T08:20:33.001Z</time></trkpt><trkpt lat="43.464352065628226" lon="11.432833834963319"><ele>349.0</ele><time>2026-04-26T08:20:34.001Z</time></trkpt><trkpt lat="43.46444306387757" lon="11.432934869498585"><ele>349.0</ele><time>2026-04-26T08:20:35.001Z</time></trkpt><trkpt lat="43.46453628597947" lon="11.433015334348365"><ele>348.79999999999995</ele><time>2026-04-26T08:20:36.001Z</time></trkpt><trkpt lat="43.4646213586509" lon="11.433084878453617"><ele>348.59999999999997</ele><time>2026-04-26T08:20:37.001Z</time></trkpt><trkpt lat="43.46470908134426" lon="11.433147555162456"><ele>348.4</ele><time>2026-04-26T08:20:38.001Z</time></trkpt><trkpt lat="43.46479690849998" lon="11.433196515630227"><ele>348.2</ele><time>2026-04-26T08:20:39.001Z</time></trkpt><trkpt lat="43.46488680809232" lon="11.433242705902241"><ele>348.0</ele><time>2026-04-26T08:20:40.001Z</time></trkpt><trkpt lat="43.46497870267568" lon="11.43331866615868"><ele>348.0</ele><time>2026-04-26T08:20:41.001Z</time></trkpt><trkpt lat="43.46506636197402" lon="11.433416902998351"><ele>348.0</ele><time>2026-04-26T08:20:42.001Z</time></trkpt><trkpt lat="43.46514889816507" lon="11.43352990536541"><ele>348.0</ele><time>2026-04-26T08:20:43.001Z</time></trkpt><trkpt lat="43.465221719318976" lon="11.43364870263735"><ele>348.0</ele><time>2026-04-26T08:20:44.001Z</time></trkpt><trkpt lat="43.46530032773531" lon="11.433768528592422"><ele>348.0</ele><time>2026-04-26T08:20:45.001Z</time></trkpt><trkpt lat="43.46538774216918" lon="11.433887987981924"><ele>348.0</ele><time>2026-04-26T08:20:46.001Z</time></trkpt><trkpt lat="43.46546893669101" lon="11.43399849678003"><ele>348.0</ele><time>2026-04-26T08:20:47.001Z</time></trkpt><trkpt lat="43.46555865801866" lon="11.434092952136757"><ele>348.0</ele><time>2026-04-26T08:20:48.001Z</time></trkpt><trkpt lat="43.46566685876555" lon="11.434172984929283"><ele>348.0</ele><time>2026-04-26T08:20:49.001Z</time></trkpt><trkpt lat="43.46578335261392" lon="11.434230903642558"><ele>348.0</ele><time>2026-04-26T08:20:50.001Z</time></trkpt><trkpt lat="43.46590207123938" lon="11.434273869857877"><ele>348.0</ele><time>2026-04-26T08:20:51.001Z</time></trkpt><trkpt lat="43.4660205387788" lon="11.434300676416797"><ele>348.0</ele><time>2026-04-26T08:20:52.001Z</time></trkpt><trkpt lat="43.46613707845561" lon="11.434332309994714"><ele>348.0</ele><time>2026-04-26T08:20:53.001Z</time></trkpt><trkpt lat="43.46624644955073" lon="11.43436114485769"><ele>348.0</ele><time>2026-04-26T08:20:54.001Z</time></trkpt><trkpt lat="43.46635232199574" lon="11.43437677398212"><ele>348.0</ele><time>2026-04-26T08:20:55.001Z</time></trkpt><trkpt lat="43.46645616534559" lon="11.434377685928926"><ele>348.0</ele><time>2026-04-26T08:20:56.001Z</time></trkpt><trkpt lat="43.466549997677205" lon="11.43437555151128"><ele>348.0</ele><time>2026-04-26T08:20:57.001Z</time></trkpt><trkpt lat="43.46663642296365" lon="11.434380783361215"><ele>348.59999999999997</ele><time>2026-04-26T08:20:58.001Z</time></trkpt><trkpt lat="43.466723422824664" lon="11.434381014726517"><ele>349.2</ele><time>2026-04-26T08:20:59.001Z</time></trkpt><trkpt lat="43.466827380163615" lon="11.434362511533584"><ele>349.8</ele><time>2026-04-26T08:21:00.001Z</time></trkpt><trkpt lat="43.46694308874379" lon="11.434356761241078"><ele>350.4</ele><time>2026-04-26T08:21:01.001Z</time></trkpt><trkpt lat="43.467057393685906" lon="11.434331609327641"><ele>351.0</ele><time>2026-04-26T08:21:02.001Z</time></trkpt><trkpt lat="43.46715836958915" lon="11.434304688231482"><ele>351.5</ele><time>2026-04-26T08:21:03.001Z</time></trkpt><trkpt lat="43.467249537998164" lon="11.43425087902226"><ele>352.0</ele><time>2026-04-26T08:21:04.002Z</time></trkpt><trkpt lat="43.46732900158601" lon="11.43422362974212"><ele>352.5</ele><time>2026-04-26T08:21:05.002Z</time></trkpt><trkpt lat="43.46739451303472" lon="11.434201956984328"><ele>353.0</ele><time>2026-04-26T08:21:06.002Z</time></trkpt><trkpt lat="43.46747296984029" lon="11.434205484899955"><ele>353.5</ele><time>2026-04-26T08:21:08.002Z</time></trkpt><trkpt lat="43.46749042707045" lon="11.434308876256297"><ele>354.0</ele><time>2026-04-26T08:21:11.002Z</time></trkpt><trkpt lat="43.46745556832945" lon="11.434216654975822"><ele>354.0</ele><time>2026-04-26T08:21:19.001Z</time></trkpt><trkpt lat="43.467439391087765" lon="11.434408771016011"><ele>354.0</ele><time>2026-04-26T08:21:23.001Z</time></trkpt><trkpt lat="43.467355171489444" lon="11.43443343484473"><ele>354.0</ele><time>2026-04-26T08:21:24.001Z</time></trkpt><trkpt lat="43.467266565770956" lon="11.43445758242611"><ele>354.0</ele><time>2026-04-26T08:21:25.001Z</time></trkpt><trkpt lat="43.467198989191644" lon="11.434477188715615"><ele>354.0</ele><time>2026-04-26T08:21:26.001Z</time></trkpt><trkpt lat="43.46713038601836" lon="11.434499323152691"><ele>354.0</ele><time>2026-04-26T08:21:27.001Z</time></trkpt><trkpt lat="43.467056855767304" lon="11.434537143768368"><ele>354.0</ele><time>2026-04-26T08:21:28.001Z</time></trkpt><trkpt lat="43.466982182904" lon="11.434586386104442"><ele>354.0</ele><time>2026-04-26T08:21:29.001Z</time></trkpt><trkpt lat="43.466913925919215" lon="11.434662641881651"><ele>354.0</ele><time>2026-04-26T08:21:30.001Z</time></trkpt><trkpt lat="43.4668283292736" lon="11.434720539144827"><ele>354.0</ele><time>2026-04-26T08:21:31.001Z</time></trkpt><trkpt lat="43.46676195613237" lon="11.434765434170192"><ele>354.0</ele><time>2026-04-26T08:21:32.001Z</time></trkpt><trkpt lat="43.46669165137792" lon="11.434811768908459"><ele>351.0</ele><time>2026-04-26T08:21:34.001Z</time></trkpt><trkpt lat="43.46639830101212" lon="11.434329615749585"><ele>351.0</ele><time>2026-04-26T08:21:36.001Z</time></trkpt><trkpt lat="43.46633857576258" lon="11.434277746133505"><ele>351.0</ele><time>2026-04-26T08:21:40.001Z</time></trkpt><trkpt lat="43.46633827774799" lon="11.434174605977626"><ele>351.0</ele><time>2026-04-26T08:21:53.001Z</time></trkpt><trkpt lat="43.46634801320313" lon="11.434067678818836"><ele>351.0</ele><time>2026-04-26T08:21:57.001Z</time></trkpt><trkpt lat="43.46634801320313" lon="11.434067678818836"><ele>351.0</ele><time>2026-04-26T08:21:57.001Z</time></trkpt></trkseg></trk></gpx>